Time,TemperatureF,DewpointF,PressureIn,WindDirection,WindDirectionDegrees,WindSpeedMPH,WindSpeedGustMPH,Humidity,HourlyPrecipIn,Conditions,Clouds,dailyrainin,SoftwareType,DateUTC
2013-04-30 00:00:00,67.6,54.6,30.00,ESE,103,0.0,3.0,63,0.00,,---,0.00,VWS V14.01,2013-04-30 04:00:00,
2013-04-30 00:01:00,67.6,54.1,30.00,ESE,103,0.0,0.0,62,0.00,,---,0.00,VWS V14.01,2013-04-30 04:01:00,
2013-04-30 00:02:00,67.8,54.8,30.00,ESE,103,0.0,0.0,63,0.00,,---,0.00,VWS V14.01,2013-04-30 04:02:00,
2013-04-30 00:03:00,67.8,54.3,30.00,ESE,103,0.0,0.0,62,0.00,,---,0.00,VWS V14.01,2013-04-30 04:03:00,
2013-04-30 00:04:00,67.8,53.9,30.00,ESE,103,0.0,0.0,61,0.00,,---,0.00,VWS V14.01,2013-04-30 04:04:00,
2013-04-30 00:05:00,67.8,53.9,30.00,ESE,103,3.0,3.0,61,0.00,,---,0.00,VWS V14.01,2013-04-30 04:05:00,
2013-04-30 00:06:00,67.8,53.9,30.00,ESE,103,4.0,4.0,61,0.00,,---,0.00,VWS V14.01,2013-04-30 04:06:00,
2013-04-30 00:07:00,67.6,52.8,30.00,ESE,103,0.0,4.0,59,0.00,,---,0.00,VWS V14.01,2013-04-30 04:07:00,
2013-04-30 00:08:00,67.4,52.6,30.00,ESE,103,0.0,4.0,59,0.00,,---,0.00,VWS V14.01,2013-04-30 04:08:00,
2013-04-30 00:09:00,67.3,52.5,30.00,ESE,103,0.0,4.0,59,0.00,,---,0.00,VWS V14.01,2013-04-30 04:09:00,
2013-04-30 00:10:00,67.1,52.3,30.00,ESE,103,0.0,4.0,59,0.00,,---,0.00,VWS V14.01,2013-04-30 04:10:00,
2013-04-30 00:11:00,66.9,52.1,30.00,ESE,103,0.0,0.0,59,0.00,,---,0.00,VWS V14.01,2013-04-30 04:11:00,
2013-04-30 00:12:00,66.9,52.6,30.00,ESE,103,0.0,0.0,60,0.00,,---,0.00,VWS V14.01,2013-04-30 04:12:00,
2013-04-30 00:13:00,66.8,52.5,30.00,ESE,103,0.0,0.0,60,0.00,,---,0.00,VWS V14.01,2013-04-30 04:13:00,
2013-04-30 00:14:00,66.8,52.5,30.00,ESE,103,0.0,0.0,60,0.00,,---,0.00,VWS V14.01,2013-04-30 04:14:00,
2013-04-30 00:15:00,66.8,52.5,30.01,ESE,103,0.0,0.0,60,0.00,,---,0.00,VWS V14.01,2013-04-30 04:15:00,
2013-04-30 00:16:00,66.4,52.6,30.01,ESE,103,0.0,0.0,61,0.00,,---,0.00,VWS V14.01,2013-04-30 04:16:00,
2013-04-30 00:17:00,66.3,52.5,30.01,ESE,103,0.0,0.0,61,0.00,,---,0.00,VWS V14.01,2013-04-30 04:17:00,
2013-04-30 00:18:00,66.3,52.9,30.01,ESE,103,0.0,0.0,62,0.00,,---,0.00,VWS V14.01,2013-04-30 04:18:00,
2013-04-30 00:19:00,66.1,52.7,30.01,ESE,103,0.0,0.0,62,0.00,,---,0.00,VWS V14.01,2013-04-30 04:19:00,
2013-04-30 00:20:00,66.1,53.6,30.01,ESE,103,0.0,0.0,64,0.00,,---,0.00,VWS V14.01,2013-04-30 04:20:00,
2013-04-30 00:21:00,66.1,53.6,30.01,ESE,103,0.0,0.0,64,0.00,,---,0.00,VWS V14.01,2013-04-30 04:21:00,
2013-04-30 00:22:00,66.0,52.6,30.01,ESE,103,1.0,1.0,62,0.00,,---,0.00,VWS V14.01,2013-04-30 04:22:00,
2013-04-30 00:23:00,66.0,52.6,30.01,NNE,18,4.0,5.0,62,0.00,,---,0.00,VWS V14.01,2013-04-30 04:23:00,
2013-04-30 00:24:00,66.1,53.2,30.01,NNE,17,4.0,6.0,63,0.00,,---,0.00,VWS V14.01,2013-04-30 04:24:00,
2013-04-30 00:25:00,66.1,53.6,30.01,NE,35,0.0,6.0,64,0.00,,---,0.00,VWS V14.01,2013-04-30 04:25:00,
2013-04-30 00:26:00,66.1,53.6,30.01,NE,36,0.0,6.0,64,0.00,,---,0.00,VWS V14.01,2013-04-30 04:26:00,
2013-04-30 00:27:00,66.1,52.7,30.01,ESE,108,1.0,6.0,62,0.00,,---,0.00,VWS V14.01,2013-04-30 04:27:00,
2013-04-30 00:28:00,66.3,53.3,30.01,ESE,107,0.0,6.0,63,0.00,,---,0.00,VWS V14.01,2013-04-30 04:28:00,
2013-04-30 00:29:00,66.4,53.0,30.01,ESE,107,0.0,6.0,62,0.00,,---,0.00,VWS V14.01,2013-04-30 04:29:00,
2013-04-30 00:30:00,66.4,53.9,30.01,East,97,0.0,6.0,64,0.00,,---,0.00,VWS V14.01,2013-04-30 04:30:00,
2013-04-30 00:31:00,66.8,54.2,30.01,South,183,1.0,4.0,64,0.00,,---,0.00,VWS V14.01,2013-04-30 04:31:00,
2013-04-30 00:32:00,66.8,52.9,30.01,South,183,0.0,4.0,61,0.00,,---,0.00,VWS V14.01,2013-04-30 04:32:00,
2013-04-30 00:33:00,66.8,52.9,30.01,SE,127,0.0,4.0,61,0.00,,---,0.00,VWS V14.01,2013-04-30 04:33:00,
2013-04-30 00:34:00,66.9,53.0,30.01,SE,124,0.0,4.0,61,0.00,,---,0.00,VWS V14.01,2013-04-30 04:34:00,
2013-04-30 00:35:00,66.8,52.9,30.01,SE,124,0.0,4.0,61,0.00,,---,0.00,VWS V14.01,2013-04-30 04:35:00,
2013-04-30 00:36:00,66.8,52.9,30.01,SE,124,0.0,4.0,61,0.00,,---,0.00,VWS V14.01,2013-04-30 04:36:00,
2013-04-30 00:37:00,66.8,52.9,30.01,SE,124,3.0,4.0,61,0.00,,---,0.00,VWS V14.01,2013-04-30 04:37:00,
2013-04-30 00:38:00,66.6,52.8,30.01,SE,145,3.0,4.0,61,0.00,,---,0.00,VWS V14.01,2013-04-30 04:38:00,
2013-04-30 00:39:00,66.6,53.2,30.01,East,84,3.0,6.0,62,0.00,,---,0.00,VWS V14.01,2013-04-30 04:39:00,
2013-04-30 00:40:00,66.4,53.0,30.01,East,84,0.0,6.0,62,0.00,,---,0.00,VWS V14.01,2013-04-30 04:40:00,
2013-04-30 00:41:00,66.4,53.0,30.01,East,84,0.0,0.0,62,0.00,,---,0.00,VWS V14.01,2013-04-30 04:41:00,
2013-04-30 00:42:00,66.4,53.0,30.01,East,84,0.0,1.0,62,0.00,,---,0.00,VWS V14.01,2013-04-30 04:42:00,
2013-04-30 00:43:00,66.6,54.5,30.01,East,84,0.0,1.0,65,0.00,,---,0.00,VWS V14.01,2013-04-30 04:43:00,
2013-04-30 00:44:00,66.8,54.7,30.01,East,84,1.0,2.0,65,0.00,,---,0.00,VWS V14.01,2013-04-30 04:44:00,
2013-04-30 00:45:00,66.8,54.7,30.01,East,84,3.0,3.0,65,0.00,,---,0.00,VWS V14.01,2013-04-30 04:45:00,
2013-04-30 00:46:00,66.9,54.8,30.01,SE,132,3.0,6.0,65,0.00,,---,0.00,VWS V14.01,2013-04-30 04:46:00,
2013-04-30 00:47:00,67.1,55.0,30.01,SE,128,0.0,6.0,65,0.00,,---,0.00,VWS V14.01,2013-04-30 04:47:00,
2013-04-30 00:48:00,67.3,55.2,30.01,SE,128,0.0,6.0,65,0.00,,---,0.00,VWS V14.01,2013-04-30 04:48:00,
2013-04-30 00:49:00,67.4,55.2,30.01,SE,128,0.0,6.0,65,0.00,,---,0.00,VWS V14.01,2013-04-30 04:49:00,
2013-04-30 00:50:00,67.8,54.8,30.01,SE,128,0.0,6.0,63,0.00,,---,0.00,VWS V14.01,2013-04-30 04:50:00,
2013-04-30 00:51:00,67.9,54.8,30.01,SE,128,0.0,0.0,63,0.00,,---,0.00,VWS V14.01,2013-04-30 04:51:00,
2013-04-30 00:52:00,67.9,54.4,30.01,NNW,330,1.0,5.0,62,0.00,,---,0.00,VWS V14.01,2013-04-30 04:52:00,
2013-04-30 00:53:00,67.9,53.5,30.01,East,100,1.0,6.0,60,0.00,,---,0.00,VWS V14.01,2013-04-30 04:53:00,
2013-04-30 00:54:00,67.9,53.5,30.01,East,100,0.0,6.0,60,0.00,,---,0.00,VWS V14.01,2013-04-30 04:54:00,
2013-04-30 00:55:00,67.9,53.1,30.01,East,100,0.0,6.0,59,0.00,,---,0.00,VWS V14.01,2013-04-30 04:55:00,
2013-04-30 00:56:00,67.9,53.1,30.01,East,100,0.0,6.0,59,0.00,,---,0.00,VWS V14.01,2013-04-30 04:56:00,
2013-04-30 00:57:00,67.9,53.1,30.01,ESE,108,0.0,6.0,59,0.00,,---,0.00,VWS V14.01,2013-04-30 04:57:00,
2013-04-30 00:58:00,68.1,53.7,30.01,ESE,107,0.0,6.0,60,0.00,,---,0.00,VWS V14.01,2013-04-30 04:58:00,
2013-04-30 00:59:00,68.1,53.2,30.01,ESE,107,0.0,6.0,59,0.00,,---,0.00,VWS V14.01,2013-04-30 04:59:00,
2013-04-30 01:00:00,68.3,53.4,30.00,ESE,107,0.0,6.0,59,0.00,,---,0.00,VWS V14.01,2013-04-30 05:00:00,
2013-04-30 01:01:00,68.3,53.4,30.00,ESE,107,0.0,0.0,59,0.00,,---,0.00,VWS V14.01,2013-04-30 05:01:00,
2013-04-30 01:02:00,68.4,54.9,30.00,ESE,121,1.0,1.0,62,0.00,,---,0.00,VWS V14.01,2013-04-30 05:02:00,
2013-04-30 01:03:00,68.6,55.1,30.00,ESE,121,0.0,1.0,62,0.00,,---,0.00,VWS V14.01,2013-04-30 05:03:00,
2013-04-30 01:04:00,68.8,54.8,30.00,ESE,121,2.0,2.0,61,0.00,,---,0.00,VWS V14.01,2013-04-30 05:04:00,
2013-04-30 01:05:00,68.8,54.8,30.00,SE,124,0.0,4.0,61,0.00,,---,0.00,VWS V14.01,2013-04-30 05:05:00,
2013-04-30 01:06:00,68.9,54.9,30.00,SE,128,0.0,4.0,61,0.00,,---,0.00,VWS V14.01,2013-04-30 05:06:00,
2013-04-30 01:07:00,68.9,53.5,30.00,SE,137,2.0,4.0,58,0.00,,---,0.00,VWS V14.01,2013-04-30 05:07:00,
2013-04-30 01:08:00,68.9,53.5,30.00,SE,137,0.0,4.0,58,0.00,,---,0.00,VWS V14.01,2013-04-30 05:08:00,
2013-04-30 01:09:00,69.1,53.7,30.00,SE,134,3.0,5.0,58,0.00,,---,0.00,VWS V14.01,2013-04-30 05:09:00,
2013-04-30 01:10:00,69.1,54.7,30.00,SE,134,2.0,5.0,60,0.00,,---,0.00,VWS V14.01,2013-04-30 05:10:00,
2013-04-30 01:11:00,69.3,54.8,30.00,ESE,106,0.0,1.0,60,0.00,,---,0.00,VWS V14.01,2013-04-30 05:11:00,
2013-04-30 01:12:00,69.4,54.9,30.00,ESE,118,3.0,3.0,60,0.00,,---,0.00,VWS V14.01,2013-04-30 05:12:00,
2013-04-30 01:13:00,69.6,54.2,30.00,ESE,118,0.0,3.0,58,0.00,,---,0.00,VWS V14.01,2013-04-30 05:13:00,
2013-04-30 01:14:00,69.8,54.8,30.00,ESE,118,0.0,3.0,59,0.00,,---,0.00,VWS V14.01,2013-04-30 05:14:00,
2013-04-30 01:15:00,69.8,53.9,30.00,SE,144,0.0,3.0,57,0.00,,---,0.00,VWS V14.01,2013-04-30 05:15:00,
2013-04-30 01:16:00,69.9,54.9,30.00,SE,144,0.0,3.0,59,0.00,,---,0.00,VWS V14.01,2013-04-30 05:16:00,
2013-04-30 01:17:00,70.1,54.2,30.00,SSE,151,2.0,3.0,57,0.00,,---,0.00,VWS V14.01,2013-04-30 05:17:00,
2013-04-30 01:18:00,70.1,54.2,30.00,SSE,154,0.0,3.0,57,0.00,,---,0.00,VWS V14.01,2013-04-30 05:18:00,
2013-04-30 01:19:00,70.1,53.2,30.00,SE,131,3.0,3.0,55,0.00,,---,0.00,VWS V14.01,2013-04-30 05:19:00,
2013-04-30 01:20:00,70.1,53.2,30.00,SE,127,4.0,5.0,55,0.00,,---,0.00,VWS V14.01,2013-04-30 05:20:00,
2013-04-30 01:21:00,70.1,54.2,30.00,SSE,159,0.0,5.0,57,0.00,,---,0.00,VWS V14.01,2013-04-30 05:21:00,
2013-04-30 01:22:00,69.9,54.0,30.00,SSE,159,1.0,5.0,57,0.00,,---,0.00,VWS V14.01,2013-04-30 05:22:00,
2013-04-30 01:23:00,69.9,54.0,30.00,SSE,152,0.0,5.0,57,0.00,,---,0.00,VWS V14.01,2013-04-30 05:23:00,
2013-04-30 01:24:00,69.9,53.5,30.00,SSE,152,2.0,5.0,56,0.00,,---,0.00,VWS V14.01,2013-04-30 05:24:00,
2013-04-30 01:25:00,69.9,53.0,30.00,SSE,162,4.0,6.0,55,0.00,,---,0.00,VWS V14.01,2013-04-30 05:25:00,
2013-04-30 01:26:00,69.8,52.9,30.00,SSE,162,2.0,6.0,55,0.00,,---,0.00,VWS V14.01,2013-04-30 05:26:00,
2013-04-30 01:27:00,69.8,52.4,30.00,SSE,166,7.0,7.0,54,0.00,,---,0.00,VWS V14.01,2013-04-30 05:27:00,
2013-04-30 01:28:00,69.6,52.2,30.00,SSE,166,0.0,7.0,54,0.00,,---,0.00,VWS V14.01,2013-04-30 05:28:00,
2013-04-30 01:29:00,69.6,52.7,30.00,SSE,166,3.0,7.0,55,0.00,,---,0.00,VWS V14.01,2013-04-30 05:29:00,
2013-04-30 01:30:00,69.6,52.7,29.99,SSE,161,5.0,7.0,55,0.00,,---,0.00,VWS V14.01,2013-04-30 05:30:00,
2013-04-30 01:31:00,69.4,52.5,29.99,SSE,161,3.0,5.0,55,0.00,,---,0.00,VWS V14.01,2013-04-30 05:31:00,
2013-04-30 01:32:00,69.4,52.5,29.99,SSE,163,2.0,5.0,55,0.00,,---,0.00,VWS V14.01,2013-04-30 05:32:00,
2013-04-30 01:33:00,69.3,52.5,29.99,SSE,163,0.0,5.0,55,0.00,,---,0.00,VWS V14.01,2013-04-30 05:33:00,
2013-04-30 01:34:00,69.3,52.5,29.99,SSE,162,0.0,5.0,55,0.00,,---,0.00,VWS V14.01,2013-04-30 05:34:00,
2013-04-30 01:35:00,69.3,52.0,29.99,SSE,162,0.0,5.0,54,0.00,,---,0.00,VWS V14.01,2013-04-30 05:35:00,
2013-04-30 01:36:00,69.3,53.0,29.99,SSE,162,0.0,5.0,56,0.00,,---,0.00,VWS V14.01,2013-04-30 05:36:00,
2013-04-30 01:37:00,69.3,52.5,29.99,SE,139,3.0,5.0,55,0.00,,---,0.00,VWS V14.01,2013-04-30 05:37:00,
2013-04-30 01:38:00,69.3,52.5,29.99,SE,139,0.0,5.0,55,0.00,,---,0.00,VWS V14.01,2013-04-30 05:38:00,
2013-04-30 01:39:00,69.3,53.4,29.99,ESE,122,0.0,5.0,57,0.00,,---,0.00,VWS V14.01,2013-04-30 05:39:00,
2013-04-30 01:40:00,69.3,53.4,29.99,East,97,0.0,5.0,57,0.00,,---,0.00,VWS V14.01,2013-04-30 05:40:00,
2013-04-30 01:41:00,69.4,53.5,29.99,ENE,65,0.0,3.0,57,0.00,,---,0.00,VWS V14.01,2013-04-30 05:41:00,
2013-04-30 01:42:00,69.4,53.5,29.99,ENE,65,0.0,3.0,57,0.00,,---,0.00,VWS V14.01,2013-04-30 05:42:00,
2013-04-30 01:43:00,69.6,53.7,29.99,ENE,65,0.0,3.0,57,0.00,,---,0.00,VWS V14.01,2013-04-30 05:43:00,
2013-04-30 01:44:00,69.6,54.2,29.99,ENE,70,3.0,3.0,58,0.00,,---,0.00,VWS V14.01,2013-04-30 05:44:00,
2013-04-30 01:45:00,69.8,54.4,29.98,ENE,70,3.0,3.0,58,0.00,,---,0.00,VWS V14.01,2013-04-30 05:45:00,
2013-04-30 01:46:00,69.8,54.4,29.98,ENE,74,4.0,4.0,58,0.00,,---,0.00,VWS V14.01,2013-04-30 05:46:00,
2013-04-30 01:47:00,69.9,54.0,29.98,SSE,152,0.0,5.0,57,0.00,,---,0.00,VWS V14.01,2013-04-30 05:47:00,
2013-04-30 01:48:00,69.9,53.5,29.98,SSE,152,0.0,5.0,56,0.00,,---,0.00,VWS V14.01,2013-04-30 05:48:00,
2013-04-30 01:49:00,70.1,53.7,29.98,SSE,152,0.0,5.0,56,0.00,,---,0.00,VWS V14.01,2013-04-30 05:49:00,
2013-04-30 01:50:00,70.1,53.7,29.98,ESE,111,0.0,5.0,56,0.00,,---,0.00,VWS V14.01,2013-04-30 05:50:00,
2013-04-30 01:51:00,70.3,53.9,29.98,ESE,111,0.0,0.0,56,0.00,,---,0.00,VWS V14.01,2013-04-30 05:51:00,
2013-04-30 01:52:00,70.3,53.9,29.98,ESE,121,5.0,5.0,56,0.00,,---,0.00,VWS V14.01,2013-04-30 05:52:00,
2013-04-30 01:53:00,70.3,53.9,29.98,ESE,120,0.0,5.0,56,0.00,,---,0.00,VWS V14.01,2013-04-30 05:53:00,
2013-04-30 01:54:00,70.4,53.0,29.98,ESE,120,0.0,5.0,54,0.00,,---,0.00,VWS V14.01,2013-04-30 05:54:00,
2013-04-30 01:55:00,70.4,53.0,29.98,ESE,120,0.0,5.0,54,0.00,,---,0.00,VWS V14.01,2013-04-30 05:55:00,
2013-04-30 01:56:00,70.6,53.2,29.98,ESE,120,0.0,5.0,54,0.00,,---,0.00,VWS V14.01,2013-04-30 05:56:00,
2013-04-30 01:57:00,70.6,53.2,29.98,ENE,66,3.0,6.0,54,0.00,,---,0.00,VWS V14.01,2013-04-30 05:57:00,
2013-04-30 01:58:00,70.6,53.2,29.98,ENE,66,2.0,6.0,54,0.00,,---,0.00,VWS V14.01,2013-04-30 05:58:00,
2013-04-30 01:59:00,70.6,53.2,29.98,East,89,0.0,6.0,54,0.00,,---,0.00,VWS V14.01,2013-04-30 05:59:00,
2013-04-30 02:00:00,70.6,52.1,29.98,East,90,0.0,6.0,52,0.00,,---,0.00,VWS V14.01,2013-04-30 06:00:00,
2013-04-30 02:01:00,70.6,53.7,29.98,East,90,0.0,0.0,55,0.00,,---,0.00,VWS V14.01,2013-04-30 06:01:00,
2013-04-30 02:02:00,70.8,52.8,29.98,East,87,5.0,5.0,53,0.00,,---,0.00,VWS V14.01,2013-04-30 06:02:00,
2013-04-30 02:03:00,70.6,52.1,29.98,East,86,0.0,5.0,52,0.00,,---,0.00,VWS V14.01,2013-04-30 06:03:00,
2013-04-30 02:04:00,70.8,52.3,29.98,East,86,0.0,5.0,52,0.00,,---,0.00,VWS V14.01,2013-04-30 06:04:00,
2013-04-30 02:05:00,70.8,53.3,29.98,East,86,0.0,5.0,54,0.00,,---,0.00,VWS V14.01,2013-04-30 06:05:00,
2013-04-30 02:06:00,70.8,53.3,29.98,SE,128,6.0,8.0,54,0.00,,---,0.00,VWS V14.01,2013-04-30 06:06:00,
2013-04-30 02:07:00,70.8,52.8,29.98,SSE,155,6.0,8.0,53,0.00,,---,0.00,VWS V14.01,2013-04-30 06:07:00,
2013-04-30 02:08:00,70.9,52.9,29.98,SE,146,0.0,8.0,53,0.00,,---,0.00,VWS V14.01,2013-04-30 06:08:00,
2013-04-30 02:09:00,70.9,53.4,29.98,SE,128,4.0,8.0,54,0.00,,---,0.00,VWS V14.01,2013-04-30 06:09:00,
2013-04-30 02:10:00,70.9,52.4,29.98,SE,145,0.0,8.0,52,0.00,,---,0.00,VWS V14.01,2013-04-30 06:10:00,
2013-04-30 02:11:00,70.9,52.4,29.98,SE,145,0.0,1.0,52,0.00,,---,0.00,VWS V14.01,2013-04-30 06:11:00,
2013-04-30 02:12:00,70.9,52.4,29.98,ESE,107,0.0,2.0,52,0.00,,---,0.00,VWS V14.01,2013-04-30 06:12:00,
2013-04-30 02:13:00,70.9,52.4,29.98,ENE,76,7.0,7.0,52,0.00,,---,0.00,VWS V14.01,2013-04-30 06:13:00,
2013-04-30 02:14:00,70.9,52.9,29.98,NE,49,2.0,7.0,53,0.00,,---,0.00,VWS V14.01,2013-04-30 06:14:00,
2013-04-30 02:15:00,70.9,52.9,29.98,ESE,103,1.0,7.0,53,0.00,,---,0.00,VWS V14.01,2013-04-30 06:15:00,
2013-04-30 02:16:00,70.8,53.8,29.98,ESE,103,0.0,7.0,55,0.00,,---,0.00,VWS V14.01,2013-04-30 06:16:00,
2013-04-30 02:17:00,70.8,53.8,29.98,ENE,60,3.0,7.0,55,0.00,,---,0.00,VWS V14.01,2013-04-30 06:17:00,
2013-04-30 02:18:00,70.8,53.8,29.98,ESE,108,6.0,7.0,55,0.00,,---,0.00,VWS V14.01,2013-04-30 06:18:00,
2013-04-30 02:19:00,70.4,52.5,29.98,ESE,111,5.0,7.0,53,0.00,,---,0.00,VWS V14.01,2013-04-30 06:19:00,
2013-04-30 02:20:00,70.4,52.5,29.98,ESE,103,2.0,7.0,53,0.00,,---,0.00,VWS V14.01,2013-04-30 06:20:00,
2013-04-30 02:21:00,70.1,52.2,29.98,SSE,159,2.0,6.0,53,0.00,,---,0.00,VWS V14.01,2013-04-30 06:21:00,
2013-04-30 02:22:00,70.1,52.2,29.98,SSE,159,2.0,6.0,53,0.00,,---,0.00,VWS V14.01,2013-04-30 06:22:00,
2013-04-30 02:23:00,69.6,52.7,29.98,East,97,0.0,6.0,55,0.00,,---,0.00,VWS V14.01,2013-04-30 06:23:00,
2013-04-30 02:24:00,69.6,53.2,29.98,East,97,0.0,6.0,56,0.00,,---,0.00,VWS V14.01,2013-04-30 06:24:00,
2013-04-30 02:25:00,69.4,53.0,29.98,ESE,111,1.0,6.0,56,0.00,,---,0.00,VWS V14.01,2013-04-30 06:25:00,
2013-04-30 02:26:00,69.3,53.0,29.98,ESE,111,0.0,6.0,56,0.00,,---,0.00,VWS V14.01,2013-04-30 06:26:00,
2013-04-30 02:27:00,69.3,53.0,29.98,ESE,114,1.0,6.0,56,0.00,,---,0.00,VWS V14.01,2013-04-30 06:27:00,
2013-04-30 02:28:00,68.9,52.6,29.98,East,101,3.0,6.0,56,0.00,,---,0.00,VWS V14.01,2013-04-30 06:28:00,
2013-04-30 02:29:00,68.8,52.5,29.98,East,101,0.0,6.0,56,0.00,,---,0.00,VWS V14.01,2013-04-30 06:29:00,
2013-04-30 02:30:00,68.6,52.3,29.99,East,100,3.0,6.0,56,0.00,,---,0.00,VWS V14.01,2013-04-30 06:30:00,
2013-04-30 02:31:00,68.6,52.3,29.99,East,100,3.0,3.0,56,0.00,,---,0.00,VWS V14.01,2013-04-30 06:31:00,
2013-04-30 02:32:00,68.6,52.3,29.99,East,94,4.0,4.0,56,0.00,,---,0.00,VWS V14.01,2013-04-30 06:32:00,
2013-04-30 02:33:00,68.6,52.3,29.99,East,94,4.0,4.0,56,0.00,,---,0.00,VWS V14.01,2013-04-30 06:33:00,
2013-04-30 02:34:00,68.6,52.3,29.99,East,83,4.0,4.0,56,0.00,,---,0.00,VWS V14.01,2013-04-30 06:34:00,
2013-04-30 02:35:00,68.1,51.8,29.99,East,101,1.0,4.0,56,0.00,,---,0.00,VWS V14.01,2013-04-30 06:35:00,
2013-04-30 02:36:00,68.1,51.8,29.99,East,101,0.0,4.0,56,0.00,,---,0.00,VWS V14.01,2013-04-30 06:36:00,
2013-04-30 02:37:00,68.1,51.8,29.99,East,89,1.0,5.0,56,0.00,,---,0.00,VWS V14.01,2013-04-30 06:37:00,
2013-04-30 02:38:00,68.1,51.8,29.99,East,89,0.0,5.0,56,0.00,,---,0.00,VWS V14.01,2013-04-30 06:38:00,
2013-04-30 02:39:00,68.3,52.5,29.99,East,89,1.0,5.0,57,0.00,,---,0.00,VWS V14.01,2013-04-30 06:39:00,
2013-04-30 02:40:00,68.3,52.0,29.99,East,89,0.0,5.0,56,0.00,,---,0.00,VWS V14.01,2013-04-30 06:40:00,
2013-04-30 02:41:00,68.3,52.0,29.99,East,89,0.0,0.0,56,0.00,,---,0.00,VWS V14.01,2013-04-30 06:41:00,
2013-04-30 02:42:00,68.3,52.0,29.99,East,83,0.0,1.0,56,0.00,,---,0.00,VWS V14.01,2013-04-30 06:42:00,
2013-04-30 02:43:00,68.3,52.0,29.99,East,100,4.0,5.0,56,0.00,,---,0.00,VWS V14.01,2013-04-30 06:43:00,
2013-04-30 02:44:00,68.3,52.0,29.99,SSE,152,2.0,5.0,56,0.00,,---,0.00,VWS V14.01,2013-04-30 06:44:00,
2013-04-30 02:45:00,68.3,52.0,29.99,SE,134,0.0,5.0,56,0.00,,---,0.00,VWS V14.01,2013-04-30 06:45:00,
2013-04-30 02:46:00,68.3,52.0,29.99,SE,134,0.0,5.0,56,0.00,,---,0.00,VWS V14.01,2013-04-30 06:46:00,
2013-04-30 02:47:00,68.3,52.0,29.99,SE,142,5.0,5.0,56,0.00,,---,0.00,VWS V14.01,2013-04-30 06:47:00,
2013-04-30 02:48:00,68.3,52.0,29.99,SE,139,0.0,6.0,56,0.00,,---,0.00,VWS V14.01,2013-04-30 06:48:00,
2013-04-30 02:49:00,68.4,52.1,29.99,SE,139,0.0,6.0,56,0.00,,---,0.00,VWS V14.01,2013-04-30 06:49:00,
2013-04-30 02:50:00,68.6,51.8,29.99,SSE,159,2.0,6.0,55,0.00,,---,0.00,VWS V14.01,2013-04-30 06:50:00,
2013-04-30 02:51:00,68.6,51.3,29.99,SSE,159,3.0,5.0,54,0.00,,---,0.00,VWS V14.01,2013-04-30 06:51:00,
2013-04-30 02:52:00,68.8,53.0,29.99,SSE,159,0.0,5.0,57,0.00,,---,0.00,VWS V14.01,2013-04-30 06:52:00,
2013-04-30 02:53:00,68.8,52.5,29.99,NNE,21,8.0,8.0,56,0.00,,---,0.00,VWS V14.01,2013-04-30 06:53:00,
2013-04-30 02:54:00,69.1,52.8,29.99,NNE,12,1.0,8.0,56,0.00,,---,0.00,VWS V14.01,2013-04-30 06:54:00,
2013-04-30 02:55:00,69.1,52.8,29.99,SE,135,3.0,8.0,56,0.00,,---,0.00,VWS V14.01,2013-04-30 06:55:00,
2013-04-30 02:56:00,69.1,52.8,29.99,SE,127,1.0,8.0,56,0.00,,---,0.00,VWS V14.01,2013-04-30 06:56:00,
2013-04-30 02:57:00,69.3,53.0,29.99,SSE,155,3.0,8.0,56,0.00,,---,0.00,VWS V14.01,2013-04-30 06:57:00,
2013-04-30 02:58:00,69.4,52.5,29.99,SE,137,0.0,8.0,55,0.00,,---,0.00,VWS V14.01,2013-04-30 06:58:00,
2013-04-30 02:59:00,69.4,53.5,29.99,ENE,62,0.0,8.0,57,0.00,,---,0.00,VWS V14.01,2013-04-30 06:59:00,
2013-04-30 03:00:00,69.4,52.5,29.98,ESE,118,0.0,8.0,55,0.00,,---,0.00,VWS V14.01,2013-04-30 07:00:00,
2013-04-30 03:01:00,69.8,52.9,29.98,SE,138,2.0,3.0,55,0.00,,---,0.00,VWS V14.01,2013-04-30 07:01:00,
2013-04-30 03:02:00,69.8,52.9,29.98,SSE,156,5.0,5.0,55,0.00,,---,0.00,VWS V14.01,2013-04-30 07:02:00,
2013-04-30 03:03:00,69.8,52.9,29.98,SSE,163,0.0,5.0,55,0.00,,---,0.00,VWS V14.01,2013-04-30 07:03:00,
2013-04-30 03:04:00,69.8,53.4,29.98,SE,135,3.0,5.0,56,0.00,,---,0.00,VWS V14.01,2013-04-30 07:04:00,
2013-04-30 03:05:00,69.9,53.0,29.98,East,84,3.0,8.0,55,0.00,,---,0.00,VWS V14.01,2013-04-30 07:05:00,
2013-04-30 03:06:00,69.9,53.0,29.98,East,83,1.0,8.0,55,0.00,,---,0.00,VWS V14.01,2013-04-30 07:06:00,
2013-04-30 03:07:00,69.9,53.5,29.98,East,87,0.0,8.0,56,0.00,,---,0.00,VWS V14.01,2013-04-30 07:07:00,
2013-04-30 03:08:00,69.9,53.5,29.98,East,87,0.0,8.0,56,0.00,,---,0.00,VWS V14.01,2013-04-30 07:08:00,
2013-04-30 03:09:00,69.9,53.5,29.98,East,87,0.0,8.0,56,0.00,,---,0.00,VWS V14.01,2013-04-30 07:09:00,
2013-04-30 03:10:00,70.1,53.2,29.98,ESE,120,0.0,8.0,55,0.00,,---,0.00,VWS V14.01,2013-04-30 07:10:00,
2013-04-30 03:11:00,70.1,53.2,29.98,ESE,120,0.0,0.0,55,0.00,,---,0.00,VWS V14.01,2013-04-30 07:11:00,
2013-04-30 03:12:00,70.1,52.2,29.98,East,94,0.0,1.0,53,0.00,,---,0.00,VWS V14.01,2013-04-30 07:12:00,
2013-04-30 03:13:00,70.3,52.4,29.98,East,86,2.0,4.0,53,0.00,,---,0.00,VWS V14.01,2013-04-30 07:13:00,
2013-04-30 03:14:00,70.3,52.4,29.98,East,86,2.0,4.0,53,0.00,,---,0.00,VWS V14.01,2013-04-30 07:14:00,
2013-04-30 03:15:00,70.3,52.4,29.97,East,86,0.0,4.0,53,0.00,,---,0.00,VWS V14.01,2013-04-30 07:15:00,
2013-04-30 03:16:00,70.3,52.4,29.97,East,86,0.0,4.0,53,0.00,,---,0.00,VWS V14.01,2013-04-30 07:16:00,
2013-04-30 03:17:00,70.1,53.2,29.97,SSE,163,6.0,8.0,55,0.00,,---,0.00,VWS V14.01,2013-04-30 07:17:00,
2013-04-30 03:18:00,70.1,53.2,29.97,SSE,166,9.0,9.0,55,0.00,,---,0.00,VWS V14.01,2013-04-30 07:18:00,
2013-04-30 03:19:00,69.9,53.0,29.97,SSE,166,3.0,9.0,55,0.00,,---,0.00,VWS V14.01,2013-04-30 07:19:00,
2013-04-30 03:20:00,69.9,53.0,29.97,SSE,158,6.0,9.0,55,0.00,,---,0.00,VWS V14.01,2013-04-30 07:20:00,
2013-04-30 03:21:00,69.8,52.9,29.97,ESE,114,2.0,4.0,55,0.00,,---,0.00,VWS V14.01,2013-04-30 07:21:00,
2013-04-30 03:22:00,69.8,52.9,29.97,SSE,148,0.0,4.0,55,0.00,,---,0.00,VWS V14.01,2013-04-30 07:22:00,
2013-04-30 03:23:00,69.8,52.9,29.97,SSE,165,4.0,4.0,55,0.00,,---,0.00,VWS V14.01,2013-04-30 07:23:00,
2013-04-30 03:24:00,69.6,52.7,29.97,SSE,159,2.0,5.0,55,0.00,,---,0.00,VWS V14.01,2013-04-30 07:24:00,
2013-04-30 03:25:00,69.4,52.5,29.97,SE,144,0.0,5.0,55,0.00,,---,0.00,VWS V14.01,2013-04-30 07:25:00,
2013-04-30 03:26:00,69.4,52.5,29.97,SE,142,0.0,5.0,55,0.00,,---,0.00,VWS V14.01,2013-04-30 07:26:00,
2013-04-30 03:27:00,69.4,53.5,29.97,ESE,111,0.0,5.0,57,0.00,,---,0.00,VWS V14.01,2013-04-30 07:27:00,
2013-04-30 03:28:00,69.4,53.5,29.97,ESE,111,0.0,5.0,57,0.00,,---,0.00,VWS V14.01,2013-04-30 07:28:00,
2013-04-30 03:29:00,69.3,53.4,29.97,ESE,114,0.0,5.0,57,0.00,,---,0.00,VWS V14.01,2013-04-30 07:29:00,
2013-04-30 03:30:00,69.4,53.5,29.97,ESE,122,4.0,5.0,57,0.00,,---,0.00,VWS V14.01,2013-04-30 07:30:00,
2013-04-30 03:31:00,69.4,54.0,29.97,East,98,0.0,4.0,58,0.00,,---,0.00,VWS V14.01,2013-04-30 07:31:00,
2013-04-30 03:32:00,69.3,53.0,29.97,ESE,122,2.0,6.0,56,0.00,,---,0.00,VWS V14.01,2013-04-30 07:32:00,
2013-04-30 03:33:00,69.3,53.4,29.97,ESE,106,0.0,6.0,57,0.00,,---,0.00,VWS V14.01,2013-04-30 07:33:00,
2013-04-30 03:34:00,69.3,53.4,29.97,ESE,106,0.0,6.0,57,0.00,,---,0.00,VWS V14.01,2013-04-30 07:34:00,
2013-04-30 03:35:00,69.3,53.4,29.97,ENE,77,0.0,6.0,57,0.00,,---,0.00,VWS V14.01,2013-04-30 07:35:00,
2013-04-30 03:36:00,69.3,53.4,29.97,East,82,0.0,6.0,57,0.00,,---,0.00,VWS V14.01,2013-04-30 07:36:00,
2013-04-30 03:37:00,69.3,53.4,29.97,East,82,0.0,6.0,57,0.00,,---,0.00,VWS V14.01,2013-04-30 07:37:00,
2013-04-30 03:38:00,69.4,53.5,29.97,East,82,0.0,6.0,57,0.00,,---,0.00,VWS V14.01,2013-04-30 07:38:00,
2013-04-30 03:39:00,69.6,54.2,29.97,East,82,2.0,6.0,58,0.00,,---,0.00,VWS V14.01,2013-04-30 07:39:00,
2013-04-30 03:40:00,69.8,53.9,29.97,East,84,1.0,6.0,57,0.00,,---,0.00,VWS V14.01,2013-04-30 07:40:00,
2013-04-30 03:41:00,69.8,53.9,29.97,NE,38,2.0,5.0,57,0.00,,---,0.00,VWS V14.01,2013-04-30 07:41:00,
2013-04-30 03:42:00,69.9,54.9,29.97,ESE,120,0.0,5.0,59,0.00,,---,0.00,VWS V14.01,2013-04-30 07:42:00,
2013-04-30 03:43:00,69.9,53.5,29.97,East,84,0.0,5.0,56,0.00,,---,0.00,VWS V14.01,2013-04-30 07:43:00,
2013-04-30 03:44:00,70.1,54.2,29.97,East,84,0.0,5.0,57,0.00,,---,0.00,VWS V14.01,2013-04-30 07:44:00,
2013-04-30 03:45:00,70.1,54.2,29.97,East,84,0.0,5.0,57,0.00,,---,0.00,VWS V14.01,2013-04-30 07:45:00,
2013-04-30 03:46:00,70.1,53.7,29.97,East,84,1.0,5.0,56,0.00,,---,0.00,VWS V14.01,2013-04-30 07:46:00,
2013-04-30 03:47:00,70.1,53.2,29.97,East,84,0.0,5.0,55,0.00,,---,0.00,VWS V14.01,2013-04-30 07:47:00,
2013-04-30 03:48:00,70.3,53.9,29.97,East,84,0.0,5.0,56,0.00,,---,0.00,VWS V14.01,2013-04-30 07:48:00,
2013-04-30 03:49:00,70.3,54.4,29.97,East,84,2.0,5.0,57,0.00,,---,0.00,VWS V14.01,2013-04-30 07:49:00,
2013-04-30 03:50:00,70.1,53.7,29.97,East,84,2.0,5.0,56,0.00,,---,0.00,VWS V14.01,2013-04-30 07:50:00,
2013-04-30 03:51:00,70.1,53.7,29.97,East,86,0.0,0.0,56,0.00,,---,0.00,VWS V14.01,2013-04-30 07:51:00,
2013-04-30 03:52:00,70.1,53.7,29.97,East,86,0.0,0.0,56,0.00,,---,0.00,VWS V14.01,2013-04-30 07:52:00,
2013-04-30 03:53:00,69.9,54.0,29.97,East,86,0.0,0.0,57,0.00,,---,0.00,VWS V14.01,2013-04-30 07:53:00,
2013-04-30 03:54:00,69.9,54.0,29.97,East,86,0.0,0.0,57,0.00,,---,0.00,VWS V14.01,2013-04-30 07:54:00,
2013-04-30 03:55:00,69.8,53.9,29.97,East,86,0.0,0.0,57,0.00,,---,0.00,VWS V14.01,2013-04-30 07:55:00,
2013-04-30 03:56:00,69.6,53.7,29.97,East,84,2.0,3.0,57,0.00,,---,0.00,VWS V14.01,2013-04-30 07:56:00,
2013-04-30 03:57:00,69.6,53.7,29.97,East,83,0.0,4.0,57,0.00,,---,0.00,VWS V14.01,2013-04-30 07:57:00,
2013-04-30 03:58:00,69.4,53.5,29.97,East,83,0.0,4.0,57,0.00,,---,0.00,VWS V14.01,2013-04-30 07:58:00,
2013-04-30 03:59:00,69.4,53.5,29.97,East,83,0.0,4.0,57,0.00,,---,0.00,VWS V14.01,2013-04-30 07:59:00,
2013-04-30 04:00:00,69.4,53.5,29.97,East,83,0.0,4.0,57,0.00,,---,0.00,VWS V14.01,2013-04-30 08:00:00,
2013-04-30 04:01:00,69.3,53.4,29.97,East,83,0.0,0.0,57,0.00,,---,0.00,VWS V14.01,2013-04-30 08:01:00,
2013-04-30 04:02:00,69.1,54.2,29.97,SE,144,3.0,5.0,59,0.00,,---,0.00,VWS V14.01,2013-04-30 08:02:00,
2013-04-30 04:03:00,69.1,54.2,29.97,SE,142,2.0,5.0,59,0.00,,---,0.00,VWS V14.01,2013-04-30 08:03:00,
2013-04-30 04:04:00,69.1,54.2,29.97,East,79,5.0,5.0,59,0.00,,---,0.00,VWS V14.01,2013-04-30 08:04:00,
2013-04-30 04:05:00,69.1,54.2,29.97,East,79,5.0,5.0,59,0.00,,---,0.00,VWS V14.01,2013-04-30 08:05:00,
2013-04-30 04:06:00,69.1,54.2,29.97,East,87,0.0,5.0,59,0.00,,---,0.00,VWS V14.01,2013-04-30 08:06:00,
2013-04-30 04:07:00,69.1,53.7,29.97,East,87,0.0,5.0,58,0.00,,---,0.00,VWS V14.01,2013-04-30 08:07:00,
2013-04-30 04:08:00,69.1,53.7,29.97,South,169,3.0,6.0,58,0.00,,---,0.00,VWS V14.01,2013-04-30 08:08:00,
2013-04-30 04:09:00,69.1,53.2,29.97,SSE,155,3.0,6.0,57,0.00,,---,0.00,VWS V14.01,2013-04-30 08:09:00,
2013-04-30 04:10:00,69.1,53.2,29.97,SSE,163,2.0,6.0,57,0.00,,---,0.00,VWS V14.01,2013-04-30 08:10:00,
2013-04-30 04:11:00,69.1,52.8,29.97,SSE,163,0.0,3.0,56,0.00,,---,0.00,VWS V14.01,2013-04-30 08:11:00,
2013-04-30 04:12:00,69.1,52.8,29.97,ESE,121,0.0,3.0,56,0.00,,---,0.00,VWS V14.01,2013-04-30 08:12:00,
2013-04-30 04:13:00,69.3,53.0,29.97,SE,125,4.0,4.0,56,0.00,,---,0.00,VWS V14.01,2013-04-30 08:13:00,
2013-04-30 04:14:00,69.1,52.8,29.97,SE,141,2.0,4.0,56,0.00,,---,0.00,VWS V14.01,2013-04-30 08:14:00,
2013-04-30 04:15:00,69.1,53.2,29.97,SE,141,2.0,4.0,57,0.00,,---,0.00,VWS V14.01,2013-04-30 08:15:00,
2013-04-30 04:16:00,69.1,53.2,29.97,SE,141,0.0,4.0,57,0.00,,---,0.00,VWS V14.01,2013-04-30 08:16:00,
2013-04-30 04:17:00,69.1,53.2,29.97,SE,141,0.0,4.0,57,0.00,,---,0.00,VWS V14.01,2013-04-30 08:17:00,
2013-04-30 04:18:00,69.3,53.0,29.97,SSE,165,2.0,5.0,56,0.00,,---,0.00,VWS V14.01,2013-04-30 08:18:00,
2013-04-30 04:19:00,69.3,53.0,29.97,SSE,165,0.0,5.0,56,0.00,,---,0.00,VWS V14.01,2013-04-30 08:19:00,
2013-04-30 04:20:00,69.3,53.0,29.97,SE,127,0.0,5.0,56,0.00,,---,0.00,VWS V14.01,2013-04-30 08:20:00,
2013-04-30 04:21:00,69.4,53.0,29.97,SE,127,0.0,0.0,56,0.00,,---,0.00,VWS V14.01,2013-04-30 08:21:00,
2013-04-30 04:22:00,69.4,54.0,29.97,ENE,70,3.0,5.0,58,0.00,,---,0.00,VWS V14.01,2013-04-30 08:22:00,
2013-04-30 04:23:00,69.6,53.7,29.97,East,90,0.0,5.0,57,0.00,,---,0.00,VWS V14.01,2013-04-30 08:23:00,
2013-04-30 04:24:00,69.6,54.2,29.97,ESE,115,0.0,5.0,58,0.00,,---,0.00,VWS V14.01,2013-04-30 08:24:00,
2013-04-30 04:25:00,69.6,53.7,29.97,ESE,113,0.0,5.0,57,0.00,,---,0.00,VWS V14.01,2013-04-30 08:25:00,
2013-04-30 04:26:00,69.6,53.7,29.97,ESE,106,2.0,5.0,57,0.00,,---,0.00,VWS V14.01,2013-04-30 08:26:00,
2013-04-30 04:27:00,69.6,53.7,29.97,ESE,107,0.0,5.0,57,0.00,,---,0.00,VWS V14.01,2013-04-30 08:27:00,
2013-04-30 04:28:00,69.6,53.7,29.97,ESE,120,4.0,5.0,57,0.00,,---,0.00,VWS V14.01,2013-04-30 08:28:00,
2013-04-30 04:29:00,69.8,53.9,29.97,ESE,120,0.0,5.0,57,0.00,,---,0.00,VWS V14.01,2013-04-30 08:29:00,
2013-04-30 04:30:00,69.8,53.9,29.96,ESE,108,0.0,5.0,57,0.00,,---,0.00,VWS V14.01,2013-04-30 08:30:00,
2013-04-30 04:31:00,69.8,54.4,29.96,ESE,104,0.0,3.0,58,0.00,,---,0.00,VWS V14.01,2013-04-30 08:31:00,
2013-04-30 04:32:00,69.8,54.4,29.96,ENE,77,3.0,5.0,58,0.00,,---,0.00,VWS V14.01,2013-04-30 08:32:00,
2013-04-30 04:33:00,69.8,53.9,29.96,ESE,120,0.0,6.0,57,0.00,,---,0.00,VWS V14.01,2013-04-30 08:33:00,
2013-04-30 04:34:00,69.8,53.9,29.96,East,101,0.0,6.0,57,0.00,,---,0.00,VWS V14.01,2013-04-30 08:34:00,
2013-04-30 04:35:00,69.8,54.4,29.96,ESE,106,0.0,6.0,58,0.00,,---,0.00,VWS V14.01,2013-04-30 08:35:00,
2013-04-30 04:36:00,69.9,54.9,29.96,ESE,107,0.0,6.0,59,0.00,,---,0.00,VWS V14.01,2013-04-30 08:36:00,
2013-04-30 04:37:00,69.9,54.9,29.96,ESE,104,3.0,6.0,59,0.00,,---,0.00,VWS V14.01,2013-04-30 08:37:00,
2013-04-30 04:38:00,69.9,54.9,29.96,ESE,104,3.0,6.0,59,0.00,,---,0.00,VWS V14.01,2013-04-30 08:38:00,
2013-04-30 04:39:00,69.9,54.0,29.96,ENE,72,1.0,6.0,57,0.00,,---,0.00,VWS V14.01,2013-04-30 08:39:00,
2013-04-30 04:40:00,69.9,54.5,29.96,ENE,72,0.0,6.0,58,0.00,,---,0.00,VWS V14.01,2013-04-30 08:40:00,
2013-04-30 04:41:00,69.9,54.5,29.96,East,90,2.0,3.0,58,0.00,,---,0.00,VWS V14.01,2013-04-30 08:41:00,
2013-04-30 04:42:00,69.9,54.5,29.96,SE,138,0.0,3.0,58,0.00,,---,0.00,VWS V14.01,2013-04-30 08:42:00,
2013-04-30 04:43:00,69.8,53.9,29.96,SE,138,1.0,3.0,57,0.00,,---,0.00,VWS V14.01,2013-04-30 08:43:00,
2013-04-30 04:44:00,69.8,53.9,29.96,SE,135,0.0,3.0,57,0.00,,---,0.00,VWS V14.01,2013-04-30 08:44:00,
2013-04-30 04:45:00,69.8,54.4,29.97,ENE,70,3.0,7.0,58,0.00,,---,0.00,VWS V14.01,2013-04-30 08:45:00,
2013-04-30 04:46:00,69.8,54.4,29.97,ESE,104,2.0,7.0,58,0.00,,---,0.00,VWS V14.01,2013-04-30 08:46:00,
2013-04-30 04:47:00,69.8,54.4,29.97,SE,127,5.0,7.0,58,0.00,,---,0.00,VWS V14.01,2013-04-30 08:47:00,
2013-04-30 04:48:00,69.8,53.4,29.97,SSE,162,0.0,7.0,56,0.00,,---,0.00,VWS V14.01,2013-04-30 08:48:00,
2013-04-30 04:49:00,69.8,53.4,29.97,SSE,161,2.0,7.0,56,0.00,,---,0.00,VWS V14.01,2013-04-30 08:49:00,
2013-04-30 04:50:00,69.8,53.4,29.97,SSE,161,2.0,7.0,56,0.00,,---,0.00,VWS V14.01,2013-04-30 08:50:00,
2013-04-30 04:51:00,69.4,53.0,29.97,SSE,166,1.0,3.0,56,0.00,,---,0.00,VWS V14.01,2013-04-30 08:51:00,
2013-04-30 04:52:00,69.4,53.5,29.97,SSE,161,0.0,5.0,57,0.00,,---,0.00,VWS V14.01,2013-04-30 08:52:00,
2013-04-30 04:53:00,69.4,53.0,29.97,SSE,161,0.0,5.0,56,0.00,,---,0.00,VWS V14.01,2013-04-30 08:53:00,
2013-04-30 04:54:00,69.4,53.0,29.97,SSE,161,0.0,5.0,56,0.00,,---,0.00,VWS V14.01,2013-04-30 08:54:00,
2013-04-30 04:55:00,69.4,53.0,29.97,SE,138,1.0,5.0,56,0.00,,---,0.00,VWS V14.01,2013-04-30 08:55:00,
2013-04-30 04:56:00,69.3,53.0,29.97,ESE,115,2.0,5.0,56,0.00,,---,0.00,VWS V14.01,2013-04-30 08:56:00,
2013-04-30 04:57:00,69.3,53.0,29.97,East,89,3.0,6.0,56,0.00,,---,0.00,VWS V14.01,2013-04-30 08:57:00,
2013-04-30 04:58:00,69.1,52.8,29.97,East,89,0.0,6.0,56,0.00,,---,0.00,VWS V14.01,2013-04-30 08:58:00,
2013-04-30 04:59:00,69.1,52.8,29.97,East,96,1.0,6.0,56,0.00,,---,0.00,VWS V14.01,2013-04-30 08:59:00,
2013-04-30 05:00:00,69.1,52.8,29.98,ESE,103,0.0,6.0,56,0.00,,---,0.00,VWS V14.01,2013-04-30 09:00:00,
2013-04-30 05:01:00,69.1,52.8,29.98,ESE,108,3.0,3.0,56,0.00,,---,0.00,VWS V14.01,2013-04-30 09:01:00,
2013-04-30 05:02:00,69.1,53.2,29.98,ESE,107,0.0,3.0,57,0.00,,---,0.00,VWS V14.01,2013-04-30 09:02:00,
2013-04-30 05:03:00,68.9,52.6,29.98,ESE,107,0.0,3.0,56,0.00,,---,0.00,VWS V14.01,2013-04-30 09:03:00,
2013-04-30 05:04:00,68.9,52.6,29.98,ENE,77,0.0,4.0,56,0.00,,---,0.00,VWS V14.01,2013-04-30 09:04:00,
2013-04-30 05:05:00,69.1,52.8,29.98,ENE,77,0.0,4.0,56,0.00,,---,0.00,VWS V14.01,2013-04-30 09:05:00,
2013-04-30 05:06:00,69.1,52.8,29.98,East,87,0.0,4.0,56,0.00,,---,0.00,VWS V14.01,2013-04-30 09:06:00,
2013-04-30 05:07:00,69.1,52.8,29.98,SSE,151,0.0,4.0,56,0.00,,---,0.00,VWS V14.01,2013-04-30 09:07:00,
2013-04-30 05:08:00,69.1,52.8,29.98,East,84,1.0,4.0,56,0.00,,---,0.00,VWS V14.01,2013-04-30 09:08:00,
2013-04-30 05:09:00,69.1,52.8,29.98,East,84,0.0,4.0,56,0.00,,---,0.00,VWS V14.01,2013-04-30 09:09:00,
2013-04-30 05:10:00,69.1,53.2,29.98,East,84,0.0,4.0,57,0.00,,---,0.00,VWS V14.01,2013-04-30 09:10:00,
2013-04-30 05:11:00,69.1,53.2,29.98,East,84,0.0,5.0,57,0.00,,---,0.00,VWS V14.01,2013-04-30 09:11:00,
2013-04-30 05:12:00,69.1,53.2,29.98,East,86,2.0,5.0,57,0.00,,---,0.00,VWS V14.01,2013-04-30 09:12:00,
2013-04-30 05:13:00,69.1,52.8,29.98,ESE,110,0.0,5.0,56,0.00,,---,0.00,VWS V14.01,2013-04-30 09:13:00,
2013-04-30 05:14:00,69.3,53.0,29.98,East,94,3.0,6.0,56,0.00,,---,0.00,VWS V14.01,2013-04-30 09:14:00,
2013-04-30 05:15:00,69.3,53.0,29.98,ESE,113,2.0,6.0,56,0.00,,---,0.00,VWS V14.01,2013-04-30 09:15:00,
2013-04-30 05:16:00,69.1,52.8,29.98,ESE,113,3.0,6.0,56,0.00,,---,0.00,VWS V14.01,2013-04-30 09:16:00,
2013-04-30 05:17:00,69.1,52.8,29.98,ESE,106,5.0,6.0,56,0.00,,---,0.00,VWS V14.01,2013-04-30 09:17:00,
2013-04-30 05:18:00,69.1,52.8,29.98,East,98,0.0,6.0,56,0.00,,---,0.00,VWS V14.01,2013-04-30 09:18:00,
2013-04-30 05:19:00,69.1,53.2,29.98,SSW,202,6.0,6.0,57,0.00,,---,0.00,VWS V14.01,2013-04-30 09:19:00,
2013-04-30 05:20:00,69.1,53.2,29.98,SSE,151,1.0,6.0,57,0.00,,---,0.00,VWS V14.01,2013-04-30 09:20:00,
2013-04-30 05:21:00,69.1,53.2,29.98,SSE,152,2.0,3.0,57,0.00,,---,0.00,VWS V14.01,2013-04-30 09:21:00,
2013-04-30 05:22:00,69.1,52.8,29.98,SE,138,7.0,7.0,56,0.00,,---,0.00,VWS V14.01,2013-04-30 09:22:00,
2013-04-30 05:23:00,68.9,52.1,29.98,NE,38,0.0,7.0,55,0.00,,---,0.00,VWS V14.01,2013-04-30 09:23:00,
2013-04-30 05:24:00,68.9,52.1,29.98,NE,38,0.0,7.0,55,0.00,,---,0.00,VWS V14.01,2013-04-30 09:24:00,
2013-04-30 05:25:00,68.9,52.6,29.98,SE,130,1.0,7.0,56,0.01,,---,0.01,VWS V14.01,2013-04-30 09:25:00,
2013-04-30 05:26:00,68.8,52.5,29.98,SE,142,5.0,7.0,56,0.01,,---,0.01,VWS V14.01,2013-04-30 09:26:00,
2013-04-30 05:27:00,68.8,52.5,29.98,SSW,209,0.0,7.0,56,0.01,,---,0.01,VWS V14.01,2013-04-30 09:27:00,
2013-04-30 05:28:00,68.8,52.5,29.98,SE,134,3.0,7.0,56,0.01,,---,0.01,VWS V14.01,2013-04-30 09:28:00,
2013-04-30 05:29:00,68.8,52.5,29.98,SE,134,3.0,7.0,56,0.01,,---,0.01,VWS V14.01,2013-04-30 09:29:00,
2013-04-30 05:30:00,68.6,52.3,29.99,SE,134,0.0,7.0,56,0.01,,---,0.01,VWS V14.01,2013-04-30 09:30:00,
2013-04-30 05:31:00,68.6,52.3,29.99,SE,134,0.0,0.0,56,0.01,,---,0.01,VWS V14.01,2013-04-30 09:31:00,
2013-04-30 05:32:00,68.6,52.3,29.99,SE,134,0.0,0.0,56,0.01,,---,0.01,VWS V14.01,2013-04-30 09:32:00,
2013-04-30 05:33:00,68.6,52.3,29.99,SE,134,0.0,0.0,56,0.01,,---,0.01,VWS V14.01,2013-04-30 09:33:00,
2013-04-30 05:34:00,68.6,52.8,29.99,ENE,74,1.0,1.0,57,0.01,,---,0.01,VWS V14.01,2013-04-30 09:34:00,
2013-04-30 05:35:00,68.6,52.8,29.99,East,94,3.0,3.0,57,0.01,,---,0.01,VWS V14.01,2013-04-30 09:35:00,
2013-04-30 05:36:00,68.4,52.6,29.99,East,96,4.0,4.0,57,0.01,,---,0.01,VWS V14.01,2013-04-30 09:36:00,
2013-04-30 05:37:00,68.4,52.6,29.99,East,96,0.0,4.0,57,0.01,,---,0.01,VWS V14.01,2013-04-30 09:37:00,
2013-04-30 05:38:00,68.4,52.6,29.99,East,97,3.0,4.0,57,0.01,,---,0.01,VWS V14.01,2013-04-30 09:38:00,
2013-04-30 05:39:00,68.3,52.5,29.99,East,97,0.0,4.0,57,0.01,,---,0.01,VWS V14.01,2013-04-30 09:39:00,
2013-04-30 05:40:00,68.3,53.0,29.99,East,94,0.0,4.0,58,0.01,,---,0.01,VWS V14.01,2013-04-30 09:40:00,
2013-04-30 05:41:00,68.3,53.0,29.99,East,97,3.0,3.0,58,0.01,,---,0.01,VWS V14.01,2013-04-30 09:41:00,
2013-04-30 05:42:00,68.1,52.8,29.99,East,97,0.0,3.0,58,0.01,,---,0.01,VWS V14.01,2013-04-30 09:42:00,
2013-04-30 05:43:00,68.1,52.8,29.99,East,97,0.0,3.0,58,0.01,,---,0.01,VWS V14.01,2013-04-30 09:43:00,
2013-04-30 05:44:00,68.1,52.8,29.99,East,97,2.0,3.0,58,0.01,,---,0.01,VWS V14.01,2013-04-30 09:44:00,
2013-04-30 05:45:00,68.1,52.8,30.00,East,90,1.0,3.0,58,0.01,,---,0.01,VWS V14.01,2013-04-30 09:45:00,
2013-04-30 05:46:00,67.9,52.6,30.00,East,98,2.0,3.0,58,0.01,,---,0.01,VWS V14.01,2013-04-30 09:46:00,
2013-04-30 05:47:00,67.9,52.6,30.00,East,97,0.0,3.0,58,0.01,,---,0.01,VWS V14.01,2013-04-30 09:47:00,
2013-04-30 05:48:00,67.9,52.6,30.00,East,97,0.0,3.0,58,0.01,,---,0.01,VWS V14.01,2013-04-30 09:48:00,
2013-04-30 05:49:00,67.8,53.0,30.00,East,97,0.0,3.0,59,0.01,,---,0.01,VWS V14.01,2013-04-30 09:49:00,
2013-04-30 05:50:00,67.8,53.0,30.00,East,97,3.0,3.0,59,0.01,,---,0.01,VWS V14.01,2013-04-30 09:50:00,
2013-04-30 05:51:00,67.8,53.0,30.00,East,97,0.0,3.0,59,0.01,,---,0.01,VWS V14.01,2013-04-30 09:51:00,
2013-04-30 05:52:00,67.8,53.0,30.00,East,97,0.0,3.0,59,0.01,,---,0.01,VWS V14.01,2013-04-30 09:52:00,
2013-04-30 05:53:00,67.6,52.8,30.00,East,97,0.0,3.0,59,0.01,,---,0.01,VWS V14.01,2013-04-30 09:53:00,
2013-04-30 05:54:00,67.6,52.8,30.00,East,97,0.0,3.0,59,0.01,,---,0.01,VWS V14.01,2013-04-30 09:54:00,
2013-04-30 05:55:00,67.6,53.2,30.00,SE,135,4.0,4.0,60,0.01,,---,0.01,VWS V14.01,2013-04-30 09:55:00,
2013-04-30 05:56:00,67.4,53.0,30.00,SSE,155,2.0,5.0,60,0.01,,---,0.01,VWS V14.01,2013-04-30 09:56:00,
2013-04-30 05:57:00,67.4,53.0,30.00,SE,139,2.0,5.0,60,0.01,,---,0.01,VWS V14.01,2013-04-30 09:57:00,
2013-04-30 05:58:00,67.4,53.0,30.00,South,169,4.0,5.0,60,0.01,,---,0.01,VWS V14.01,2013-04-30 09:58:00,
2013-04-30 05:59:00,67.4,53.0,30.00,SSE,163,3.0,6.0,60,0.01,,---,0.01,VWS V14.01,2013-04-30 09:59:00,
2013-04-30 06:00:00,67.4,53.0,30.00,SSE,151,0.0,6.0,60,0.01,,---,0.01,VWS V14.01,2013-04-30 10:00:00,
2013-04-30 06:01:00,67.4,53.9,30.00,SE,131,0.0,0.0,62,0.01,,---,0.01,VWS V14.01,2013-04-30 10:01:00,
2013-04-30 06:02:00,67.3,53.8,30.00,ENE,77,0.0,7.0,62,0.01,,---,0.01,VWS V14.01,2013-04-30 10:02:00,
2013-04-30 06:03:00,67.3,53.4,30.00,ENE,77,0.0,7.0,61,0.01,,---,0.01,VWS V14.01,2013-04-30 10:03:00,
2013-04-30 06:04:00,67.3,53.8,30.00,SSE,166,3.0,7.0,62,0.01,,---,0.01,VWS V14.01,2013-04-30 10:04:00,
2013-04-30 06:05:00,67.3,53.8,30.00,SSE,166,2.0,7.0,62,0.01,,---,0.01,VWS V14.01,2013-04-30 10:05:00,
2013-04-30 06:06:00,67.3,53.8,30.00,SSE,165,1.0,7.0,62,0.01,,---,0.01,VWS V14.01,2013-04-30 10:06:00,
2013-04-30 06:07:00,67.3,53.8,30.00,East,91,0.0,7.0,62,0.01,,---,0.01,VWS V14.01,2013-04-30 10:07:00,
2013-04-30 06:08:00,67.3,54.3,30.00,East,89,0.0,7.0,63,0.01,,---,0.01,VWS V14.01,2013-04-30 10:08:00,
2013-04-30 06:09:00,67.3,54.3,30.00,ESE,113,0.0,7.0,63,0.01,,---,0.01,VWS V14.01,2013-04-30 10:09:00,
2013-04-30 06:10:00,67.1,54.1,30.00,SE,145,3.0,7.0,63,0.01,,---,0.01,VWS V14.01,2013-04-30 10:10:00,
2013-04-30 06:11:00,67.1,54.1,30.00,South,170,2.0,6.0,63,0.01,,---,0.01,VWS V14.01,2013-04-30 10:11:00,
2013-04-30 06:12:00,67.1,54.1,30.00,SSE,165,0.0,6.0,63,0.01,,---,0.01,VWS V14.01,2013-04-30 10:12:00,
2013-04-30 06:13:00,67.1,54.1,30.00,SSE,165,0.0,6.0,63,0.01,,---,0.01,VWS V14.01,2013-04-30 10:13:00,
2013-04-30 06:14:00,67.1,54.5,30.00,East,93,3.0,6.0,64,0.01,,---,0.01,VWS V14.01,2013-04-30 10:14:00,
2013-04-30 06:15:00,67.1,54.5,30.01,East,91,1.0,6.0,64,0.01,,---,0.01,VWS V14.01,2013-04-30 10:15:00,
2013-04-30 06:16:00,66.9,54.3,30.01,East,84,3.0,7.0,64,0.01,,---,0.01,VWS V14.01,2013-04-30 10:16:00,
2013-04-30 06:17:00,66.9,54.3,30.01,East,83,0.0,7.0,64,0.01,,---,0.01,VWS V14.01,2013-04-30 10:17:00,
2013-04-30 06:18:00,66.9,54.3,30.01,East,87,2.0,7.0,64,0.01,,---,0.01,VWS V14.01,2013-04-30 10:18:00,
2013-04-30 06:19:00,66.8,54.2,30.01,East,87,0.0,7.0,64,0.01,,---,0.01,VWS V14.01,2013-04-30 10:19:00,
2013-04-30 06:20:00,66.8,54.2,30.01,East,87,0.0,7.0,64,0.01,,---,0.01,VWS V14.01,2013-04-30 10:20:00,
2013-04-30 06:21:00,66.8,54.2,30.01,East,87,0.0,2.0,64,0.01,,---,0.01,VWS V14.01,2013-04-30 10:21:00,
2013-04-30 06:22:00,66.8,54.2,30.01,East,87,0.0,2.0,64,0.01,,---,0.01,VWS V14.01,2013-04-30 10:22:00,
2013-04-30 06:23:00,66.8,54.2,30.01,East,87,0.0,2.0,64,0.01,,---,0.01,VWS V14.01,2013-04-30 10:23:00,
2013-04-30 06:24:00,66.8,54.2,30.01,East,87,0.0,2.0,64,0.01,,---,0.01,VWS V14.01,2013-04-30 10:24:00,
2013-04-30 06:25:00,66.6,54.1,30.01,East,84,3.0,5.0,64,0.01,,---,0.01,VWS V14.01,2013-04-30 10:25:00,
2013-04-30 06:26:00,66.6,54.1,30.01,South,175,4.0,5.0,64,0.01,,---,0.01,VWS V14.01,2013-04-30 10:26:00,
2013-04-30 06:27:00,66.6,54.1,30.01,SE,127,3.0,5.0,64,0.01,,---,0.01,VWS V14.01,2013-04-30 10:27:00,
2013-04-30 06:28:00,66.6,54.1,30.01,SE,127,2.0,5.0,64,0.01,,---,0.01,VWS V14.01,2013-04-30 10:28:00,
2013-04-30 06:29:00,66.6,54.1,30.01,NE,55,1.0,5.0,64,0.01,,---,0.01,VWS V14.01,2013-04-30 10:29:00,
2013-04-30 06:30:00,66.4,53.9,30.00,East,94,0.0,5.0,64,0.01,,---,0.01,VWS V14.01,2013-04-30 10:30:00,
2013-04-30 06:31:00,66.4,53.9,30.00,East,94,0.0,0.0,64,0.00,,---,0.01,VWS V14.01,2013-04-30 10:31:00,
2013-04-30 06:32:00,66.4,53.9,30.00,SSE,161,0.0,2.0,64,0.00,,---,0.01,VWS V14.01,2013-04-30 10:32:00,
2013-04-30 06:33:00,66.4,53.9,30.00,SSE,158,3.0,6.0,64,0.00,,---,0.01,VWS V14.01,2013-04-30 10:33:00,
2013-04-30 06:34:00,66.4,53.9,30.00,SSE,154,5.0,7.0,64,0.00,,---,0.01,VWS V14.01,2013-04-30 10:34:00,
2013-04-30 06:35:00,66.4,53.9,30.00,SSE,155,0.0,7.0,64,0.00,,---,0.01,VWS V14.01,2013-04-30 10:35:00,
2013-04-30 06:36:00,66.3,54.2,30.00,SSE,154,0.0,7.0,65,0.00,,---,0.01,VWS V14.01,2013-04-30 10:36:00,
2013-04-30 06:37:00,66.3,54.2,30.00,SSE,151,0.0,7.0,65,0.00,,---,0.01,VWS V14.01,2013-04-30 10:37:00,
2013-04-30 06:38:00,66.3,54.2,30.00,ESE,103,0.0,7.0,65,0.00,,---,0.01,VWS V14.01,2013-04-30 10:38:00,
2013-04-30 06:39:00,66.3,54.2,30.00,East,90,5.0,7.0,65,0.00,,---,0.01,VWS V14.01,2013-04-30 10:39:00,
2013-04-30 06:40:00,66.3,54.2,30.00,East,94,2.0,7.0,65,0.00,,---,0.01,VWS V14.01,2013-04-30 10:40:00,
2013-04-30 06:41:00,66.3,54.2,30.00,South,172,0.0,3.0,65,0.00,,---,0.01,VWS V14.01,2013-04-30 10:41:00,
2013-04-30 06:42:00,66.3,54.2,30.00,ESE,113,0.0,3.0,65,0.00,,---,0.01,VWS V14.01,2013-04-30 10:42:00,
2013-04-30 06:43:00,66.1,54.4,30.00,East,100,5.0,5.0,66,0.00,,---,0.01,VWS V14.01,2013-04-30 10:43:00,
2013-04-30 06:44:00,66.1,54.4,30.00,South,172,3.0,5.0,66,0.00,,---,0.01,VWS V14.01,2013-04-30 10:44:00,
2013-04-30 06:45:00,66.1,54.4,30.02,SE,146,0.0,5.0,66,0.00,,---,0.01,VWS V14.01,2013-04-30 10:45:00,
2013-04-30 06:46:00,66.1,54.4,30.02,SE,144,0.0,5.0,66,0.00,,---,0.01,VWS V14.01,2013-04-30 10:46:00,
2013-04-30 06:47:00,66.1,54.4,30.02,ESE,107,0.0,5.0,66,0.00,,---,0.01,VWS V14.01,2013-04-30 10:47:00,
2013-04-30 06:48:00,66.0,54.3,30.02,SE,131,0.0,5.0,66,0.00,,---,0.01,VWS V14.01,2013-04-30 10:48:00,
2013-04-30 06:49:00,66.0,54.7,30.02,SE,130,3.0,5.0,67,0.00,,---,0.01,VWS V14.01,2013-04-30 10:49:00,
2013-04-30 06:50:00,66.0,54.7,30.02,SE,142,0.0,6.0,67,0.00,,---,0.01,VWS V14.01,2013-04-30 10:50:00,
2013-04-30 06:51:00,65.8,54.5,30.02,ESE,104,3.0,5.0,67,0.00,,---,0.01,VWS V14.01,2013-04-30 10:51:00,
2013-04-30 06:52:00,65.8,54.5,30.02,East,91,2.0,6.0,67,0.00,,---,0.01,VWS V14.01,2013-04-30 10:52:00,
2013-04-30 06:53:00,65.8,54.5,30.02,East,97,3.0,6.0,67,0.00,,---,0.01,VWS V14.01,2013-04-30 10:53:00,
2013-04-30 06:54:00,65.8,55.0,30.02,East,98,0.0,6.0,68,0.00,,---,0.01,VWS V14.01,2013-04-30 10:54:00,
2013-04-30 06:55:00,65.8,55.0,30.02,East,100,0.0,6.0,68,0.00,,---,0.01,VWS V14.01,2013-04-30 10:55:00,
2013-04-30 06:56:00,65.6,54.8,30.02,ENE,69,0.0,6.0,68,0.00,,---,0.01,VWS V14.01,2013-04-30 10:56:00,
2013-04-30 06:57:00,65.6,54.8,30.02,ENE,69,0.0,6.0,68,0.00,,---,0.01,VWS V14.01,2013-04-30 10:57:00,
2013-04-30 06:58:00,65.6,54.8,30.02,SE,144,2.0,6.0,68,0.00,,---,0.01,VWS V14.01,2013-04-30 10:58:00,
2013-04-30 06:59:00,65.6,55.2,30.02,SE,144,0.0,6.0,69,0.00,,---,0.01,VWS V14.01,2013-04-30 10:59:00,
2013-04-30 07:00:00,65.6,55.2,30.02,SSE,148,4.0,6.0,69,0.00,,---,0.01,VWS V14.01,2013-04-30 11:00:00,
2013-04-30 07:01:00,65.6,54.8,30.02,SSE,149,0.0,6.0,68,0.00,,---,0.01,VWS V14.01,2013-04-30 11:01:00,
2013-04-30 07:02:00,65.5,54.7,30.02,SE,125,3.0,6.0,68,0.00,,---,0.01,VWS V14.01,2013-04-30 11:02:00,
2013-04-30 07:03:00,65.5,54.7,30.02,ESE,110,0.0,6.0,68,0.00,,---,0.01,VWS V14.01,2013-04-30 11:03:00,
2013-04-30 07:04:00,65.5,55.1,30.02,East,94,0.0,6.0,69,0.00,,---,0.01,VWS V14.01,2013-04-30 11:04:00,
2013-04-30 07:05:00,65.5,55.1,30.02,East,94,0.0,6.0,69,0.00,,---,0.01,VWS V14.01,2013-04-30 11:05:00,
2013-04-30 07:06:00,65.3,54.9,30.02,SE,134,0.0,6.0,69,0.00,,---,0.01,VWS V14.01,2013-04-30 11:06:00,
2013-04-30 07:07:00,65.3,54.9,30.02,SE,134,0.0,6.0,69,0.00,,---,0.01,VWS V14.01,2013-04-30 11:07:00,
2013-04-30 07:08:00,65.3,54.9,30.02,SE,134,2.0,6.0,69,0.00,,---,0.01,VWS V14.01,2013-04-30 11:08:00,
2013-04-30 07:09:00,65.3,54.9,30.02,SE,134,0.0,6.0,69,0.00,,---,0.01,VWS V14.01,2013-04-30 11:09:00,
2013-04-30 07:10:00,65.3,54.9,30.02,SE,134,0.0,6.0,69,0.00,,---,0.01,VWS V14.01,2013-04-30 11:10:00,
2013-04-30 07:11:00,65.2,54.8,30.02,SE,134,0.0,0.0,69,0.00,,---,0.01,VWS V14.01,2013-04-30 11:11:00,
2013-04-30 07:12:00,65.2,54.8,30.02,SE,134,0.0,0.0,69,0.00,,---,0.01,VWS V14.01,2013-04-30 11:12:00,
2013-04-30 07:13:00,65.2,55.2,30.02,SE,134,0.0,0.0,70,0.00,,---,0.01,VWS V14.01,2013-04-30 11:13:00,
2013-04-30 07:14:00,65.2,55.2,30.02,SE,134,0.0,0.0,70,0.00,,---,0.01,VWS V14.01,2013-04-30 11:14:00,
2013-04-30 07:15:00,65.2,55.2,30.02,SE,134,0.0,0.0,70,0.00,,---,0.01,VWS V14.01,2013-04-30 11:15:00,
2013-04-30 07:16:00,65.2,55.2,30.02,SE,128,2.0,2.0,70,0.00,,---,0.01,VWS V14.01,2013-04-30 11:16:00,
2013-04-30 07:17:00,65.0,55.0,30.02,ENE,62,0.0,3.0,70,0.00,,---,0.01,VWS V14.01,2013-04-30 11:17:00,
2013-04-30 07:18:00,65.0,55.0,30.02,ENE,63,0.0,3.0,70,0.00,,---,0.01,VWS V14.01,2013-04-30 11:18:00,
2013-04-30 07:19:00,65.0,55.0,30.02,ENE,63,3.0,3.0,70,0.00,,---,0.01,VWS V14.01,2013-04-30 11:19:00,
2013-04-30 07:20:00,65.0,55.0,30.02,ENE,73,2.0,3.0,70,0.00,,---,0.01,VWS V14.01,2013-04-30 11:20:00,
2013-04-30 07:21:00,65.0,55.0,30.02,ENE,73,2.0,2.0,70,0.00,,---,0.01,VWS V14.01,2013-04-30 11:21:00,
2013-04-30 07:22:00,64.8,54.8,30.02,SSE,163,3.0,3.0,70,0.00,,---,0.01,VWS V14.01,2013-04-30 11:22:00,
2013-04-30 07:23:00,64.8,54.8,30.02,SSE,163,0.0,3.0,70,0.00,,---,0.01,VWS V14.01,2013-04-30 11:23:00,
2013-04-30 07:24:00,64.7,54.7,30.02,SSE,163,0.0,3.0,70,0.00,,---,0.01,VWS V14.01,2013-04-30 11:24:00,
2013-04-30 07:25:00,64.7,54.7,30.02,SSE,163,0.0,3.0,70,0.00,,---,0.01,VWS V14.01,2013-04-30 11:25:00,
2013-04-30 07:26:00,64.7,54.7,30.02,SSE,163,0.0,3.0,70,0.00,,---,0.01,VWS V14.01,2013-04-30 11:26:00,
2013-04-30 07:27:00,64.7,54.7,30.02,SSE,163,0.0,3.0,70,0.00,,---,0.01,VWS V14.01,2013-04-30 11:27:00,
2013-04-30 07:28:00,64.5,54.5,30.02,SSE,163,0.0,3.0,70,0.00,,---,0.01,VWS V14.01,2013-04-30 11:28:00,
2013-04-30 07:29:00,64.5,54.5,30.02,SSE,163,0.0,3.0,70,0.00,,---,0.01,VWS V14.01,2013-04-30 11:29:00,
2013-04-30 07:30:00,64.5,54.5,30.02,ESE,117,3.0,3.0,70,0.00,,---,0.01,VWS V14.01,2013-04-30 11:30:00,
2013-04-30 07:31:00,64.5,54.5,30.02,ESE,117,0.0,3.0,70,0.00,,---,0.01,VWS V14.01,2013-04-30 11:31:00,
2013-04-30 07:32:00,64.3,54.3,30.02,ESE,114,6.0,6.0,70,0.00,,---,0.01,VWS V14.01,2013-04-30 11:32:00,
2013-04-30 07:33:00,64.3,54.3,30.02,ESE,118,3.0,6.0,70,0.00,,---,0.01,VWS V14.01,2013-04-30 11:33:00,
2013-04-30 07:34:00,64.2,54.2,30.02,East,79,5.0,6.0,70,0.00,,---,0.01,VWS V14.01,2013-04-30 11:34:00,
2013-04-30 07:35:00,64.2,54.6,30.02,NNE,31,0.0,6.0,71,0.00,,---,0.01,VWS V14.01,2013-04-30 11:35:00,
2013-04-30 07:36:00,64.0,54.4,30.02,NNE,32,0.0,6.0,71,0.00,,---,0.01,VWS V14.01,2013-04-30 11:36:00,
2013-04-30 07:37:00,64.0,54.4,30.02,NNE,32,0.0,6.0,71,0.00,,---,0.01,VWS V14.01,2013-04-30 11:37:00,
2013-04-30 07:38:00,63.9,54.3,30.02,NNE,32,0.0,6.0,71,0.00,,---,0.01,VWS V14.01,2013-04-30 11:38:00,
2013-04-30 07:39:00,63.9,54.7,30.02,NNE,32,0.0,6.0,72,0.00,,---,0.01,VWS V14.01,2013-04-30 11:39:00,
2013-04-30 07:40:00,63.9,54.7,30.02,East,90,3.0,6.0,72,0.00,,---,0.01,VWS V14.01,2013-04-30 11:40:00,
2013-04-30 07:41:00,63.9,54.7,30.02,East,90,0.0,2.0,72,0.00,,---,0.01,VWS V14.01,2013-04-30 11:41:00,
2013-04-30 07:42:00,63.9,54.7,30.02,East,90,0.0,2.0,72,0.00,,---,0.01,VWS V14.01,2013-04-30 11:42:00,
2013-04-30 07:43:00,63.7,54.5,30.02,East,90,0.0,2.0,72,0.00,,---,0.01,VWS V14.01,2013-04-30 11:43:00,
2013-04-30 07:44:00,63.7,54.5,30.02,East,90,0.0,2.0,72,0.00,,---,0.01,VWS V14.01,2013-04-30 11:44:00,
2013-04-30 07:45:00,63.7,54.5,30.04,East,90,0.0,2.0,72,0.00,,---,0.01,VWS V14.01,2013-04-30 11:45:00,
2013-04-30 07:46:00,63.7,54.5,30.04,East,90,0.0,2.0,72,0.00,,---,0.01,VWS V14.01,2013-04-30 11:46:00,
2013-04-30 07:47:00,63.5,54.3,30.04,East,90,0.0,2.0,72,0.00,,---,0.01,VWS V14.01,2013-04-30 11:47:00,
2013-04-30 07:48:00,63.5,54.3,30.04,East,90,0.0,2.0,72,0.00,,---,0.01,VWS V14.01,2013-04-30 11:48:00,
2013-04-30 07:49:00,63.5,54.3,30.04,East,90,0.0,2.0,72,0.00,,---,0.01,VWS V14.01,2013-04-30 11:49:00,
2013-04-30 07:50:00,63.4,54.2,30.04,East,90,0.0,2.0,72,0.00,,---,0.01,VWS V14.01,2013-04-30 11:50:00,
2013-04-30 07:51:00,63.4,54.2,30.04,East,90,0.0,0.0,72,0.00,,---,0.01,VWS V14.01,2013-04-30 11:51:00,
2013-04-30 07:52:00,63.4,54.2,30.04,East,90,0.0,0.0,72,0.00,,---,0.01,VWS V14.01,2013-04-30 11:52:00,
2013-04-30 07:53:00,63.4,54.2,30.04,East,90,0.0,0.0,72,0.00,,---,0.01,VWS V14.01,2013-04-30 11:53:00,
2013-04-30 07:54:00,63.2,54.4,30.04,East,90,0.0,0.0,73,0.00,,---,0.01,VWS V14.01,2013-04-30 11:54:00,
2013-04-30 07:55:00,63.2,54.4,30.04,East,90,0.0,0.0,73,0.00,,---,0.01,VWS V14.01,2013-04-30 11:55:00,
2013-04-30 07:56:00,63.2,54.4,30.04,East,90,0.0,0.0,73,0.00,,---,0.01,VWS V14.01,2013-04-30 11:56:00,
2013-04-30 07:57:00,63.2,54.4,30.04,East,90,0.0,0.0,73,0.00,,---,0.01,VWS V14.01,2013-04-30 11:57:00,
2013-04-30 07:58:00,63.1,54.3,30.04,East,90,0.0,0.0,73,0.00,,---,0.01,VWS V14.01,2013-04-30 11:58:00,
2013-04-30 07:59:00,63.1,54.3,30.04,East,90,0.0,0.0,73,0.00,,---,0.01,VWS V14.01,2013-04-30 11:59:00,
2013-04-30 08:00:00,63.1,54.3,30.04,East,90,0.0,0.0,73,0.00,,---,0.01,VWS V14.01,2013-04-30 12:00:00,
2013-04-30 08:01:00,63.1,54.7,30.04,East,90,0.0,0.0,74,0.00,,---,0.01,VWS V14.01,2013-04-30 12:01:00,
2013-04-30 08:02:00,62.9,54.5,30.04,East,90,0.0,0.0,74,0.00,,---,0.01,VWS V14.01,2013-04-30 12:02:00,
2013-04-30 08:03:00,62.9,54.5,30.04,East,90,0.0,0.0,74,0.00,,---,0.01,VWS V14.01,2013-04-30 12:03:00,
2013-04-30 08:04:00,62.9,54.5,30.04,East,90,0.0,0.0,74,0.00,,---,0.01,VWS V14.01,2013-04-30 12:04:00,
2013-04-30 08:05:00,62.9,54.5,30.04,East,90,0.0,0.0,74,0.00,,---,0.01,VWS V14.01,2013-04-30 12:05:00,
2013-04-30 08:06:00,62.9,54.5,30.04,East,90,0.0,0.0,74,0.00,,---,0.01,VWS V14.01,2013-04-30 12:06:00,
2013-04-30 08:07:00,62.7,54.3,30.04,East,90,0.0,0.0,74,0.00,,---,0.01,VWS V14.01,2013-04-30 12:07:00,
2013-04-30 08:08:00,62.7,54.3,30.04,East,90,0.0,0.0,74,0.00,,---,0.01,VWS V14.01,2013-04-30 12:08:00,
2013-04-30 08:09:00,62.7,54.3,30.04,East,90,0.0,0.0,74,0.00,,---,0.01,VWS V14.01,2013-04-30 12:09:00,
2013-04-30 08:10:00,62.7,54.3,30.04,East,90,0.0,0.0,74,0.00,,---,0.01,VWS V14.01,2013-04-30 12:10:00,
2013-04-30 08:11:00,62.6,54.2,30.04,East,90,0.0,0.0,74,0.00,,---,0.01,VWS V14.01,2013-04-30 12:11:00,
2013-04-30 08:12:00,62.6,54.6,30.04,East,90,0.0,0.0,75,0.00,,---,0.01,VWS V14.01,2013-04-30 12:12:00,
2013-04-30 08:13:00,62.6,54.6,30.04,East,90,0.0,0.0,75,0.00,,---,0.01,VWS V14.01,2013-04-30 12:13:00,
2013-04-30 08:14:00,62.4,54.4,30.04,East,90,0.0,0.0,75,0.00,,---,0.01,VWS V14.01,2013-04-30 12:14:00,
2013-04-30 08:15:00,62.4,54.4,30.04,East,90,0.0,0.0,75,0.00,,---,0.01,VWS V14.01,2013-04-30 12:15:00,
2013-04-30 08:16:00,62.4,54.4,30.04,East,90,0.0,0.0,75,0.00,,---,0.01,VWS V14.01,2013-04-30 12:16:00,
2013-04-30 08:17:00,62.4,54.4,30.04,East,90,0.0,0.0,75,0.00,,---,0.01,VWS V14.01,2013-04-30 12:17:00,
2013-04-30 08:18:00,62.3,54.3,30.04,East,90,0.0,0.0,75,0.00,,---,0.01,VWS V14.01,2013-04-30 12:18:00,
2013-04-30 08:19:00,62.3,54.3,30.04,East,90,0.0,0.0,75,0.00,,---,0.01,VWS V14.01,2013-04-30 12:19:00,
2013-04-30 08:20:00,62.3,54.3,30.04,East,90,0.0,0.0,75,0.00,,---,0.01,VWS V14.01,2013-04-30 12:20:00,
2013-04-30 08:21:00,62.1,54.1,30.04,East,90,0.0,0.0,75,0.00,,---,0.01,VWS V14.01,2013-04-30 12:21:00,
2013-04-30 08:22:00,62.1,54.1,30.04,East,90,0.0,0.0,75,0.00,,---,0.01,VWS V14.01,2013-04-30 12:22:00,
2013-04-30 08:23:00,62.1,54.1,30.04,East,90,0.0,0.0,75,0.00,,---,0.01,VWS V14.01,2013-04-30 12:23:00,
2013-04-30 08:24:00,62.1,54.1,30.04,East,90,0.0,0.0,75,0.00,,---,0.01,VWS V14.01,2013-04-30 12:24:00,
2013-04-30 08:25:00,62.0,54.0,30.04,East,90,0.0,0.0,75,0.00,,---,0.01,VWS V14.01,2013-04-30 12:25:00,
2013-04-30 08:26:00,62.0,54.0,30.04,East,90,0.0,0.0,75,0.00,,---,0.01,VWS V14.01,2013-04-30 12:26:00,
2013-04-30 08:27:00,62.0,54.4,30.04,East,90,0.0,0.0,76,0.00,,---,0.01,VWS V14.01,2013-04-30 12:27:00,
2013-04-30 08:28:00,62.0,54.4,30.04,East,90,0.0,0.0,76,0.00,,---,0.01,VWS V14.01,2013-04-30 12:28:00,
2013-04-30 08:29:00,61.8,54.2,30.04,East,90,0.0,0.0,76,0.00,,---,0.01,VWS V14.01,2013-04-30 12:29:00,
2013-04-30 08:30:00,61.8,54.2,30.05,East,90,0.0,0.0,76,0.00,,---,0.01,VWS V14.01,2013-04-30 12:30:00,
2013-04-30 08:31:00,61.8,54.2,30.05,East,90,0.0,0.0,76,0.00,,---,0.01,VWS V14.01,2013-04-30 12:31:00,
2013-04-30 08:32:00,61.8,54.2,30.05,East,90,0.0,0.0,76,0.00,,---,0.01,VWS V14.01,2013-04-30 12:32:00,
2013-04-30 08:33:00,61.6,54.0,30.05,East,90,0.0,0.0,76,0.00,,---,0.01,VWS V14.01,2013-04-30 12:33:00,
2013-04-30 08:34:00,61.6,54.0,30.05,East,90,0.0,0.0,76,0.00,,---,0.01,VWS V14.01,2013-04-30 12:34:00,
2013-04-30 08:35:00,61.6,54.0,30.05,East,90,0.0,0.0,76,0.00,,---,0.01,VWS V14.01,2013-04-30 12:35:00,
2013-04-30 08:36:00,61.5,54.2,30.05,East,90,0.0,0.0,77,0.00,,---,0.01,VWS V14.01,2013-04-30 12:36:00,
2013-04-30 08:37:00,61.5,54.2,30.05,East,90,0.0,0.0,77,0.00,,---,0.01,VWS V14.01,2013-04-30 12:37:00,
2013-04-30 08:38:00,61.5,54.2,30.05,East,90,0.0,0.0,77,0.00,,---,0.01,VWS V14.01,2013-04-30 12:38:00,
2013-04-30 08:39:00,61.5,54.2,30.05,East,90,0.0,0.0,77,0.00,,---,0.01,VWS V14.01,2013-04-30 12:39:00,
2013-04-30 08:40:00,61.5,54.2,30.05,East,90,0.0,0.0,77,0.00,,---,0.01,VWS V14.01,2013-04-30 12:40:00,
2013-04-30 08:41:00,61.5,54.2,30.05,East,90,0.0,0.0,77,0.00,,---,0.01,VWS V14.01,2013-04-30 12:41:00,
2013-04-30 08:42:00,61.3,54.0,30.05,East,90,0.0,0.0,77,0.00,,---,0.01,VWS V14.01,2013-04-30 12:42:00,
2013-04-30 08:43:00,61.3,54.0,30.05,East,90,0.0,0.0,77,0.00,,---,0.01,VWS V14.01,2013-04-30 12:43:00,
2013-04-30 08:44:00,61.3,54.0,30.05,East,90,0.0,0.0,77,0.00,,---,0.01,VWS V14.01,2013-04-30 12:44:00,
2013-04-30 08:45:00,61.3,54.0,30.06,East,90,0.0,0.0,77,0.00,,---,0.01,VWS V14.01,2013-04-30 12:45:00,
2013-04-30 08:46:00,61.3,54.0,30.06,East,90,0.0,0.0,77,0.00,,---,0.01,VWS V14.01,2013-04-30 12:46:00,
2013-04-30 08:47:00,61.3,54.0,30.06,East,90,0.0,0.0,77,0.00,,---,0.01,VWS V14.01,2013-04-30 12:47:00,
2013-04-30 08:48:00,61.3,54.0,30.06,East,90,0.0,0.0,77,0.00,,---,0.01,VWS V14.01,2013-04-30 12:48:00,
2013-04-30 08:49:00,61.2,53.9,30.06,East,90,0.0,0.0,77,0.00,,---,0.01,VWS V14.01,2013-04-30 12:49:00,
2013-04-30 08:50:00,61.2,53.9,30.06,East,90,0.0,0.0,77,0.00,,---,0.01,VWS V14.01,2013-04-30 12:50:00,
2013-04-30 08:51:00,61.2,53.9,30.06,East,90,0.0,1.0,77,0.00,,---,0.01,VWS V14.01,2013-04-30 12:51:00,
2013-04-30 08:52:00,61.2,53.9,30.06,East,90,0.0,1.0,77,0.00,,---,0.01,VWS V14.01,2013-04-30 12:52:00,
2013-04-30 08:53:00,61.2,53.9,30.06,East,90,0.0,1.0,77,0.00,,---,0.01,VWS V14.01,2013-04-30 12:53:00,
2013-04-30 08:54:00,61.2,53.9,30.06,East,90,0.0,1.0,77,0.00,,---,0.01,VWS V14.01,2013-04-30 12:54:00,
2013-04-30 08:55:00,61.2,53.9,30.06,East,90,0.0,1.0,77,0.00,,---,0.01,VWS V14.01,2013-04-30 12:55:00,
2013-04-30 08:56:00,61.2,53.9,30.06,East,90,0.0,1.0,77,0.00,,---,0.01,VWS V14.01,2013-04-30 12:56:00,
2013-04-30 08:57:00,61.2,53.9,30.06,East,90,0.0,1.0,77,0.00,,---,0.01,VWS V14.01,2013-04-30 12:57:00,
2013-04-30 08:58:00,61.2,53.9,30.06,East,90,0.0,1.0,77,0.00,,---,0.01,VWS V14.01,2013-04-30 12:58:00,
2013-04-30 08:59:00,61.0,53.8,30.06,East,90,0.0,1.0,77,0.00,,---,0.01,VWS V14.01,2013-04-30 12:59:00,
2013-04-30 09:00:00,61.0,53.8,30.06,East,90,0.0,1.0,77,0.00,,---,0.01,VWS V14.01,2013-04-30 13:00:00,
2013-04-30 09:01:00,61.0,53.8,30.06,East,90,0.0,0.0,77,0.00,,---,0.01,VWS V14.01,2013-04-30 13:01:00,
2013-04-30 09:02:00,61.0,53.8,30.06,East,90,0.0,0.0,77,0.00,,---,0.01,VWS V14.01,2013-04-30 13:02:00,
2013-04-30 09:03:00,61.0,53.8,30.06,East,90,0.0,0.0,77,0.00,,---,0.01,VWS V14.01,2013-04-30 13:03:00,
2013-04-30 09:04:00,61.0,53.8,30.06,East,90,0.0,0.0,77,0.00,,---,0.01,VWS V14.01,2013-04-30 13:04:00,
2013-04-30 09:05:00,61.0,54.1,30.06,East,90,0.0,0.0,78,0.00,,---,0.01,VWS V14.01,2013-04-30 13:05:00,
2013-04-30 09:06:00,61.0,54.1,30.06,East,90,0.0,0.0,78,0.00,,---,0.01,VWS V14.01,2013-04-30 13:06:00,
2013-04-30 09:07:00,61.0,54.1,30.06,East,90,0.0,0.0,78,0.00,,---,0.01,VWS V14.01,2013-04-30 13:07:00,
2013-04-30 09:08:00,60.9,54.0,30.06,East,90,0.0,0.0,78,0.00,,---,0.01,VWS V14.01,2013-04-30 13:08:00,
2013-04-30 09:09:00,60.9,54.0,30.06,East,90,0.0,0.0,78,0.00,,---,0.01,VWS V14.01,2013-04-30 13:09:00,
2013-04-30 09:10:00,60.9,54.0,30.06,East,90,0.0,0.0,78,0.00,,---,0.01,VWS V14.01,2013-04-30 13:10:00,
2013-04-30 09:11:00,60.9,54.0,30.06,East,90,0.0,0.0,78,0.00,,---,0.01,VWS V14.01,2013-04-30 13:11:00,
2013-04-30 09:12:00,60.9,54.0,30.06,East,90,0.0,0.0,78,0.00,,---,0.01,VWS V14.01,2013-04-30 13:12:00,
2013-04-30 09:13:00,60.9,54.0,30.06,East,90,0.0,0.0,78,0.00,,---,0.01,VWS V14.01,2013-04-30 13:13:00,
2013-04-30 09:14:00,60.9,54.0,30.06,East,90,0.0,0.0,78,0.00,,---,0.01,VWS V14.01,2013-04-30 13:14:00,
2013-04-30 09:15:00,60.9,54.0,30.06,East,90,0.0,0.0,78,0.00,,---,0.01,VWS V14.01,2013-04-30 13:15:00,
2013-04-30 09:16:00,60.9,54.0,30.06,East,90,0.0,0.0,78,0.00,,---,0.01,VWS V14.01,2013-04-30 13:16:00,
2013-04-30 09:17:00,60.7,53.8,30.06,East,90,0.0,0.0,78,0.00,,---,0.01,VWS V14.01,2013-04-30 13:17:00,
2013-04-30 09:18:00,60.7,53.8,30.06,East,90,0.0,0.0,78,0.00,,---,0.01,VWS V14.01,2013-04-30 13:18:00,
2013-04-30 09:19:00,60.7,53.8,30.06,East,90,0.0,0.0,78,0.00,,---,0.01,VWS V14.01,2013-04-30 13:19:00,
2013-04-30 09:20:00,60.7,53.8,30.06,East,90,0.0,0.0,78,0.00,,---,0.01,VWS V14.01,2013-04-30 13:20:00,
2013-04-30 09:21:00,60.7,53.8,30.06,East,90,0.0,0.0,78,0.00,,---,0.01,VWS V14.01,2013-04-30 13:21:00,
2013-04-30 09:22:00,60.7,53.8,30.06,East,90,0.0,0.0,78,0.00,,---,0.01,VWS V14.01,2013-04-30 13:22:00,
2013-04-30 09:23:00,60.7,53.8,30.06,East,90,0.0,0.0,78,0.00,,---,0.01,VWS V14.01,2013-04-30 13:23:00,
2013-04-30 09:24:00,60.7,53.8,30.06,East,90,0.0,0.0,78,0.00,,---,0.01,VWS V14.01,2013-04-30 13:24:00,
2013-04-30 09:25:00,60.7,53.8,30.06,East,90,0.0,0.0,78,0.00,,---,0.01,VWS V14.01,2013-04-30 13:25:00,
2013-04-30 09:26:00,60.7,53.8,30.06,East,90,0.0,0.0,78,0.00,,---,0.01,VWS V14.01,2013-04-30 13:26:00,
2013-04-30 09:27:00,60.7,53.8,30.06,East,90,0.0,0.0,78,0.00,,---,0.01,VWS V14.01,2013-04-30 13:27:00,
2013-04-30 09:28:00,60.7,54.2,30.06,East,90,0.0,0.0,79,0.00,,---,0.01,VWS V14.01,2013-04-30 13:28:00,
2013-04-30 09:29:00,60.7,54.2,30.06,East,90,0.0,0.0,79,0.00,,---,0.01,VWS V14.01,2013-04-30 13:29:00,
2013-04-30 09:30:00,60.7,54.2,30.06,East,84,0.0,0.0,79,0.00,,---,0.01,VWS V14.01,2013-04-30 13:30:00,
2013-04-30 09:31:00,60.7,54.2,30.06,East,90,0.0,0.0,79,0.00,,---,0.01,VWS V14.01,2013-04-30 13:31:00,
2013-04-30 09:32:00,60.7,54.2,30.06,East,90,0.0,0.0,79,0.00,,---,0.01,VWS V14.01,2013-04-30 13:32:00,
2013-04-30 09:33:00,60.7,54.2,30.06,East,90,0.0,0.0,79,0.00,,---,0.01,VWS V14.01,2013-04-30 13:33:00,
2013-04-30 09:34:00,60.5,54.0,30.06,East,90,0.0,0.0,79,0.00,,---,0.01,VWS V14.01,2013-04-30 13:34:00,
2013-04-30 09:35:00,60.5,54.0,30.06,East,90,0.0,0.0,79,0.00,,---,0.01,VWS V14.01,2013-04-30 13:35:00,
2013-04-30 09:36:00,60.5,54.0,30.06,East,90,0.0,0.0,79,0.00,,---,0.01,VWS V14.01,2013-04-30 13:36:00,
2013-04-30 09:37:00,60.5,54.0,30.06,East,90,0.0,1.0,79,0.00,,---,0.01,VWS V14.01,2013-04-30 13:37:00,
2013-04-30 09:38:00,60.5,54.0,30.06,East,90,0.0,1.0,79,0.00,,---,0.01,VWS V14.01,2013-04-30 13:38:00,
2013-04-30 09:39:00,60.5,54.0,30.06,East,90,0.0,1.0,79,0.00,,---,0.01,VWS V14.01,2013-04-30 13:39:00,
2013-04-30 09:40:00,60.5,54.0,30.06,East,90,0.0,1.0,79,0.00,,---,0.01,VWS V14.01,2013-04-30 13:40:00,
2013-04-30 09:41:00,60.5,54.0,30.06,East,90,0.0,0.0,79,0.00,,---,0.01,VWS V14.01,2013-04-30 13:41:00,
2013-04-30 09:42:00,60.5,54.0,30.06,East,90,0.0,0.0,79,0.00,,---,0.01,VWS V14.01,2013-04-30 13:42:00,
2013-04-30 09:43:00,60.5,54.0,30.06,East,90,0.0,0.0,79,0.00,,---,0.01,VWS V14.01,2013-04-30 13:43:00,
2013-04-30 09:44:00,60.5,54.0,30.06,East,90,0.0,0.0,79,0.00,,---,0.01,VWS V14.01,2013-04-30 13:44:00,
2013-04-30 09:45:00,60.5,54.0,30.07,East,90,0.0,0.0,79,0.00,,---,0.01,VWS V14.01,2013-04-30 13:45:00,
2013-04-30 09:46:00,60.5,54.0,30.07,East,90,0.0,0.0,79,0.00,,---,0.01,VWS V14.01,2013-04-30 13:46:00,
2013-04-30 09:47:00,60.5,54.0,30.07,East,90,0.0,0.0,79,0.00,,---,0.01,VWS V14.01,2013-04-30 13:47:00,
2013-04-30 09:48:00,60.5,54.0,30.07,East,90,0.0,0.0,79,0.00,,---,0.01,VWS V14.01,2013-04-30 13:48:00,
2013-04-30 09:49:00,60.5,54.0,30.07,East,90,0.0,0.0,79,0.00,,---,0.01,VWS V14.01,2013-04-30 13:49:00,
2013-04-30 09:50:00,60.5,54.0,30.07,East,90,0.0,0.0,79,0.00,,---,0.01,VWS V14.01,2013-04-30 13:50:00,
2013-04-30 09:51:00,60.5,54.0,30.07,East,90,0.0,0.0,79,0.00,,---,0.01,VWS V14.01,2013-04-30 13:51:00,
2013-04-30 09:52:00,60.5,54.0,30.07,East,90,0.0,0.0,79,0.00,,---,0.01,VWS V14.01,2013-04-30 13:52:00,
2013-04-30 09:53:00,60.5,54.0,30.07,East,90,0.0,0.0,79,0.00,,---,0.01,VWS V14.01,2013-04-30 13:53:00,
2013-04-30 09:54:00,60.5,54.3,30.07,East,90,0.0,0.0,80,0.00,,---,0.01,VWS V14.01,2013-04-30 13:54:00,
2013-04-30 09:55:00,60.4,54.2,30.07,East,90,0.0,0.0,80,0.00,,---,0.01,VWS V14.01,2013-04-30 13:55:00,
2013-04-30 09:56:00,60.4,54.2,30.07,East,90,0.0,0.0,80,0.00,,---,0.01,VWS V14.01,2013-04-30 13:56:00,
2013-04-30 09:57:00,60.4,54.2,30.07,East,90,0.0,1.0,80,0.00,,---,0.01,VWS V14.01,2013-04-30 13:57:00,
2013-04-30 09:58:00,60.4,54.2,30.07,East,90,0.0,1.0,80,0.00,,---,0.01,VWS V14.01,2013-04-30 13:58:00,
2013-04-30 09:59:00,60.4,54.2,30.07,East,90,0.0,1.0,80,0.00,,---,0.01,VWS V14.01,2013-04-30 13:59:00,
2013-04-30 10:00:00,60.4,54.2,30.08,East,90,0.0,1.0,80,0.00,,---,0.01,VWS V14.01,2013-04-30 14:00:00,
2013-04-30 10:01:00,60.4,54.2,30.08,East,90,0.0,0.0,80,0.00,,---,0.01,VWS V14.01,2013-04-30 14:01:00,
2013-04-30 10:02:00,60.4,54.2,30.08,East,90,0.0,0.0,80,0.00,,---,0.01,VWS V14.01,2013-04-30 14:02:00,
2013-04-30 10:03:00,60.4,54.2,30.08,East,90,0.0,0.0,80,0.00,,---,0.01,VWS V14.01,2013-04-30 14:03:00,
2013-04-30 10:04:00,60.4,54.2,30.08,East,90,0.0,1.0,80,0.00,,---,0.01,VWS V14.01,2013-04-30 14:04:00,
2013-04-30 10:05:00,60.4,54.2,30.08,East,90,0.0,1.0,80,0.00,,---,0.01,VWS V14.01,2013-04-30 14:05:00,
2013-04-30 10:06:00,60.4,54.2,30.08,East,90,0.0,1.0,80,0.00,,---,0.01,VWS V14.01,2013-04-30 14:06:00,
2013-04-30 10:07:00,60.4,54.5,30.08,East,90,1.0,1.0,81,0.00,,---,0.01,VWS V14.01,2013-04-30 14:07:00,
2013-04-30 10:08:00,60.4,54.5,30.08,East,94,1.0,4.0,81,0.00,,---,0.01,VWS V14.01,2013-04-30 14:08:00,
2013-04-30 10:09:00,60.2,54.4,30.08,East,94,0.0,4.0,81,0.00,,---,0.01,VWS V14.01,2013-04-30 14:09:00,
2013-04-30 10:10:00,60.2,54.4,30.08,East,94,0.0,4.0,81,0.00,,---,0.01,VWS V14.01,2013-04-30 14:10:00,
2013-04-30 10:11:00,60.2,54.4,30.08,East,94,0.0,0.0,81,0.00,,---,0.01,VWS V14.01,2013-04-30 14:11:00,
2013-04-30 10:12:00,60.2,54.4,30.08,East,94,0.0,0.0,81,0.00,,---,0.01,VWS V14.01,2013-04-30 14:12:00,
2013-04-30 10:13:00,60.2,54.4,30.08,East,94,3.0,3.0,81,0.00,,---,0.01,VWS V14.01,2013-04-30 14:13:00,
2013-04-30 10:14:00,60.2,54.4,30.08,East,93,1.0,3.0,81,0.00,,---,0.01,VWS V14.01,2013-04-30 14:14:00,
2013-04-30 10:15:00,60.2,54.4,30.08,East,94,0.0,3.0,81,0.00,,---,0.01,VWS V14.01,2013-04-30 14:15:00,
2013-04-30 10:16:00,60.1,54.3,30.08,East,91,0.0,3.0,81,0.00,,---,0.01,VWS V14.01,2013-04-30 14:16:00,
2013-04-30 10:17:00,60.1,54.3,30.08,East,91,0.0,3.0,81,0.00,,---,0.01,VWS V14.01,2013-04-30 14:17:00,
2013-04-30 10:18:00,60.1,54.3,30.08,East,91,1.0,3.0,81,0.00,,---,0.01,VWS V14.01,2013-04-30 14:18:00,
2013-04-30 10:19:00,60.1,54.3,30.08,East,91,1.0,3.0,81,0.00,,---,0.01,VWS V14.01,2013-04-30 14:19:00,
2013-04-30 10:20:00,60.1,54.3,30.08,East,91,0.0,3.0,81,0.00,,---,0.01,VWS V14.01,2013-04-30 14:20:00,
2013-04-30 10:21:00,60.1,54.3,30.08,East,91,1.0,2.0,81,0.00,,---,0.01,VWS V14.01,2013-04-30 14:21:00,
2013-04-30 10:22:00,60.1,54.3,30.08,East,90,2.0,3.0,81,0.00,,---,0.01,VWS V14.01,2013-04-30 14:22:00,
2013-04-30 10:23:00,60.1,54.3,30.08,East,90,0.0,3.0,81,0.00,,---,0.01,VWS V14.01,2013-04-30 14:23:00,
2013-04-30 10:24:00,60.1,54.6,30.08,East,90,0.0,3.0,82,0.00,,---,0.01,VWS V14.01,2013-04-30 14:24:00,
2013-04-30 10:25:00,60.1,54.6,30.08,East,90,0.0,3.0,82,0.00,,---,0.01,VWS V14.01,2013-04-30 14:25:00,
2013-04-30 10:26:00,60.1,54.6,30.08,East,90,0.0,3.0,82,0.00,,---,0.01,VWS V14.01,2013-04-30 14:26:00,
2013-04-30 10:27:00,60.1,54.6,30.08,East,90,0.0,3.0,82,0.00,,---,0.01,VWS V14.01,2013-04-30 14:27:00,
2013-04-30 10:28:00,59.9,54.4,30.08,East,90,0.0,3.0,82,0.00,,---,0.01,VWS V14.01,2013-04-30 14:28:00,
2013-04-30 10:29:00,59.9,54.4,30.08,East,90,0.0,3.0,82,0.00,,---,0.01,VWS V14.01,2013-04-30 14:29:00,
2013-04-30 10:30:00,59.9,54.4,30.08,East,90,0.0,3.0,82,0.00,,---,0.01,VWS V14.01,2013-04-30 14:30:00,
2013-04-30 10:31:00,59.9,54.4,30.08,East,90,0.0,0.0,82,0.00,,---,0.01,VWS V14.01,2013-04-30 14:31:00,
2013-04-30 10:32:00,59.9,54.4,30.08,East,90,0.0,1.0,82,0.00,,---,0.01,VWS V14.01,2013-04-30 14:32:00,
2013-04-30 10:33:00,59.9,54.4,30.08,East,90,2.0,2.0,82,0.00,,---,0.01,VWS V14.01,2013-04-30 14:33:00,
2013-04-30 10:34:00,59.9,54.4,30.08,East,90,0.0,2.0,82,0.00,,---,0.01,VWS V14.01,2013-04-30 14:34:00,
2013-04-30 10:35:00,59.9,54.4,30.08,East,90,0.0,2.0,82,0.00,,---,0.01,VWS V14.01,2013-04-30 14:35:00,
2013-04-30 10:36:00,59.9,54.4,30.08,East,90,0.0,2.0,82,0.00,,---,0.01,VWS V14.01,2013-04-30 14:36:00,
2013-04-30 10:37:00,59.9,54.4,30.08,East,90,0.0,2.0,82,0.00,,---,0.01,VWS V14.01,2013-04-30 14:37:00,
2013-04-30 10:38:00,59.9,54.4,30.08,East,90,0.0,2.0,82,0.00,,---,0.01,VWS V14.01,2013-04-30 14:38:00,
2013-04-30 10:39:00,59.9,54.4,30.08,East,90,0.0,2.0,82,0.00,,---,0.01,VWS V14.01,2013-04-30 14:39:00,
2013-04-30 10:40:00,59.9,54.4,30.08,East,90,0.0,2.0,82,0.00,,---,0.01,VWS V14.01,2013-04-30 14:40:00,
2013-04-30 10:41:00,59.9,54.4,30.08,East,90,0.0,0.0,82,0.00,,---,0.01,VWS V14.01,2013-04-30 14:41:00,
2013-04-30 10:42:00,59.9,54.4,30.08,East,90,0.0,0.0,82,0.00,,---,0.01,VWS V14.01,2013-04-30 14:42:00,
2013-04-30 10:43:00,59.9,54.4,30.08,East,90,0.0,0.0,82,0.00,,---,0.01,VWS V14.01,2013-04-30 14:43:00,
2013-04-30 10:44:00,59.8,54.6,30.08,East,90,0.0,0.0,83,0.00,,---,0.01,VWS V14.01,2013-04-30 14:44:00,
2013-04-30 10:45:00,59.8,54.6,30.08,East,84,0.0,0.0,83,0.00,,---,0.01,VWS V14.01,2013-04-30 14:45:00,
2013-04-30 10:46:00,59.8,54.6,30.08,East,90,1.0,1.0,83,0.00,,---,0.01,VWS V14.01,2013-04-30 14:46:00,
2013-04-30 10:47:00,59.8,54.6,30.08,East,90,1.0,2.0,83,0.00,,---,0.01,VWS V14.01,2013-04-30 14:47:00,
2013-04-30 10:48:00,59.8,54.6,30.08,East,90,0.0,2.0,83,0.00,,---,0.01,VWS V14.01,2013-04-30 14:48:00,
2013-04-30 10:49:00,59.8,54.6,30.08,East,91,2.0,5.0,83,0.00,,---,0.01,VWS V14.01,2013-04-30 14:49:00,
2013-04-30 10:50:00,59.8,54.6,30.08,East,87,2.0,6.0,83,0.00,,---,0.01,VWS V14.01,2013-04-30 14:50:00,
2013-04-30 10:51:00,59.8,54.6,30.08,East,87,1.0,3.0,83,0.00,,---,0.01,VWS V14.01,2013-04-30 14:51:00,
2013-04-30 10:52:00,59.8,54.6,30.08,East,86,2.0,3.0,83,0.00,,---,0.01,VWS V14.01,2013-04-30 14:52:00,
2013-04-30 10:53:00,59.6,54.4,30.08,ESE,106,2.0,3.0,83,0.00,,---,0.01,VWS V14.01,2013-04-30 14:53:00,
2013-04-30 10:54:00,59.6,54.4,30.08,East,97,0.0,7.0,83,0.00,,---,0.01,VWS V14.01,2013-04-30 14:54:00,
2013-04-30 10:55:00,59.6,54.8,30.08,East,97,0.0,7.0,84,0.00,,---,0.01,VWS V14.01,2013-04-30 14:55:00,
2013-04-30 10:56:00,59.6,54.8,30.08,East,98,0.0,7.0,84,0.00,,---,0.01,VWS V14.01,2013-04-30 14:56:00,
2013-04-30 10:57:00,59.6,54.8,30.08,East,98,1.0,7.0,84,0.00,,---,0.01,VWS V14.01,2013-04-30 14:57:00,
2013-04-30 10:58:00,59.5,54.7,30.08,East,98,2.0,7.0,84,0.00,,---,0.01,VWS V14.01,2013-04-30 14:58:00,
2013-04-30 10:59:00,59.5,54.7,30.08,East,98,2.0,7.0,84,0.00,,---,0.01,VWS V14.01,2013-04-30 14:59:00,
2013-04-30 11:00:00,59.5,54.7,30.09,East,98,0.0,7.0,84,0.00,,---,0.01,VWS V14.01,2013-04-30 15:00:00,
2013-04-30 11:01:00,59.5,54.7,30.09,East,98,0.0,0.0,84,0.00,,---,0.01,VWS V14.01,2013-04-30 15:01:00,
2013-04-30 11:02:00,59.5,54.7,30.09,East,98,0.0,0.0,84,0.00,,---,0.01,VWS V14.01,2013-04-30 15:02:00,
2013-04-30 11:03:00,59.3,54.8,30.09,East,98,0.0,0.0,85,0.00,,---,0.01,VWS V14.01,2013-04-30 15:03:00,
2013-04-30 11:04:00,59.3,54.8,30.09,ESE,103,6.0,6.0,85,0.00,,---,0.01,VWS V14.01,2013-04-30 15:04:00,
2013-04-30 11:05:00,59.3,54.8,30.09,SE,132,2.0,6.0,85,0.00,,---,0.01,VWS V14.01,2013-04-30 15:05:00,
2013-04-30 11:06:00,59.3,54.8,30.09,SE,132,0.0,6.0,85,0.00,,---,0.01,VWS V14.01,2013-04-30 15:06:00,
2013-04-30 11:07:00,59.2,54.7,30.09,ESE,103,1.0,6.0,85,0.00,,---,0.01,VWS V14.01,2013-04-30 15:07:00,
2013-04-30 11:08:00,59.2,54.7,30.09,ESE,106,1.0,6.0,85,0.00,,---,0.01,VWS V14.01,2013-04-30 15:08:00,
2013-04-30 11:09:00,59.2,54.7,30.09,SE,125,1.0,6.0,85,0.00,,---,0.01,VWS V14.01,2013-04-30 15:09:00,
2013-04-30 11:10:00,59.2,54.7,30.09,East,97,2.0,6.0,85,0.00,,---,0.01,VWS V14.01,2013-04-30 15:10:00,
2013-04-30 11:11:00,59.0,54.5,30.09,ESE,104,2.0,5.0,85,0.00,,---,0.01,VWS V14.01,2013-04-30 15:11:00,
2013-04-30 11:12:00,59.0,54.5,30.09,ESE,104,0.0,5.0,85,0.00,,---,0.01,VWS V14.01,2013-04-30 15:12:00,
2013-04-30 11:13:00,59.0,54.5,30.09,East,97,1.0,8.0,85,0.00,,---,0.01,VWS V14.01,2013-04-30 15:13:00,
2013-04-30 11:14:00,58.9,54.4,30.09,East,97,0.0,8.0,85,0.00,,---,0.01,VWS V14.01,2013-04-30 15:14:00,
2013-04-30 11:15:00,58.9,54.4,30.07,East,97,0.0,8.0,85,0.00,,---,0.01,VWS V14.01,2013-04-30 15:15:00,
2013-04-30 11:16:00,58.9,54.4,30.07,ESE,106,3.0,8.0,85,0.00,,---,0.01,VWS V14.01,2013-04-30 15:16:00,
2013-04-30 11:17:00,58.9,54.4,30.07,ESE,106,3.0,8.0,85,0.00,,---,0.01,VWS V14.01,2013-04-30 15:17:00,
2013-04-30 11:18:00,58.7,54.2,30.07,ESE,104,0.0,8.0,85,0.00,,---,0.01,VWS V14.01,2013-04-30 15:18:00,
2013-04-30 11:19:00,58.7,54.2,30.07,ESE,104,0.0,8.0,85,0.00,,---,0.01,VWS V14.01,2013-04-30 15:19:00,
2013-04-30 11:20:00,58.6,54.1,30.07,East,96,2.0,8.0,85,0.00,,---,0.01,VWS V14.01,2013-04-30 15:20:00,
2013-04-30 11:21:00,58.6,54.1,30.07,East,100,0.0,6.0,85,0.00,,---,0.01,VWS V14.01,2013-04-30 15:21:00,
2013-04-30 11:22:00,58.6,54.1,30.07,ENE,73,2.0,6.0,85,0.00,,---,0.01,VWS V14.01,2013-04-30 15:22:00,
2013-04-30 11:23:00,58.4,53.9,30.07,East,90,0.0,6.0,85,0.00,,---,0.01,VWS V14.01,2013-04-30 15:23:00,
2013-04-30 11:24:00,58.4,53.9,30.07,East,90,2.0,6.0,85,0.00,,---,0.01,VWS V14.01,2013-04-30 15:24:00,
2013-04-30 11:25:00,58.3,53.8,30.07,East,87,3.0,6.0,85,0.00,,---,0.01,VWS V14.01,2013-04-30 15:25:00,
2013-04-30 11:26:00,58.3,53.8,30.07,ESE,107,3.0,6.0,85,0.00,,---,0.01,VWS V14.01,2013-04-30 15:26:00,
2013-04-30 11:27:00,58.3,53.8,30.07,East,96,0.0,6.0,85,0.00,,---,0.01,VWS V14.01,2013-04-30 15:27:00,
2013-04-30 11:28:00,58.1,53.6,30.07,ESE,104,2.0,6.0,85,0.00,,---,0.01,VWS V14.01,2013-04-30 15:28:00,
2013-04-30 11:29:00,58.1,53.0,30.07,East,101,2.0,6.0,83,0.00,,---,0.01,VWS V14.01,2013-04-30 15:29:00,
2013-04-30 11:30:00,58.1,53.0,30.07,East,84,0.0,6.0,83,0.00,,---,0.01,VWS V14.01,2013-04-30 15:30:00,
2013-04-30 11:31:00,58.1,53.0,30.07,ENE,76,2.0,2.0,83,0.00,,---,0.01,VWS V14.01,2013-04-30 15:31:00,
2013-04-30 11:32:00,58.1,53.0,30.07,ENE,76,2.0,5.0,83,0.00,,---,0.01,VWS V14.01,2013-04-30 15:32:00,
2013-04-30 11:33:00,58.1,53.0,30.07,ENE,76,3.0,5.0,83,0.00,,---,0.01,VWS V14.01,2013-04-30 15:33:00,
2013-04-30 11:34:00,58.1,53.0,30.07,East,80,3.0,5.0,83,0.00,,---,0.01,VWS V14.01,2013-04-30 15:34:00,
2013-04-30 11:35:00,58.1,53.0,30.07,East,80,5.0,5.0,83,0.00,,---,0.01,VWS V14.01,2013-04-30 15:35:00,
2013-04-30 11:36:00,58.1,53.0,30.07,East,80,0.0,5.0,83,0.00,,---,0.01,VWS V14.01,2013-04-30 15:36:00,
2013-04-30 11:37:00,58.1,53.0,30.07,East,82,0.0,5.0,83,0.00,,---,0.01,VWS V14.01,2013-04-30 15:37:00,
2013-04-30 11:38:00,58.0,52.9,30.07,East,83,3.0,5.0,83,0.00,,---,0.01,VWS V14.01,2013-04-30 15:38:00,
2013-04-30 11:39:00,58.0,52.9,30.07,East,89,2.0,5.0,83,0.00,,---,0.01,VWS V14.01,2013-04-30 15:39:00,
2013-04-30 11:40:00,57.8,52.7,30.07,East,96,2.0,5.0,83,0.00,,---,0.01,VWS V14.01,2013-04-30 15:40:00,
2013-04-30 11:41:00,57.8,52.7,30.07,East,96,0.0,2.0,83,0.00,,---,0.01,VWS V14.01,2013-04-30 15:41:00,
2013-04-30 11:42:00,57.8,52.7,30.07,East,96,3.0,3.0,83,0.00,,---,0.01,VWS V14.01,2013-04-30 15:42:00,
2013-04-30 11:43:00,57.8,52.7,30.07,East,96,0.0,3.0,83,0.00,,---,0.01,VWS V14.01,2013-04-30 15:43:00,
2013-04-30 11:44:00,57.8,52.7,30.07,East,96,0.0,3.0,83,0.00,,---,0.01,VWS V14.01,2013-04-30 15:44:00,
2013-04-30 11:45:00,57.8,52.7,30.07,East,96,0.0,3.0,83,0.00,,---,0.01,VWS V14.01,2013-04-30 15:45:00,
2013-04-30 11:46:00,57.8,53.0,30.07,East,96,0.0,3.0,84,0.00,,---,0.01,VWS V14.01,2013-04-30 15:46:00,
2013-04-30 11:47:00,57.8,53.0,30.07,East,96,0.0,3.0,84,0.00,,---,0.01,VWS V14.01,2013-04-30 15:47:00,
2013-04-30 11:48:00,57.8,53.0,30.07,East,96,0.0,3.0,84,0.00,,---,0.01,VWS V14.01,2013-04-30 15:48:00,
2013-04-30 11:49:00,57.8,53.0,30.07,East,96,0.0,3.0,84,0.00,,---,0.01,VWS V14.01,2013-04-30 15:49:00,
2013-04-30 11:50:00,57.8,53.0,30.07,East,96,0.0,3.0,84,0.00,,---,0.01,VWS V14.01,2013-04-30 15:50:00,
2013-04-30 11:51:00,57.8,53.0,30.07,East,96,0.0,0.0,84,0.00,,---,0.01,VWS V14.01,2013-04-30 15:51:00,
2013-04-30 11:52:00,57.6,52.8,30.07,East,96,0.0,0.0,84,0.00,,---,0.01,VWS V14.01,2013-04-30 15:52:00,
2013-04-30 11:53:00,57.6,52.8,30.07,East,96,0.0,0.0,84,0.00,,---,0.01,VWS V14.01,2013-04-30 15:53:00,
2013-04-30 11:54:00,57.6,52.8,30.07,East,96,0.0,0.0,84,0.00,,---,0.01,VWS V14.01,2013-04-30 15:54:00,
2013-04-30 11:55:00,57.6,52.8,30.07,East,96,0.0,0.0,84,0.00,,---,0.01,VWS V14.01,2013-04-30 15:55:00,
2013-04-30 11:56:00,57.6,52.8,30.07,East,96,0.0,0.0,84,0.00,,---,0.01,VWS V14.01,2013-04-30 15:56:00,
2013-04-30 11:57:00,57.6,52.8,30.07,East,96,0.0,0.0,84,0.00,,---,0.01,VWS V14.01,2013-04-30 15:57:00,
2013-04-30 11:58:00,57.6,52.8,30.07,East,96,0.0,0.0,84,0.00,,---,0.01,VWS V14.01,2013-04-30 15:58:00,
2013-04-30 11:59:00,57.6,52.8,30.07,East,96,0.0,0.0,84,0.00,,---,0.01,VWS V14.01,2013-04-30 15:59:00,
2013-04-30 12:00:00,57.6,53.1,30.08,East,96,1.0,1.0,85,0.00,,---,0.01,VWS V14.01,2013-04-30 16:00:00,
2013-04-30 12:01:00,57.6,53.1,30.08,East,96,1.0,1.0,85,0.00,,---,0.01,VWS V14.01,2013-04-30 16:01:00,
2013-04-30 12:02:00,57.6,53.1,30.08,East,96,1.0,1.0,85,0.00,,---,0.01,VWS V14.01,2013-04-30 16:02:00,
2013-04-30 12:03:00,57.6,53.1,30.08,East,96,1.0,2.0,85,0.00,,---,0.01,VWS V14.01,2013-04-30 16:03:00,
2013-04-30 12:04:00,57.6,53.1,30.08,East,96,2.0,2.0,85,0.00,,---,0.01,VWS V14.01,2013-04-30 16:04:00,
2013-04-30 12:05:00,57.6,53.1,30.08,East,96,2.0,2.0,85,0.00,,---,0.01,VWS V14.01,2013-04-30 16:05:00,
2013-04-30 12:06:00,57.6,53.1,30.08,East,96,0.0,2.0,85,0.00,,---,0.01,VWS V14.01,2013-04-30 16:06:00,
2013-04-30 12:07:00,57.5,53.0,30.08,East,96,0.0,2.0,85,0.00,,---,0.01,VWS V14.01,2013-04-30 16:07:00,
2013-04-30 12:08:00,57.5,53.0,30.08,East,96,0.0,2.0,85,0.00,,---,0.01,VWS V14.01,2013-04-30 16:08:00,
2013-04-30 12:09:00,57.5,53.0,30.08,East,96,1.0,2.0,85,0.00,,---,0.01,VWS V14.01,2013-04-30 16:09:00,
2013-04-30 12:10:00,57.5,53.0,30.08,East,96,0.0,2.0,85,0.00,,---,0.01,VWS V14.01,2013-04-30 16:10:00,
2013-04-30 12:11:00,57.5,53.0,30.08,East,96,0.0,0.0,85,0.00,,---,0.01,VWS V14.01,2013-04-30 16:11:00,
2013-04-30 12:12:00,57.5,53.0,30.08,East,96,0.0,0.0,85,0.00,,---,0.01,VWS V14.01,2013-04-30 16:12:00,
2013-04-30 12:13:00,57.5,53.0,30.08,East,96,0.0,0.0,85,0.00,,---,0.01,VWS V14.01,2013-04-30 16:13:00,
2013-04-30 12:14:00,57.5,53.0,30.08,East,96,0.0,0.0,85,0.00,,---,0.01,VWS V14.01,2013-04-30 16:14:00,
2013-04-30 12:15:00,57.5,53.0,30.08,East,96,0.0,0.0,85,0.00,,---,0.01,VWS V14.01,2013-04-30 16:15:00,
2013-04-30 12:16:00,57.5,53.0,30.08,East,96,0.0,0.0,85,0.00,,---,0.01,VWS V14.01,2013-04-30 16:16:00,
2013-04-30 12:17:00,57.3,52.8,30.08,East,96,0.0,0.0,85,0.00,,---,0.01,VWS V14.01,2013-04-30 16:17:00,
2013-04-30 12:18:00,57.3,52.8,30.08,East,96,2.0,3.0,85,0.00,,---,0.01,VWS V14.01,2013-04-30 16:18:00,
2013-04-30 12:19:00,57.3,52.8,30.08,East,96,3.0,3.0,85,0.00,,---,0.01,VWS V14.01,2013-04-30 16:19:00,
2013-04-30 12:20:00,57.3,52.8,30.08,East,96,0.0,3.0,85,0.00,,---,0.01,VWS V14.01,2013-04-30 16:20:00,
2013-04-30 12:21:00,57.3,52.8,30.08,East,96,0.0,0.0,85,0.00,,---,0.01,VWS V14.01,2013-04-30 16:21:00,
2013-04-30 12:22:00,57.2,52.7,30.08,East,96,0.0,1.0,85,0.00,,---,0.01,VWS V14.01,2013-04-30 16:22:00,
2013-04-30 12:23:00,57.2,52.7,30.08,East,96,0.0,1.0,85,0.00,,---,0.01,VWS V14.01,2013-04-30 16:23:00,
2013-04-30 12:24:00,57.2,52.7,30.08,East,96,0.0,1.0,85,0.00,,---,0.01,VWS V14.01,2013-04-30 16:24:00,
2013-04-30 12:25:00,57.2,52.7,30.08,East,96,0.0,1.0,85,0.00,,---,0.01,VWS V14.01,2013-04-30 16:25:00,
2013-04-30 12:26:00,57.2,52.7,30.08,East,96,0.0,1.0,85,0.00,,---,0.01,VWS V14.01,2013-04-30 16:26:00,
2013-04-30 12:27:00,57.2,52.7,30.08,East,96,0.0,3.0,85,0.00,,---,0.01,VWS V14.01,2013-04-30 16:27:00,
2013-04-30 12:28:00,57.2,52.7,30.08,East,96,2.0,3.0,85,0.00,,---,0.01,VWS V14.01,2013-04-30 16:28:00,
2013-04-30 12:29:00,57.2,52.7,30.08,NNE,19,0.0,3.0,85,0.00,,---,0.01,VWS V14.01,2013-04-30 16:29:00,
2013-04-30 12:30:00,57.2,52.7,30.09,East,89,3.0,3.0,85,0.00,,---,0.01,VWS V14.01,2013-04-30 16:30:00,
2013-04-30 12:31:00,57.2,52.7,30.09,East,90,1.0,3.0,85,0.00,,---,0.01,VWS V14.01,2013-04-30 16:31:00,
2013-04-30 12:32:00,57.0,52.5,30.09,East,90,0.0,3.0,85,0.00,,---,0.01,VWS V14.01,2013-04-30 16:32:00,
2013-04-30 12:33:00,57.0,52.5,30.09,East,90,0.0,3.0,85,0.00,,---,0.01,VWS V14.01,2013-04-30 16:33:00,
2013-04-30 12:34:00,57.0,52.5,30.09,ESE,113,0.0,3.0,85,0.00,,---,0.01,VWS V14.01,2013-04-30 16:34:00,
2013-04-30 12:35:00,57.0,52.5,30.09,ESE,106,0.0,3.0,85,0.00,,---,0.01,VWS V14.01,2013-04-30 16:35:00,
2013-04-30 12:36:00,57.0,52.5,30.09,ESE,106,0.0,3.0,85,0.00,,---,0.01,VWS V14.01,2013-04-30 16:36:00,
2013-04-30 12:37:00,57.0,52.5,30.09,ENE,73,3.0,5.0,85,0.00,,---,0.01,VWS V14.01,2013-04-30 16:37:00,
2013-04-30 12:38:00,57.0,52.5,30.09,ENE,73,0.0,5.0,85,0.00,,---,0.01,VWS V14.01,2013-04-30 16:38:00,
2013-04-30 12:39:00,57.0,52.5,30.09,ENE,77,3.0,5.0,85,0.00,,---,0.01,VWS V14.01,2013-04-30 16:39:00,
2013-04-30 12:40:00,56.9,52.4,30.09,East,94,3.0,5.0,85,0.00,,---,0.01,VWS V14.01,2013-04-30 16:40:00,
2013-04-30 12:41:00,56.9,52.4,30.09,East,94,0.0,3.0,85,0.00,,---,0.01,VWS V14.01,2013-04-30 16:41:00,
2013-04-30 12:42:00,56.9,52.4,30.09,East,94,0.0,3.0,85,0.00,,---,0.01,VWS V14.01,2013-04-30 16:42:00,
2013-04-30 12:43:00,56.9,52.4,30.09,East,94,0.0,3.0,85,0.00,,---,0.01,VWS V14.01,2013-04-30 16:43:00,
2013-04-30 12:44:00,56.9,52.4,30.09,East,94,0.0,3.0,85,0.00,,---,0.01,VWS V14.01,2013-04-30 16:44:00,
2013-04-30 12:45:00,56.9,52.4,30.09,East,94,0.0,3.0,85,0.00,,---,0.01,VWS V14.01,2013-04-30 16:45:00,
2013-04-30 12:46:00,56.7,52.2,30.09,East,94,3.0,3.0,85,0.00,,---,0.01,VWS V14.01,2013-04-30 16:46:00,
2013-04-30 12:47:00,56.7,52.2,30.09,East,94,0.0,3.0,85,0.00,,---,0.01,VWS V14.01,2013-04-30 16:47:00,
2013-04-30 12:48:00,56.7,52.2,30.09,ESE,103,1.0,3.0,85,0.00,,---,0.01,VWS V14.01,2013-04-30 16:48:00,
2013-04-30 12:49:00,56.7,52.2,30.09,ESE,104,0.0,3.0,85,0.00,,---,0.01,VWS V14.01,2013-04-30 16:49:00,
2013-04-30 12:50:00,56.7,52.2,30.09,ESE,121,3.0,3.0,85,0.00,,---,0.01,VWS V14.01,2013-04-30 16:50:00,
2013-04-30 12:51:00,56.7,52.2,30.09,ESE,108,0.0,2.0,85,0.00,,---,0.01,VWS V14.01,2013-04-30 16:51:00,
2013-04-30 12:52:00,56.7,52.2,30.09,ESE,108,0.0,2.0,85,0.00,,---,0.01,VWS V14.01,2013-04-30 16:52:00,
2013-04-30 12:53:00,56.7,52.2,30.09,ESE,108,0.0,2.0,85,0.00,,---,0.01,VWS V14.01,2013-04-30 16:53:00,
2013-04-30 12:54:00,56.6,52.2,30.09,ESE,108,0.0,2.0,85,0.00,,---,0.01,VWS V14.01,2013-04-30 16:54:00,
2013-04-30 12:55:00,56.6,52.2,30.09,East,93,0.0,2.0,85,0.00,,---,0.01,VWS V14.01,2013-04-30 16:55:00,
2013-04-30 12:56:00,56.6,52.2,30.09,East,93,0.0,2.0,85,0.00,,---,0.01,VWS V14.01,2013-04-30 16:56:00,
2013-04-30 12:57:00,56.6,52.2,30.09,East,96,2.0,2.0,85,0.00,,---,0.01,VWS V14.01,2013-04-30 16:57:00,
2013-04-30 12:58:00,56.5,52.0,30.09,East,100,2.0,3.0,85,0.00,,---,0.01,VWS V14.01,2013-04-30 16:58:00,
2013-04-30 12:59:00,56.5,52.0,30.09,East,100,0.0,3.0,85,0.00,,---,0.01,VWS V14.01,2013-04-30 16:59:00,
2013-04-30 13:00:00,56.5,52.0,30.09,East,100,0.0,3.0,85,0.00,,---,0.01,VWS V14.01,2013-04-30 17:00:00,
2013-04-30 13:01:00,56.5,52.0,30.09,ESE,107,1.0,2.0,85,0.00,,---,0.01,VWS V14.01,2013-04-30 17:01:00,
2013-04-30 13:02:00,56.5,52.0,30.09,ESE,107,0.0,2.0,85,0.00,,---,0.01,VWS V14.01,2013-04-30 17:02:00,
2013-04-30 13:03:00,56.5,52.4,30.09,ESE,107,0.0,2.0,86,0.00,,---,0.01,VWS V14.01,2013-04-30 17:03:00,
2013-04-30 13:04:00,56.5,52.4,30.09,East,94,0.0,2.0,86,0.00,,---,0.01,VWS V14.01,2013-04-30 17:04:00,
2013-04-30 13:05:00,56.3,52.2,30.09,East,94,0.0,2.0,86,0.00,,---,0.01,VWS V14.01,2013-04-30 17:05:00,
2013-04-30 13:06:00,56.3,52.2,30.09,East,94,0.0,2.0,86,0.00,,---,0.01,VWS V14.01,2013-04-30 17:06:00,
2013-04-30 13:07:00,56.3,52.2,30.09,East,94,0.0,2.0,86,0.00,,---,0.01,VWS V14.01,2013-04-30 17:07:00,
2013-04-30 13:08:00,56.3,52.2,30.09,East,94,2.0,3.0,86,0.00,,---,0.01,VWS V14.01,2013-04-30 17:08:00,
2013-04-30 13:09:00,56.3,52.2,30.09,East,100,2.0,3.0,86,0.00,,---,0.01,VWS V14.01,2013-04-30 17:09:00,
2013-04-30 13:10:00,56.3,52.2,30.09,East,100,0.0,3.0,86,0.00,,---,0.01,VWS V14.01,2013-04-30 17:10:00,
2013-04-30 13:11:00,56.3,52.2,30.09,East,79,7.0,7.0,86,0.00,,---,0.01,VWS V14.01,2013-04-30 17:11:00,
2013-04-30 13:12:00,56.3,52.2,30.09,East,82,0.0,7.0,86,0.00,,---,0.01,VWS V14.01,2013-04-30 17:12:00,
2013-04-30 13:13:00,56.3,52.2,30.09,East,82,0.0,7.0,86,0.00,,---,0.01,VWS V14.01,2013-04-30 17:13:00,
2013-04-30 13:14:00,56.3,52.2,30.09,East,82,0.0,7.0,86,0.00,,---,0.01,VWS V14.01,2013-04-30 17:14:00,
2013-04-30 13:15:00,56.2,52.1,30.09,East,82,0.0,7.0,86,0.00,,---,0.01,VWS V14.01,2013-04-30 17:15:00,
2013-04-30 13:16:00,56.2,52.1,30.09,East,82,2.0,7.0,86,0.00,,---,0.01,VWS V14.01,2013-04-30 17:16:00,
2013-04-30 13:17:00,56.2,52.1,30.09,East,82,0.0,7.0,86,0.00,,---,0.01,VWS V14.01,2013-04-30 17:17:00,
2013-04-30 13:18:00,56.2,52.1,30.09,East,82,0.0,7.0,86,0.00,,---,0.01,VWS V14.01,2013-04-30 17:18:00,
2013-04-30 13:19:00,56.2,52.1,30.09,East,82,4.0,7.0,86,0.00,,---,0.01,VWS V14.01,2013-04-30 17:19:00,
2013-04-30 13:20:00,56.2,52.1,30.09,East,82,2.0,7.0,86,0.00,,---,0.01,VWS V14.01,2013-04-30 17:20:00,
2013-04-30 13:21:00,56.2,52.1,30.09,East,82,0.0,2.0,86,0.00,,---,0.01,VWS V14.01,2013-04-30 17:21:00,
2013-04-30 13:22:00,56.2,52.1,30.09,East,83,2.0,5.0,86,0.00,,---,0.01,VWS V14.01,2013-04-30 17:22:00,
2013-04-30 13:23:00,56.0,51.9,30.09,East,87,3.0,5.0,86,0.00,,---,0.01,VWS V14.01,2013-04-30 17:23:00,
2013-04-30 13:24:00,56.0,52.2,30.09,ESE,107,2.0,5.0,87,0.00,,---,0.01,VWS V14.01,2013-04-30 17:24:00,
2013-04-30 13:25:00,56.0,52.2,30.09,ESE,108,2.0,5.0,87,0.00,,---,0.01,VWS V14.01,2013-04-30 17:25:00,
2013-04-30 13:26:00,56.0,52.2,30.09,ESE,108,2.0,5.0,87,0.00,,---,0.01,VWS V14.01,2013-04-30 17:26:00,
2013-04-30 13:27:00,56.0,52.2,30.09,ESE,107,0.0,5.0,87,0.00,,---,0.01,VWS V14.01,2013-04-30 17:27:00,
2013-04-30 13:28:00,56.0,52.2,30.09,SE,124,0.0,5.0,87,0.00,,---,0.01,VWS V14.01,2013-04-30 17:28:00,
2013-04-30 13:29:00,56.0,52.2,30.09,ESE,122,0.0,5.0,87,0.00,,---,0.01,VWS V14.01,2013-04-30 17:29:00,
2013-04-30 13:30:00,56.0,52.2,30.09,ESE,122,0.0,5.0,87,0.00,,---,0.01,VWS V14.01,2013-04-30 17:30:00,
2013-04-30 13:31:00,56.0,52.2,30.09,ESE,122,0.0,0.0,87,0.00,,---,0.01,VWS V14.01,2013-04-30 17:31:00,
2013-04-30 13:32:00,55.9,52.1,30.09,ESE,122,0.0,1.0,87,0.00,,---,0.01,VWS V14.01,2013-04-30 17:32:00,
2013-04-30 13:33:00,55.9,52.1,30.09,ESE,122,1.0,1.0,87,0.00,,---,0.01,VWS V14.01,2013-04-30 17:33:00,
2013-04-30 13:34:00,55.9,52.1,30.09,ESE,122,0.0,1.0,87,0.00,,---,0.01,VWS V14.01,2013-04-30 17:34:00,
2013-04-30 13:35:00,55.9,52.1,30.09,ESE,104,2.0,3.0,87,0.00,,---,0.01,VWS V14.01,2013-04-30 17:35:00,
2013-04-30 13:36:00,55.9,52.1,30.09,ESE,104,2.0,3.0,87,0.00,,---,0.01,VWS V14.01,2013-04-30 17:36:00,
2013-04-30 13:37:00,55.9,52.1,30.09,ESE,104,0.0,3.0,87,0.00,,---,0.01,VWS V14.01,2013-04-30 17:37:00,
2013-04-30 13:38:00,55.9,52.1,30.09,ESE,104,0.0,3.0,87,0.00,,---,0.01,VWS V14.01,2013-04-30 17:38:00,
2013-04-30 13:39:00,55.9,52.4,30.09,ESE,104,0.0,3.0,88,0.00,,---,0.01,VWS V14.01,2013-04-30 17:39:00,
2013-04-30 13:40:00,55.9,52.4,30.09,ESE,104,0.0,3.0,88,0.00,,---,0.01,VWS V14.01,2013-04-30 17:40:00,
2013-04-30 13:41:00,55.9,52.4,30.09,ESE,104,0.0,0.0,88,0.00,,---,0.01,VWS V14.01,2013-04-30 17:41:00,
2013-04-30 13:42:00,55.9,52.4,30.09,East,82,0.0,0.0,88,0.00,,---,0.01,VWS V14.01,2013-04-30 17:42:00,
2013-04-30 13:43:00,55.9,52.4,30.09,East,82,0.0,0.0,88,0.00,,---,0.01,VWS V14.01,2013-04-30 17:43:00,
2013-04-30 13:44:00,55.9,52.4,30.09,East,82,0.0,0.0,88,0.00,,---,0.01,VWS V14.01,2013-04-30 17:44:00,
2013-04-30 13:45:00,55.7,52.2,30.08,East,82,0.0,0.0,88,0.00,,---,0.01,VWS V14.01,2013-04-30 17:45:00,
2013-04-30 13:46:00,55.7,52.2,30.08,ESE,114,2.0,3.0,88,0.00,,---,0.01,VWS V14.01,2013-04-30 17:46:00,
2013-04-30 13:47:00,55.7,52.2,30.08,ESE,114,2.0,3.0,88,0.00,,---,0.01,VWS V14.01,2013-04-30 17:47:00,
2013-04-30 13:48:00,55.7,52.2,30.08,ESE,104,5.0,5.0,88,0.00,,---,0.01,VWS V14.01,2013-04-30 17:48:00,
2013-04-30 13:49:00,55.7,52.2,30.08,ESE,104,0.0,5.0,88,0.00,,---,0.01,VWS V14.01,2013-04-30 17:49:00,
2013-04-30 13:50:00,55.7,52.2,30.08,ESE,104,0.0,5.0,88,0.00,,---,0.01,VWS V14.01,2013-04-30 17:50:00,
2013-04-30 13:51:00,55.7,52.2,30.08,East,97,4.0,4.0,88,0.00,,---,0.01,VWS V14.01,2013-04-30 17:51:00,
2013-04-30 13:52:00,55.7,52.2,30.08,East,97,2.0,4.0,88,0.00,,---,0.01,VWS V14.01,2013-04-30 17:52:00,
2013-04-30 13:53:00,55.7,52.2,30.08,ESE,110,3.0,4.0,88,0.00,,---,0.01,VWS V14.01,2013-04-30 17:53:00,
2013-04-30 13:54:00,55.6,52.1,30.08,East,84,0.0,5.0,88,0.00,,---,0.01,VWS V14.01,2013-04-30 17:54:00,
2013-04-30 13:55:00,55.6,52.1,30.08,East,84,0.0,5.0,88,0.00,,---,0.01,VWS V14.01,2013-04-30 17:55:00,
2013-04-30 13:56:00,55.6,52.1,30.08,East,84,0.0,5.0,88,0.00,,---,0.01,VWS V14.01,2013-04-30 17:56:00,
2013-04-30 13:57:00,55.6,52.1,30.08,East,84,0.0,5.0,88,0.00,,---,0.01,VWS V14.01,2013-04-30 17:57:00,
2013-04-30 13:58:00,55.6,52.1,30.08,East,84,0.0,5.0,88,0.00,,---,0.01,VWS V14.01,2013-04-30 17:58:00,
2013-04-30 13:59:00,55.6,52.1,30.08,ESE,110,1.0,5.0,88,0.00,,---,0.01,VWS V14.01,2013-04-30 17:59:00,
2013-04-30 14:00:00,55.6,52.1,30.08,ESE,110,0.0,5.0,88,0.00,,---,0.01,VWS V14.01,2013-04-30 18:00:00,
2013-04-30 14:01:00,55.6,52.1,30.08,ESE,110,0.0,0.0,88,0.00,,---,0.01,VWS V14.01,2013-04-30 18:01:00,
2013-04-30 14:02:00,55.4,51.9,30.08,ESE,108,0.0,3.0,88,0.00,,---,0.01,VWS V14.01,2013-04-30 18:02:00,
2013-04-30 14:03:00,55.4,51.9,30.08,ESE,108,0.0,3.0,88,0.00,,---,0.01,VWS V14.01,2013-04-30 18:03:00,
2013-04-30 14:04:00,55.4,51.9,30.08,ESE,108,0.0,3.0,88,0.00,,---,0.01,VWS V14.01,2013-04-30 18:04:00,
2013-04-30 14:05:00,55.4,51.9,30.08,ESE,108,0.0,3.0,88,0.00,,---,0.01,VWS V14.01,2013-04-30 18:05:00,
2013-04-30 14:06:00,55.4,51.9,30.08,ESE,104,1.0,3.0,88,0.00,,---,0.01,VWS V14.01,2013-04-30 18:06:00,
2013-04-30 14:07:00,55.4,51.9,30.08,ESE,104,2.0,3.0,88,0.00,,---,0.01,VWS V14.01,2013-04-30 18:07:00,
2013-04-30 14:08:00,55.4,51.9,30.08,ESE,104,0.0,3.0,88,0.00,,---,0.01,VWS V14.01,2013-04-30 18:08:00,
2013-04-30 14:09:00,55.4,51.9,30.08,ESE,104,0.0,3.0,88,0.00,,---,0.01,VWS V14.01,2013-04-30 18:09:00,
2013-04-30 14:10:00,55.4,51.9,30.08,ESE,104,0.0,3.0,88,0.00,,---,0.01,VWS V14.01,2013-04-30 18:10:00,
2013-04-30 14:11:00,55.4,51.9,30.08,ESE,104,0.0,0.0,88,0.00,,---,0.01,VWS V14.01,2013-04-30 18:11:00,
2013-04-30 14:12:00,55.3,51.8,30.08,ESE,104,0.0,0.0,88,0.00,,---,0.01,VWS V14.01,2013-04-30 18:12:00,
2013-04-30 14:13:00,55.3,51.8,30.08,ESE,104,0.0,0.0,88,0.00,,---,0.01,VWS V14.01,2013-04-30 18:13:00,
2013-04-30 14:14:00,55.3,51.8,30.08,ESE,104,0.0,0.0,88,0.00,,---,0.01,VWS V14.01,2013-04-30 18:14:00,
2013-04-30 14:15:00,55.3,51.8,30.09,ESE,104,1.0,3.0,88,0.00,,---,0.01,VWS V14.01,2013-04-30 18:15:00,
2013-04-30 14:16:00,55.3,51.8,30.09,ESE,104,2.0,3.0,88,0.00,,---,0.01,VWS V14.01,2013-04-30 18:16:00,
2013-04-30 14:17:00,55.3,51.8,30.09,ESE,104,0.0,3.0,88,0.00,,---,0.01,VWS V14.01,2013-04-30 18:17:00,
2013-04-30 14:18:00,55.3,51.8,30.09,ESE,104,0.0,3.0,88,0.00,,---,0.01,VWS V14.01,2013-04-30 18:18:00,
2013-04-30 14:19:00,55.3,51.8,30.09,ESE,104,0.0,3.0,88,0.00,,---,0.01,VWS V14.01,2013-04-30 18:19:00,
2013-04-30 14:20:00,55.3,51.8,30.09,ESE,104,0.0,3.0,88,0.00,,---,0.01,VWS V14.01,2013-04-30 18:20:00,
2013-04-30 14:21:00,55.3,51.8,30.09,ESE,104,0.0,0.0,88,0.00,,---,0.01,VWS V14.01,2013-04-30 18:21:00,
2013-04-30 14:22:00,55.3,51.8,30.09,ESE,104,0.0,0.0,88,0.00,,---,0.01,VWS V14.01,2013-04-30 18:22:00,
2013-04-30 14:23:00,55.3,51.8,30.09,ESE,104,0.0,0.0,88,0.00,,---,0.01,VWS V14.01,2013-04-30 18:23:00,
2013-04-30 14:24:00,55.3,51.8,30.09,ESE,104,0.0,0.0,88,0.00,,---,0.01,VWS V14.01,2013-04-30 18:24:00,
2013-04-30 14:25:00,55.3,51.8,30.09,ESE,104,0.0,0.0,88,0.00,,---,0.01,VWS V14.01,2013-04-30 18:25:00,
2013-04-30 14:26:00,55.3,51.8,30.09,ESE,104,0.0,0.0,88,0.00,,---,0.01,VWS V14.01,2013-04-30 18:26:00,
2013-04-30 14:27:00,55.3,51.8,30.09,ESE,104,0.0,0.0,88,0.00,,---,0.01,VWS V14.01,2013-04-30 18:27:00,
2013-04-30 14:28:00,55.3,51.8,30.09,ESE,107,0.0,3.0,88,0.00,,---,0.01,VWS V14.01,2013-04-30 18:28:00,
2013-04-30 14:29:00,55.3,51.8,30.09,ESE,107,3.0,3.0,88,0.00,,---,0.01,VWS V14.01,2013-04-30 18:29:00,
2013-04-30 14:30:00,55.3,51.8,30.09,ESE,106,0.0,3.0,88,0.00,,---,0.01,VWS V14.01,2013-04-30 18:30:00,
2013-04-30 14:31:00,55.3,51.8,30.09,ESE,106,0.0,0.0,88,0.00,,---,0.01,VWS V14.01,2013-04-30 18:31:00,
2013-04-30 14:32:00,55.3,51.5,30.09,ESE,104,0.0,3.0,87,0.00,,---,0.01,VWS V14.01,2013-04-30 18:32:00,
2013-04-30 14:33:00,55.3,51.5,30.09,ESE,104,2.0,3.0,87,0.00,,---,0.01,VWS V14.01,2013-04-30 18:33:00,
2013-04-30 14:34:00,55.3,51.5,30.09,ESE,104,0.0,3.0,87,0.00,,---,0.01,VWS V14.01,2013-04-30 18:34:00,
2013-04-30 14:35:00,55.3,51.5,30.09,ESE,104,2.0,4.0,87,0.00,,---,0.01,VWS V14.01,2013-04-30 18:35:00,
2013-04-30 14:36:00,55.3,51.5,30.09,ESE,103,3.0,4.0,87,0.00,,---,0.01,VWS V14.01,2013-04-30 18:36:00,
2013-04-30 14:37:00,55.3,51.5,30.09,ESE,103,0.0,4.0,87,0.00,,---,0.01,VWS V14.01,2013-04-30 18:37:00,
2013-04-30 14:38:00,55.1,51.3,30.09,ESE,103,0.0,4.0,87,0.00,,---,0.01,VWS V14.01,2013-04-30 18:38:00,
2013-04-30 14:39:00,55.1,51.3,30.09,ESE,103,0.0,4.0,87,0.00,,---,0.01,VWS V14.01,2013-04-30 18:39:00,
2013-04-30 14:40:00,55.1,51.3,30.09,ESE,103,0.0,4.0,87,0.00,,---,0.01,VWS V14.01,2013-04-30 18:40:00,
2013-04-30 14:41:00,55.1,51.3,30.09,ESE,103,0.0,0.0,87,0.00,,---,0.01,VWS V14.01,2013-04-30 18:41:00,
2013-04-30 14:42:00,55.1,51.3,30.09,ESE,104,0.0,0.0,87,0.00,,---,0.01,VWS V14.01,2013-04-30 18:42:00,
2013-04-30 14:43:00,55.1,51.3,30.09,ESE,104,0.0,0.0,87,0.00,,---,0.01,VWS V14.01,2013-04-30 18:43:00,
2013-04-30 14:44:00,55.1,51.3,30.09,ESE,104,0.0,0.0,87,0.00,,---,0.01,VWS V14.01,2013-04-30 18:44:00,
2013-04-30 14:45:00,55.1,51.3,30.09,ENE,66,0.0,0.0,87,0.00,,---,0.01,VWS V14.01,2013-04-30 18:45:00,
2013-04-30 14:46:00,55.1,51.3,30.09,ENE,66,0.0,0.0,87,0.00,,---,0.01,VWS V14.01,2013-04-30 18:46:00,
2013-04-30 14:47:00,55.1,51.3,30.09,ENE,66,0.0,0.0,87,0.00,,---,0.01,VWS V14.01,2013-04-30 18:47:00,
2013-04-30 14:48:00,55.1,51.3,30.09,ENE,66,0.0,0.0,87,0.00,,---,0.01,VWS V14.01,2013-04-30 18:48:00,
2013-04-30 14:49:00,55.0,51.2,30.09,ENE,66,0.0,0.0,87,0.00,,---,0.01,VWS V14.01,2013-04-30 18:49:00,
2013-04-30 14:50:00,55.0,51.2,30.09,ENE,66,0.0,3.0,87,0.00,,---,0.01,VWS V14.01,2013-04-30 18:50:00,
2013-04-30 14:51:00,55.0,51.2,30.09,ENE,67,0.0,0.0,87,0.00,,---,0.01,VWS V14.01,2013-04-30 18:51:00,
2013-04-30 14:52:00,55.0,51.2,30.09,ENE,67,0.0,0.0,87,0.00,,---,0.01,VWS V14.01,2013-04-30 18:52:00,
2013-04-30 14:53:00,55.0,51.2,30.09,ENE,67,0.0,0.0,87,0.00,,---,0.01,VWS V14.01,2013-04-30 18:53:00,
2013-04-30 14:54:00,55.0,51.2,30.09,ENE,67,0.0,0.0,87,0.00,,---,0.01,VWS V14.01,2013-04-30 18:54:00,
2013-04-30 14:55:00,55.0,51.2,30.09,ENE,67,0.0,0.0,87,0.00,,---,0.01,VWS V14.01,2013-04-30 18:55:00,
2013-04-30 14:56:00,55.0,51.2,30.09,ENE,72,1.0,1.0,87,0.00,,---,0.01,VWS V14.01,2013-04-30 18:56:00,
2013-04-30 14:57:00,55.0,51.2,30.09,ENE,72,1.0,1.0,87,0.00,,---,0.01,VWS V14.01,2013-04-30 18:57:00,
2013-04-30 14:58:00,55.0,51.2,30.09,ENE,72,1.0,1.0,87,0.00,,---,0.01,VWS V14.01,2013-04-30 18:58:00,
2013-04-30 14:59:00,54.8,51.0,30.09,ENE,72,0.0,1.0,87,0.00,,---,0.01,VWS V14.01,2013-04-30 18:59:00,
2013-04-30 15:00:00,54.8,51.0,30.09,ENE,72,0.0,1.0,87,0.00,,---,0.01,VWS V14.01,2013-04-30 19:00:00,
2013-04-30 15:01:00,54.8,51.0,30.09,ENE,72,0.0,0.0,87,0.00,,---,0.01,VWS V14.01,2013-04-30 19:01:00,
2013-04-30 15:02:00,54.8,51.0,30.09,ENE,72,0.0,0.0,87,0.00,,---,0.01,VWS V14.01,2013-04-30 19:02:00,
2013-04-30 15:03:00,54.8,51.0,30.09,ENE,72,1.0,1.0,87,0.00,,---,0.01,VWS V14.01,2013-04-30 19:03:00,
2013-04-30 15:04:00,54.8,51.0,30.09,ENE,74,3.0,3.0,87,0.00,,---,0.01,VWS V14.01,2013-04-30 19:04:00,
2013-04-30 15:05:00,54.8,51.0,30.09,ENE,74,0.0,3.0,87,0.00,,---,0.01,VWS V14.01,2013-04-30 19:05:00,
2013-04-30 15:06:00,54.8,50.7,30.09,East,87,2.0,5.0,86,0.00,,---,0.01,VWS V14.01,2013-04-30 19:06:00,
2013-04-30 15:07:00,54.7,50.6,30.09,East,89,1.0,5.0,86,0.00,,---,0.01,VWS V14.01,2013-04-30 19:07:00,
2013-04-30 15:08:00,54.7,50.6,30.09,East,97,5.0,5.0,86,0.00,,---,0.01,VWS V14.01,2013-04-30 19:08:00,
2013-04-30 15:09:00,54.7,50.6,30.09,East,96,3.0,6.0,86,0.00,,---,0.01,VWS V14.01,2013-04-30 19:09:00,
2013-04-30 15:10:00,54.7,50.6,30.09,East,94,6.0,6.0,86,0.00,,---,0.01,VWS V14.01,2013-04-30 19:10:00,
2013-04-30 15:11:00,54.7,50.6,30.09,East,97,0.0,6.0,86,0.00,,---,0.01,VWS V14.01,2013-04-30 19:11:00,
2013-04-30 15:12:00,54.7,50.6,30.09,East,97,0.0,6.0,86,0.00,,---,0.01,VWS V14.01,2013-04-30 19:12:00,
2013-04-30 15:13:00,54.7,50.6,30.09,East,97,0.0,6.0,86,0.00,,---,0.01,VWS V14.01,2013-04-30 19:13:00,
2013-04-30 15:14:00,54.7,50.6,30.09,East,97,0.0,6.0,86,0.00,,---,0.01,VWS V14.01,2013-04-30 19:14:00,
2013-04-30 15:15:00,54.7,50.6,30.09,East,97,0.0,6.0,86,0.00,,---,0.01,VWS V14.01,2013-04-30 19:15:00,
2013-04-30 15:16:00,54.7,50.6,30.09,East,98,1.0,6.0,86,0.00,,---,0.01,VWS V14.01,2013-04-30 19:16:00,
2013-04-30 15:17:00,54.7,50.6,30.09,East,98,0.0,6.0,86,0.00,,---,0.01,VWS V14.01,2013-04-30 19:17:00,
2013-04-30 15:18:00,54.7,50.6,30.09,East,98,0.0,6.0,86,0.00,,---,0.01,VWS V14.01,2013-04-30 19:18:00,
2013-04-30 15:19:00,54.7,50.6,30.09,East,98,0.0,6.0,86,0.00,,---,0.01,VWS V14.01,2013-04-30 19:19:00,
2013-04-30 15:20:00,54.7,50.6,30.09,East,98,2.0,6.0,86,0.00,,---,0.01,VWS V14.01,2013-04-30 19:20:00,
2013-04-30 15:21:00,54.7,50.6,30.09,East,98,3.0,3.0,86,0.00,,---,0.01,VWS V14.01,2013-04-30 19:21:00,
2013-04-30 15:22:00,54.5,50.4,30.09,East,98,0.0,3.0,86,0.00,,---,0.01,VWS V14.01,2013-04-30 19:22:00,
2013-04-30 15:23:00,54.5,50.4,30.09,NNE,31,0.0,3.0,86,0.00,,---,0.01,VWS V14.01,2013-04-30 19:23:00,
2013-04-30 15:24:00,54.5,50.4,30.09,NNE,31,1.0,3.0,86,0.00,,---,0.01,VWS V14.01,2013-04-30 19:24:00,
2013-04-30 15:25:00,54.5,50.4,30.09,NE,39,0.0,3.0,86,0.00,,---,0.01,VWS V14.01,2013-04-30 19:25:00,
2013-04-30 15:26:00,54.5,50.4,30.09,NE,39,0.0,3.0,86,0.00,,---,0.01,VWS V14.01,2013-04-30 19:26:00,
2013-04-30 15:27:00,54.5,50.4,30.09,NE,39,0.0,3.0,86,0.00,,---,0.01,VWS V14.01,2013-04-30 19:27:00,
2013-04-30 15:28:00,54.5,50.4,30.09,NE,48,1.0,3.0,86,0.00,,---,0.01,VWS V14.01,2013-04-30 19:28:00,
2013-04-30 15:29:00,54.5,50.4,30.09,NE,48,0.0,3.0,86,0.00,,---,0.01,VWS V14.01,2013-04-30 19:29:00,
2013-04-30 15:30:00,54.5,50.4,30.09,NE,48,0.0,3.0,86,0.00,,---,0.01,VWS V14.01,2013-04-30 19:30:00,
2013-04-30 15:31:00,54.5,50.4,30.09,NE,48,0.0,0.0,86,0.00,,---,0.01,VWS V14.01,2013-04-30 19:31:00,
2013-04-30 15:32:00,54.5,50.4,30.09,NE,48,0.0,0.0,86,0.00,,---,0.01,VWS V14.01,2013-04-30 19:32:00,
2013-04-30 15:33:00,54.5,50.4,30.09,NE,48,0.0,0.0,86,0.00,,---,0.01,VWS V14.01,2013-04-30 19:33:00,
2013-04-30 15:34:00,54.5,50.4,30.09,NE,48,0.0,0.0,86,0.00,,---,0.01,VWS V14.01,2013-04-30 19:34:00,
2013-04-30 15:35:00,54.5,50.4,30.09,NE,48,0.0,0.0,86,0.00,,---,0.01,VWS V14.01,2013-04-30 19:35:00,
2013-04-30 15:36:00,54.5,50.4,30.09,NE,48,0.0,0.0,86,0.00,,---,0.01,VWS V14.01,2013-04-30 19:36:00,
2013-04-30 15:37:00,54.5,50.4,30.09,ESE,118,2.0,6.0,86,0.00,,---,0.01,VWS V14.01,2013-04-30 19:37:00,
2013-04-30 15:38:00,54.5,50.4,30.09,ESE,110,0.0,6.0,86,0.00,,---,0.01,VWS V14.01,2013-04-30 19:38:00,
2013-04-30 15:39:00,54.5,50.4,30.09,ESE,110,0.0,6.0,86,0.00,,---,0.01,VWS V14.01,2013-04-30 19:39:00,
2013-04-30 15:40:00,54.5,50.4,30.09,ESE,110,0.0,6.0,86,0.00,,---,0.01,VWS V14.01,2013-04-30 19:40:00,
2013-04-30 15:41:00,54.5,50.4,30.09,ESE,110,0.0,0.0,86,0.00,,---,0.01,VWS V14.01,2013-04-30 19:41:00,
2013-04-30 15:42:00,54.5,50.4,30.09,ESE,110,0.0,0.0,86,0.00,,---,0.01,VWS V14.01,2013-04-30 19:42:00,
2013-04-30 15:43:00,54.5,50.4,30.09,ESE,110,0.0,0.0,86,0.00,,---,0.01,VWS V14.01,2013-04-30 19:43:00,
2013-04-30 15:44:00,54.4,50.3,30.09,ESE,110,0.0,0.0,86,0.00,,---,0.01,VWS V14.01,2013-04-30 19:44:00,
2013-04-30 15:45:00,54.4,50.3,30.10,ESE,110,0.0,0.0,86,0.00,,---,0.01,VWS V14.01,2013-04-30 19:45:00,
2013-04-30 15:46:00,54.4,50.3,30.10,ESE,110,0.0,0.0,86,0.00,,---,0.01,VWS V14.01,2013-04-30 19:46:00,
2013-04-30 15:47:00,54.4,50.3,30.10,ESE,110,0.0,0.0,86,0.00,,---,0.01,VWS V14.01,2013-04-30 19:47:00,
2013-04-30 15:48:00,54.4,50.3,30.10,ESE,110,0.0,0.0,86,0.00,,---,0.01,VWS V14.01,2013-04-30 19:48:00,
2013-04-30 15:49:00,54.4,50.3,30.10,ESE,110,0.0,0.0,86,0.00,,---,0.01,VWS V14.01,2013-04-30 19:49:00,
2013-04-30 15:50:00,54.4,50.3,30.10,ESE,110,0.0,0.0,86,0.00,,---,0.01,VWS V14.01,2013-04-30 19:50:00,
2013-04-30 15:51:00,54.4,50.3,30.10,ESE,110,0.0,0.0,86,0.00,,---,0.01,VWS V14.01,2013-04-30 19:51:00,
2013-04-30 15:52:00,54.4,50.3,30.10,ESE,110,0.0,0.0,86,0.00,,---,0.01,VWS V14.01,2013-04-30 19:52:00,
2013-04-30 15:53:00,54.4,50.3,30.10,ESE,110,0.0,0.0,86,0.00,,---,0.01,VWS V14.01,2013-04-30 19:53:00,
2013-04-30 15:54:00,54.4,50.3,30.10,ESE,110,0.0,0.0,86,0.00,,---,0.01,VWS V14.01,2013-04-30 19:54:00,
2013-04-30 15:55:00,54.4,50.3,30.10,ESE,110,0.0,0.0,86,0.00,,---,0.01,VWS V14.01,2013-04-30 19:55:00,
2013-04-30 15:56:00,54.4,50.3,30.10,ESE,110,0.0,0.0,86,0.00,,---,0.01,VWS V14.01,2013-04-30 19:56:00,
2013-04-30 15:57:00,54.4,50.3,30.10,ESE,110,0.0,0.0,86,0.00,,---,0.01,VWS V14.01,2013-04-30 19:57:00,
2013-04-30 15:58:00,54.4,50.3,30.10,ESE,110,0.0,0.0,86,0.00,,---,0.01,VWS V14.01,2013-04-30 19:58:00,
2013-04-30 15:59:00,54.2,50.1,30.10,ESE,111,2.0,2.0,86,0.00,,---,0.01,VWS V14.01,2013-04-30 19:59:00,
2013-04-30 16:00:00,54.2,50.1,30.09,ESE,111,0.0,2.0,86,0.00,,---,0.01,VWS V14.01,2013-04-30 20:00:00,
2013-04-30 16:01:00,54.2,50.1,30.09,ESE,111,0.0,0.0,86,0.00,,---,0.01,VWS V14.01,2013-04-30 20:01:00,
2013-04-30 16:02:00,54.2,50.1,30.09,ESE,111,0.0,0.0,86,0.00,,---,0.01,VWS V14.01,2013-04-30 20:02:00,
2013-04-30 16:03:00,54.2,50.1,30.09,ESE,111,0.0,0.0,86,0.00,,---,0.01,VWS V14.01,2013-04-30 20:03:00,
2013-04-30 16:04:00,54.2,50.1,30.09,ESE,113,0.0,0.0,86,0.00,,---,0.01,VWS V14.01,2013-04-30 20:04:00,
2013-04-30 16:05:00,54.2,50.1,30.09,East,101,1.0,2.0,86,0.00,,---,0.01,VWS V14.01,2013-04-30 20:05:00,
2013-04-30 16:06:00,54.2,50.1,30.09,East,101,0.0,3.0,86,0.00,,---,0.01,VWS V14.01,2013-04-30 20:06:00,
2013-04-30 16:07:00,54.1,50.0,30.09,East,101,0.0,3.0,86,0.00,,---,0.01,VWS V14.01,2013-04-30 20:07:00,
2013-04-30 16:08:00,54.1,50.0,30.09,ESE,103,0.0,3.0,86,0.00,,---,0.01,VWS V14.01,2013-04-30 20:08:00,
2013-04-30 16:09:00,54.1,50.0,30.09,ESE,103,1.0,3.0,86,0.00,,---,0.01,VWS V14.01,2013-04-30 20:09:00,
2013-04-30 16:10:00,54.1,50.0,30.09,ESE,103,0.0,3.0,86,0.00,,---,0.01,VWS V14.01,2013-04-30 20:10:00,
2013-04-30 16:11:00,54.1,49.7,30.09,ESE,103,0.0,0.0,85,0.00,,---,0.01,VWS V14.01,2013-04-30 20:11:00,
2013-04-30 16:12:00,54.1,49.7,30.09,ESE,103,0.0,0.0,85,0.00,,---,0.01,VWS V14.01,2013-04-30 20:12:00,
2013-04-30 16:13:00,54.1,50.0,30.09,ESE,103,0.0,2.0,86,0.00,,---,0.01,VWS V14.01,2013-04-30 20:13:00,
2013-04-30 16:14:00,54.1,50.0,30.09,ESE,103,0.0,2.0,86,0.00,,---,0.01,VWS V14.01,2013-04-30 20:14:00,
2013-04-30 16:15:00,54.1,50.0,30.09,ESE,103,0.0,2.0,86,0.00,,---,0.01,VWS V14.01,2013-04-30 20:15:00,
2013-04-30 16:16:00,54.1,50.0,30.09,ESE,103,0.0,2.0,86,0.00,,---,0.01,VWS V14.01,2013-04-30 20:16:00,
2013-04-30 16:17:00,54.1,50.0,30.09,SSE,156,1.0,5.0,86,0.00,,---,0.01,VWS V14.01,2013-04-30 20:17:00,
2013-04-30 16:18:00,54.1,50.0,30.09,SE,125,0.0,5.0,86,0.00,,---,0.01,VWS V14.01,2013-04-30 20:18:00,
2013-04-30 16:19:00,54.1,49.7,30.09,SE,125,0.0,5.0,85,0.00,,---,0.01,VWS V14.01,2013-04-30 20:19:00,
2013-04-30 16:20:00,53.9,49.5,30.09,SE,125,0.0,5.0,85,0.00,,---,0.01,VWS V14.01,2013-04-30 20:20:00,
2013-04-30 16:21:00,53.9,49.8,30.09,SE,125,0.0,0.0,86,0.00,,---,0.01,VWS V14.01,2013-04-30 20:21:00,
2013-04-30 16:22:00,53.9,49.5,30.09,ESE,121,2.0,2.0,85,0.00,,---,0.01,VWS V14.01,2013-04-30 20:22:00,
2013-04-30 16:23:00,53.9,49.5,30.09,ESE,118,0.0,2.0,85,0.00,,---,0.01,VWS V14.01,2013-04-30 20:23:00,
2013-04-30 16:24:00,53.9,49.5,30.09,ESE,118,0.0,2.0,85,0.00,,---,0.01,VWS V14.01,2013-04-30 20:24:00,
2013-04-30 16:25:00,53.9,49.5,30.09,ESE,118,0.0,2.0,85,0.00,,---,0.01,VWS V14.01,2013-04-30 20:25:00,
2013-04-30 16:26:00,53.9,49.5,30.09,NE,55,1.0,3.0,85,0.00,,---,0.01,VWS V14.01,2013-04-30 20:26:00,
2013-04-30 16:27:00,53.9,49.5,30.09,NE,55,0.0,3.0,85,0.00,,---,0.01,VWS V14.01,2013-04-30 20:27:00,
2013-04-30 16:28:00,53.9,49.5,30.09,NE,56,0.0,3.0,85,0.00,,---,0.01,VWS V14.01,2013-04-30 20:28:00,
2013-04-30 16:29:00,53.8,49.4,30.09,NE,56,0.0,3.0,85,0.00,,---,0.01,VWS V14.01,2013-04-30 20:29:00,
2013-04-30 16:30:00,53.8,49.4,30.09,NE,56,0.0,3.0,85,0.00,,---,0.01,VWS V14.01,2013-04-30 20:30:00,
2013-04-30 16:31:00,53.8,49.4,30.09,ENE,72,2.0,2.0,85,0.00,,---,0.01,VWS V14.01,2013-04-30 20:31:00,
2013-04-30 16:32:00,53.8,49.4,30.09,ENE,72,0.0,3.0,85,0.00,,---,0.01,VWS V14.01,2013-04-30 20:32:00,
2013-04-30 16:33:00,53.8,49.4,30.09,East,100,0.0,3.0,85,0.00,,---,0.01,VWS V14.01,2013-04-30 20:33:00,
2013-04-30 16:34:00,53.8,49.4,30.09,East,100,0.0,3.0,85,0.00,,---,0.01,VWS V14.01,2013-04-30 20:34:00,
2013-04-30 16:35:00,53.8,49.4,30.09,ESE,113,5.0,5.0,85,0.00,,---,0.01,VWS V14.01,2013-04-30 20:35:00,
2013-04-30 16:36:00,53.8,49.4,30.09,ENE,72,0.0,5.0,85,0.00,,---,0.01,VWS V14.01,2013-04-30 20:36:00,
2013-04-30 16:37:00,53.6,49.2,30.09,ENE,73,0.0,5.0,85,0.00,,---,0.01,VWS V14.01,2013-04-30 20:37:00,
2013-04-30 16:38:00,53.6,49.2,30.09,East,94,2.0,5.0,85,0.00,,---,0.01,VWS V14.01,2013-04-30 20:38:00,
2013-04-30 16:39:00,53.6,49.2,30.09,East,94,0.0,5.0,85,0.00,,---,0.01,VWS V14.01,2013-04-30 20:39:00,
2013-04-30 16:40:00,53.6,49.2,30.09,East,94,0.0,5.0,85,0.00,,---,0.01,VWS V14.01,2013-04-30 20:40:00,
2013-04-30 16:41:00,53.6,49.2,30.09,East,94,0.0,0.0,85,0.00,,---,0.01,VWS V14.01,2013-04-30 20:41:00,
2013-04-30 16:42:00,53.6,49.2,30.09,East,94,0.0,0.0,85,0.00,,---,0.01,VWS V14.01,2013-04-30 20:42:00,
2013-04-30 16:43:00,53.6,49.2,30.09,East,94,0.0,0.0,85,0.00,,---,0.01,VWS V14.01,2013-04-30 20:43:00,
2013-04-30 16:44:00,53.6,49.2,30.09,East,94,0.0,0.0,85,0.00,,---,0.01,VWS V14.01,2013-04-30 20:44:00,
2013-04-30 16:45:00,53.6,49.2,30.09,East,94,0.0,0.0,85,0.00,,---,0.01,VWS V14.01,2013-04-30 20:45:00,
2013-04-30 16:46:00,53.6,49.2,30.09,East,94,1.0,1.0,85,0.00,,---,0.01,VWS V14.01,2013-04-30 20:46:00,
2013-04-30 16:47:00,53.5,49.1,30.09,East,94,1.0,3.0,85,0.00,,---,0.01,VWS V14.01,2013-04-30 20:47:00,
2013-04-30 16:48:00,53.5,49.1,30.09,East,94,0.0,3.0,85,0.00,,---,0.01,VWS V14.01,2013-04-30 20:48:00,
2013-04-30 16:49:00,53.5,49.1,30.09,East,96,2.0,3.0,85,0.00,,---,0.01,VWS V14.01,2013-04-30 20:49:00,
2013-04-30 16:50:00,53.5,49.4,30.09,East,96,1.0,3.0,86,0.00,,---,0.01,VWS V14.01,2013-04-30 20:50:00,
2013-04-30 16:51:00,53.5,49.4,30.09,East,96,1.0,1.0,86,0.00,,---,0.01,VWS V14.01,2013-04-30 20:51:00,
2013-04-30 16:52:00,53.5,49.4,30.09,East,96,1.0,1.0,86,0.00,,---,0.01,VWS V14.01,2013-04-30 20:52:00,
2013-04-30 16:53:00,53.3,49.2,30.09,East,96,0.0,1.0,86,0.00,,---,0.01,VWS V14.01,2013-04-30 20:53:00,
2013-04-30 16:54:00,53.3,49.2,30.09,East,96,0.0,1.0,86,0.00,,---,0.01,VWS V14.01,2013-04-30 20:54:00,
2013-04-30 16:55:00,53.3,49.2,30.09,East,96,0.0,1.0,86,0.00,,---,0.01,VWS V14.01,2013-04-30 20:55:00,
2013-04-30 16:56:00,53.3,49.2,30.09,East,96,1.0,2.0,86,0.00,,---,0.01,VWS V14.01,2013-04-30 20:56:00,
2013-04-30 16:57:00,53.3,49.2,30.09,East,96,0.0,2.0,86,0.00,,---,0.01,VWS V14.01,2013-04-30 20:57:00,
2013-04-30 16:58:00,53.3,49.2,30.09,East,96,0.0,2.0,86,0.00,,---,0.01,VWS V14.01,2013-04-30 20:58:00,
2013-04-30 16:59:00,53.3,49.2,30.09,East,97,1.0,2.0,86,0.00,,---,0.01,VWS V14.01,2013-04-30 20:59:00,
2013-04-30 17:00:00,53.3,49.2,30.09,East,98,2.0,3.0,86,0.00,,---,0.01,VWS V14.01,2013-04-30 21:00:00,
2013-04-30 17:01:00,53.3,49.2,30.09,East,98,0.0,2.0,86,0.00,,---,0.01,VWS V14.01,2013-04-30 21:01:00,
2013-04-30 17:02:00,53.2,49.1,30.09,East,98,2.0,2.0,86,0.00,,---,0.01,VWS V14.01,2013-04-30 21:02:00,
2013-04-30 17:03:00,53.2,49.1,30.09,East,98,4.0,5.0,86,0.00,,---,0.01,VWS V14.01,2013-04-30 21:03:00,
2013-04-30 17:04:00,53.2,49.1,30.09,East,98,0.0,5.0,86,0.00,,---,0.01,VWS V14.01,2013-04-30 21:04:00,
2013-04-30 17:05:00,53.2,49.1,30.09,East,98,0.0,5.0,86,0.00,,---,0.01,VWS V14.01,2013-04-30 21:05:00,
2013-04-30 17:06:00,53.2,49.1,30.09,East,96,0.0,5.0,86,0.00,,---,0.01,VWS V14.01,2013-04-30 21:06:00,
2013-04-30 17:07:00,53.2,49.1,30.09,East,96,0.0,5.0,86,0.00,,---,0.01,VWS V14.01,2013-04-30 21:07:00,
2013-04-30 17:08:00,53.2,49.1,30.09,East,96,0.0,5.0,86,0.00,,---,0.01,VWS V14.01,2013-04-30 21:08:00,
2013-04-30 17:09:00,53.2,49.1,30.09,East,96,2.0,5.0,86,0.00,,---,0.01,VWS V14.01,2013-04-30 21:09:00,
2013-04-30 17:10:00,53.2,49.1,30.09,East,96,0.0,5.0,86,0.00,,---,0.01,VWS V14.01,2013-04-30 21:10:00,
2013-04-30 17:11:00,53.2,49.1,30.09,East,96,0.0,0.0,86,0.00,,---,0.01,VWS V14.01,2013-04-30 21:11:00,
2013-04-30 17:12:00,53.2,49.1,30.09,East,96,0.0,0.0,86,0.00,,---,0.01,VWS V14.01,2013-04-30 21:12:00,
2013-04-30 17:13:00,53.2,49.1,30.09,East,96,1.0,1.0,86,0.00,,---,0.01,VWS V14.01,2013-04-30 21:13:00,
2013-04-30 17:14:00,53.2,49.1,30.09,East,96,0.0,3.0,86,0.00,,---,0.01,VWS V14.01,2013-04-30 21:14:00,
2013-04-30 17:15:00,53.2,49.1,30.09,East,96,0.0,3.0,86,0.00,,---,0.01,VWS V14.01,2013-04-30 21:15:00,
2013-04-30 17:16:00,53.2,49.1,30.09,East,96,0.0,3.0,86,0.00,,---,0.01,VWS V14.01,2013-04-30 21:16:00,
2013-04-30 17:17:00,53.2,49.1,30.09,East,96,1.0,3.0,86,0.00,,---,0.01,VWS V14.01,2013-04-30 21:17:00,
2013-04-30 17:18:00,53.2,49.1,30.09,East,96,0.0,3.0,86,0.00,,---,0.01,VWS V14.01,2013-04-30 21:18:00,
2013-04-30 17:19:00,53.2,49.1,30.09,East,96,1.0,3.0,86,0.00,,---,0.01,VWS V14.01,2013-04-30 21:19:00,
2013-04-30 17:20:00,53.3,49.2,30.09,ESE,106,3.0,5.0,86,0.00,,---,0.01,VWS V14.01,2013-04-30 21:20:00,
2013-04-30 17:21:00,53.3,49.2,30.09,ESE,104,1.0,3.0,86,0.00,,---,0.01,VWS V14.01,2013-04-30 21:21:00,
2013-04-30 17:22:00,53.2,49.1,30.09,ESE,104,0.0,3.0,86,0.00,,---,0.01,VWS V14.01,2013-04-30 21:22:00,
2013-04-30 17:23:00,53.2,49.1,30.09,ESE,104,1.0,3.0,86,0.00,,---,0.01,VWS V14.01,2013-04-30 21:23:00,
2013-04-30 17:24:00,53.2,49.1,30.09,ESE,104,0.0,3.0,86,0.00,,---,0.01,VWS V14.01,2013-04-30 21:24:00,
2013-04-30 17:25:00,53.2,49.4,30.09,ESE,104,0.0,3.0,87,0.00,,---,0.01,VWS V14.01,2013-04-30 21:25:00,
2013-04-30 17:26:00,53.2,49.4,30.09,ESE,104,2.0,3.0,87,0.00,,---,0.01,VWS V14.01,2013-04-30 21:26:00,
2013-04-30 17:27:00,53.3,49.5,30.09,ESE,104,0.0,3.0,87,0.00,,---,0.01,VWS V14.01,2013-04-30 21:27:00,
2013-04-30 17:28:00,53.3,49.5,30.09,ESE,104,0.0,3.0,87,0.00,,---,0.01,VWS V14.01,2013-04-30 21:28:00,
2013-04-30 17:29:00,53.3,49.5,30.09,ESE,104,0.0,3.0,87,0.00,,---,0.01,VWS V14.01,2013-04-30 21:29:00,
2013-04-30 17:30:00,53.3,49.5,30.09,ESE,104,2.0,3.0,87,0.00,,---,0.01,VWS V14.01,2013-04-30 21:30:00,
2013-04-30 17:31:00,53.3,49.5,30.09,ESE,104,0.0,3.0,87,0.00,,---,0.01,VWS V14.01,2013-04-30 21:31:00,
2013-04-30 17:32:00,53.2,49.4,30.09,ESE,108,0.0,3.0,87,0.00,,---,0.01,VWS V14.01,2013-04-30 21:32:00,
2013-04-30 17:33:00,53.2,49.4,30.09,ESE,108,0.0,3.0,87,0.00,,---,0.01,VWS V14.01,2013-04-30 21:33:00,
2013-04-30 17:34:00,53.2,49.4,30.09,ESE,104,2.0,3.0,87,0.00,,---,0.01,VWS V14.01,2013-04-30 21:34:00,
2013-04-30 17:35:00,53.2,49.4,30.09,ESE,104,2.0,3.0,87,0.00,,---,0.01,VWS V14.01,2013-04-30 21:35:00,
2013-04-30 17:36:00,53.2,49.4,30.09,ESE,104,2.0,3.0,87,0.00,,---,0.01,VWS V14.01,2013-04-30 21:36:00,
2013-04-30 17:37:00,53.2,49.4,30.09,ESE,104,2.0,3.0,87,0.00,,---,0.01,VWS V14.01,2013-04-30 21:37:00,
2013-04-30 17:38:00,53.2,49.4,30.09,ESE,104,0.0,3.0,87,0.00,,---,0.01,VWS V14.01,2013-04-30 21:38:00,
2013-04-30 17:39:00,53.2,49.4,30.09,ESE,104,2.0,3.0,87,0.00,,---,0.01,VWS V14.01,2013-04-30 21:39:00,
2013-04-30 17:40:00,53.2,49.4,30.09,ESE,104,0.0,3.0,87,0.00,,---,0.01,VWS V14.01,2013-04-30 21:40:00,
2013-04-30 17:41:00,53.2,49.4,30.09,ESE,104,0.0,0.0,87,0.00,,---,0.01,VWS V14.01,2013-04-30 21:41:00,
2013-04-30 17:42:00,53.2,49.4,30.09,ESE,104,0.0,0.0,87,0.00,,---,0.01,VWS V14.01,2013-04-30 21:42:00,
2013-04-30 17:43:00,53.2,49.4,30.09,ESE,104,0.0,2.0,87,0.00,,---,0.01,VWS V14.01,2013-04-30 21:43:00,
2013-04-30 17:44:00,53.2,49.4,30.09,ESE,104,2.0,3.0,87,0.00,,---,0.01,VWS V14.01,2013-04-30 21:44:00,
2013-04-30 17:45:00,53.2,49.4,30.09,ESE,104,2.0,3.0,87,0.00,,---,0.01,VWS V14.01,2013-04-30 21:45:00,
2013-04-30 17:46:00,53.2,49.4,30.09,ESE,104,0.0,3.0,87,0.00,,---,0.01,VWS V14.01,2013-04-30 21:46:00,
2013-04-30 17:47:00,53.2,49.4,30.09,ESE,104,0.0,3.0,87,0.00,,---,0.01,VWS V14.01,2013-04-30 21:47:00,
2013-04-30 17:48:00,53.2,49.4,30.09,ESE,104,0.0,3.0,87,0.00,,---,0.01,VWS V14.01,2013-04-30 21:48:00,
2013-04-30 17:49:00,53.2,49.4,30.09,East,100,0.0,3.0,87,0.00,,---,0.01,VWS V14.01,2013-04-30 21:49:00,
2013-04-30 17:50:00,53.2,49.4,30.09,East,100,0.0,3.0,87,0.00,,---,0.01,VWS V14.01,2013-04-30 21:50:00,
2013-04-30 17:51:00,53.2,49.4,30.09,East,100,0.0,0.0,87,0.00,,---,0.01,VWS V14.01,2013-04-30 21:51:00,
2013-04-30 17:52:00,53.2,49.4,30.09,East,100,0.0,0.0,87,0.00,,---,0.01,VWS V14.01,2013-04-30 21:52:00,
2013-04-30 17:53:00,53.2,49.4,30.09,East,100,0.0,0.0,87,0.00,,---,0.01,VWS V14.01,2013-04-30 21:53:00,
2013-04-30 17:54:00,53.2,49.4,30.09,East,100,0.0,1.0,87,0.00,,---,0.01,VWS V14.01,2013-04-30 21:54:00,
2013-04-30 17:55:00,53.2,49.4,30.09,East,100,0.0,1.0,87,0.00,,---,0.01,VWS V14.01,2013-04-30 21:55:00,
2013-04-30 17:56:00,53.2,49.4,30.09,East,100,0.0,1.0,87,0.00,,---,0.01,VWS V14.01,2013-04-30 21:56:00,
2013-04-30 17:57:00,53.2,49.4,30.09,East,100,0.0,3.0,87,0.00,,---,0.01,VWS V14.01,2013-04-30 21:57:00,
2013-04-30 17:58:00,53.2,49.4,30.09,East,100,0.0,3.0,87,0.00,,---,0.01,VWS V14.01,2013-04-30 21:58:00,
2013-04-30 17:59:00,53.2,49.4,30.09,East,100,4.0,5.0,87,0.00,,---,0.01,VWS V14.01,2013-04-30 21:59:00,
2013-04-30 18:00:00,53.2,49.4,30.10,East,98,2.0,5.0,87,0.00,,---,0.01,VWS V14.01,2013-04-30 22:00:00,
2013-04-30 18:01:00,53.2,49.4,30.10,East,98,2.0,2.0,87,0.00,,---,0.01,VWS V14.01,2013-04-30 22:01:00,
2013-04-30 18:02:00,53.2,49.4,30.10,NE,55,0.0,5.0,87,0.00,,---,0.01,VWS V14.01,2013-04-30 22:02:00,
2013-04-30 18:03:00,53.2,49.4,30.10,NE,55,0.0,5.0,87,0.00,,---,0.01,VWS V14.01,2013-04-30 22:03:00,
2013-04-30 18:04:00,53.2,49.4,30.10,ENE,58,2.0,5.0,87,0.00,,---,0.01,VWS V14.01,2013-04-30 22:04:00,
2013-04-30 18:05:00,53.2,49.4,30.10,ENE,67,1.0,5.0,87,0.00,,---,0.01,VWS V14.01,2013-04-30 22:05:00,
2013-04-30 18:06:00,53.2,49.4,30.10,ENE,72,3.0,5.0,87,0.00,,---,0.01,VWS V14.01,2013-04-30 22:06:00,
2013-04-30 18:07:00,53.2,49.4,30.10,East,94,2.0,5.0,87,0.00,,---,0.01,VWS V14.01,2013-04-30 22:07:00,
2013-04-30 18:08:00,53.2,49.4,30.10,East,94,0.0,5.0,87,0.00,,---,0.01,VWS V14.01,2013-04-30 22:08:00,
2013-04-30 18:09:00,53.2,49.4,30.10,East,96,0.0,5.0,87,0.00,,---,0.01,VWS V14.01,2013-04-30 22:09:00,
2013-04-30 18:10:00,53.3,49.5,30.10,SE,130,1.0,5.0,87,0.00,,---,0.01,VWS V14.01,2013-04-30 22:10:00,
2013-04-30 18:11:00,53.3,49.5,30.10,SE,130,0.0,1.0,87,0.00,,---,0.01,VWS V14.01,2013-04-30 22:11:00,
2013-04-30 18:12:00,53.3,49.5,30.10,East,91,0.0,1.0,87,0.00,,---,0.01,VWS V14.01,2013-04-30 22:12:00,
2013-04-30 18:13:00,53.3,49.5,30.10,ESE,111,0.0,1.0,87,0.00,,---,0.01,VWS V14.01,2013-04-30 22:13:00,
2013-04-30 18:14:00,53.3,49.5,30.10,ESE,113,0.0,1.0,87,0.00,,---,0.01,VWS V14.01,2013-04-30 22:14:00,
2013-04-30 18:15:00,53.3,49.5,30.11,ESE,113,0.0,1.0,87,0.00,,---,0.01,VWS V14.01,2013-04-30 22:15:00,
2013-04-30 18:16:00,53.3,49.5,30.11,East,98,5.0,5.0,87,0.00,,---,0.01,VWS V14.01,2013-04-30 22:16:00,
2013-04-30 18:17:00,53.3,49.5,30.11,East,98,0.0,5.0,87,0.00,,---,0.01,VWS V14.01,2013-04-30 22:17:00,
2013-04-30 18:18:00,53.3,49.5,30.11,East,98,0.0,5.0,87,0.00,,---,0.01,VWS V14.01,2013-04-30 22:18:00,
2013-04-30 18:19:00,53.3,49.5,30.11,East,98,3.0,5.0,87,0.00,,---,0.01,VWS V14.01,2013-04-30 22:19:00,
2013-04-30 18:20:00,53.3,49.8,30.11,East,82,6.0,6.0,88,0.00,,---,0.01,VWS V14.01,2013-04-30 22:20:00,
2013-04-30 18:21:00,53.3,49.8,30.11,East,82,3.0,5.0,88,0.00,,---,0.01,VWS V14.01,2013-04-30 22:21:00,
2013-04-30 18:22:00,53.3,49.8,30.11,East,82,0.0,5.0,88,0.00,,---,0.01,VWS V14.01,2013-04-30 22:22:00,
2013-04-30 18:23:00,53.3,49.8,30.11,East,91,3.0,5.0,88,0.00,,---,0.01,VWS V14.01,2013-04-30 22:23:00,
2013-04-30 18:24:00,53.3,49.8,30.11,East,98,1.0,5.0,88,0.00,,---,0.01,VWS V14.01,2013-04-30 22:24:00,
2013-04-30 18:25:00,53.3,49.8,30.11,East,98,3.0,5.0,88,0.00,,---,0.01,VWS V14.01,2013-04-30 22:25:00,
2013-04-30 18:26:00,53.3,49.8,30.11,East,98,2.0,5.0,88,0.00,,---,0.01,VWS V14.01,2013-04-30 22:26:00,
2013-04-30 18:27:00,53.3,49.8,30.11,East,93,1.0,5.0,88,0.00,,---,0.01,VWS V14.01,2013-04-30 22:27:00,
2013-04-30 18:28:00,53.3,49.8,30.11,ESE,110,5.0,5.0,88,0.00,,---,0.01,VWS V14.01,2013-04-30 22:28:00,
2013-04-30 18:29:00,53.3,49.8,30.11,East,96,0.0,5.0,88,0.00,,---,0.01,VWS V14.01,2013-04-30 22:29:00,
2013-04-30 18:30:00,53.3,49.8,30.11,East,96,0.0,5.0,88,0.00,,---,0.01,VWS V14.01,2013-04-30 22:30:00,
2013-04-30 18:31:00,53.3,49.8,30.11,East,96,0.0,0.0,88,0.00,,---,0.01,VWS V14.01,2013-04-30 22:31:00,
2013-04-30 18:32:00,53.3,49.8,30.11,East,96,1.0,2.0,88,0.00,,---,0.01,VWS V14.01,2013-04-30 22:32:00,
2013-04-30 18:33:00,53.3,49.8,30.11,East,96,0.0,2.0,88,0.00,,---,0.01,VWS V14.01,2013-04-30 22:33:00,
2013-04-30 18:34:00,53.3,49.8,30.11,East,96,0.0,2.0,88,0.00,,---,0.01,VWS V14.01,2013-04-30 22:34:00,
2013-04-30 18:35:00,53.3,49.8,30.11,East,96,3.0,3.0,88,0.00,,---,0.01,VWS V14.01,2013-04-30 22:35:00,
2013-04-30 18:36:00,53.2,49.7,30.11,ESE,108,3.0,7.0,88,0.00,,---,0.01,VWS V14.01,2013-04-30 22:36:00,
2013-04-30 18:37:00,53.2,49.7,30.11,East,91,5.0,7.0,88,0.00,,---,0.01,VWS V14.01,2013-04-30 22:37:00,
2013-04-30 18:38:00,53.2,49.7,30.11,East,83,3.0,7.0,88,0.00,,---,0.01,VWS V14.01,2013-04-30 22:38:00,
2013-04-30 18:39:00,53.2,49.7,30.11,East,84,2.0,7.0,88,0.00,,---,0.01,VWS V14.01,2013-04-30 22:39:00,
2013-04-30 18:40:00,53.2,49.7,30.11,East,96,5.0,7.0,88,0.00,,---,0.01,VWS V14.01,2013-04-30 22:40:00,
2013-04-30 18:41:00,53.2,49.7,30.11,East,98,5.0,6.0,88,0.00,,---,0.01,VWS V14.01,2013-04-30 22:41:00,
2013-04-30 18:42:00,53.1,49.7,30.11,East,90,5.0,6.0,88,0.00,,---,0.01,VWS V14.01,2013-04-30 22:42:00,
2013-04-30 18:43:00,53.1,49.7,30.11,East,86,5.0,6.0,88,0.00,,---,0.01,VWS V14.01,2013-04-30 22:43:00,
2013-04-30 18:44:00,53.1,49.7,30.11,East,91,4.0,6.0,88,0.00,,---,0.01,VWS V14.01,2013-04-30 22:44:00,
2013-04-30 18:45:00,53.1,49.7,30.12,East,91,0.0,6.0,88,0.00,,---,0.01,VWS V14.01,2013-04-30 22:45:00,
2013-04-30 18:46:00,53.1,49.7,30.12,East,91,0.0,6.0,88,0.00,,---,0.01,VWS V14.01,2013-04-30 22:46:00,
2013-04-30 18:47:00,53.1,49.7,30.12,East,91,4.0,6.0,88,0.00,,---,0.01,VWS V14.01,2013-04-30 22:47:00,
2013-04-30 18:48:00,53.1,49.7,30.12,East,91,4.0,6.0,88,0.00,,---,0.01,VWS V14.01,2013-04-30 22:48:00,
2013-04-30 18:49:00,52.9,49.5,30.12,ESE,104,2.0,6.0,88,0.00,,---,0.01,VWS V14.01,2013-04-30 22:49:00,
2013-04-30 18:50:00,52.9,49.1,30.12,ESE,104,0.0,6.0,87,0.00,,---,0.01,VWS V14.01,2013-04-30 22:50:00,
2013-04-30 18:51:00,52.9,49.1,30.12,ESE,104,0.0,0.0,87,0.00,,---,0.01,VWS V14.01,2013-04-30 22:51:00,
2013-04-30 18:52:00,52.9,49.1,30.12,ESE,103,0.0,0.0,87,0.00,,---,0.01,VWS V14.01,2013-04-30 22:52:00,
2013-04-30 18:53:00,52.9,49.1,30.12,ESE,103,0.0,0.0,87,0.00,,---,0.01,VWS V14.01,2013-04-30 22:53:00,
2013-04-30 18:54:00,52.9,49.1,30.12,ESE,104,3.0,6.0,87,0.00,,---,0.01,VWS V14.01,2013-04-30 22:54:00,
2013-04-30 18:55:00,52.9,49.1,30.12,SE,125,7.0,7.0,87,0.00,,---,0.01,VWS V14.01,2013-04-30 22:55:00,
2013-04-30 18:56:00,52.8,49.0,30.12,East,98,0.0,7.0,87,0.00,,---,0.01,VWS V14.01,2013-04-30 22:56:00,
2013-04-30 18:57:00,52.8,49.0,30.12,East,100,2.0,7.0,87,0.00,,---,0.01,VWS V14.01,2013-04-30 22:57:00,
2013-04-30 18:58:00,52.8,49.0,30.12,East,100,3.0,7.0,87,0.00,,---,0.01,VWS V14.01,2013-04-30 22:58:00,
2013-04-30 18:59:00,52.8,49.0,30.12,ESE,113,0.0,7.0,87,0.00,,---,0.01,VWS V14.01,2013-04-30 22:59:00,
2013-04-30 19:00:00,52.8,49.0,30.13,SE,138,2.0,7.0,87,0.00,,---,0.01,VWS V14.01,2013-04-30 23:00:00,
2013-04-30 19:01:00,52.8,49.0,30.13,East,91,0.0,4.0,87,0.00,,---,0.01,VWS V14.01,2013-04-30 23:01:00,
2013-04-30 19:02:00,52.8,49.0,30.13,East,91,3.0,4.0,87,0.00,,---,0.01,VWS V14.01,2013-04-30 23:02:00,
2013-04-30 19:03:00,52.8,49.0,30.13,East,91,3.0,4.0,87,0.00,,---,0.01,VWS V14.01,2013-04-30 23:03:00,
2013-04-30 19:04:00,52.8,48.7,30.13,East,97,3.0,4.0,86,0.00,,---,0.01,VWS V14.01,2013-04-30 23:04:00,
2013-04-30 19:05:00,52.8,48.7,30.13,East,97,0.0,4.0,86,0.00,,---,0.01,VWS V14.01,2013-04-30 23:05:00,
2013-04-30 19:06:00,52.8,48.7,30.13,East,97,2.0,4.0,86,0.00,,---,0.01,VWS V14.01,2013-04-30 23:06:00,
2013-04-30 19:07:00,52.8,48.7,30.13,East,97,2.0,4.0,86,0.00,,---,0.01,VWS V14.01,2013-04-30 23:07:00,
2013-04-30 19:08:00,52.8,48.7,30.13,East,97,0.0,4.0,86,0.00,,---,0.01,VWS V14.01,2013-04-30 23:08:00,
2013-04-30 19:09:00,52.8,48.7,30.13,East,97,4.0,4.0,86,0.00,,---,0.01,VWS V14.01,2013-04-30 23:09:00,
2013-04-30 19:10:00,52.8,48.7,30.13,East,97,4.0,4.0,86,0.00,,---,0.01,VWS V14.01,2013-04-30 23:10:00,
2013-04-30 19:11:00,52.8,48.7,30.13,East,97,0.0,4.0,86,0.00,,---,0.01,VWS V14.01,2013-04-30 23:11:00,
2013-04-30 19:12:00,52.8,48.7,30.13,East,97,0.0,4.0,86,0.00,,---,0.01,VWS V14.01,2013-04-30 23:12:00,
2013-04-30 19:13:00,52.8,48.7,30.13,East,100,3.0,4.0,86,0.00,,---,0.01,VWS V14.01,2013-04-30 23:13:00,
2013-04-30 19:14:00,52.8,48.7,30.13,ESE,115,3.0,5.0,86,0.00,,---,0.01,VWS V14.01,2013-04-30 23:14:00,
2013-04-30 19:15:00,52.8,48.7,30.13,ESE,111,1.0,5.0,86,0.00,,---,0.01,VWS V14.01,2013-04-30 23:15:00,
2013-04-30 19:16:00,52.8,48.7,30.13,East,87,0.0,5.0,86,0.00,,---,0.01,VWS V14.01,2013-04-30 23:16:00,
2013-04-30 19:17:00,52.8,48.7,30.13,SE,124,4.0,5.0,86,0.00,,---,0.01,VWS V14.01,2013-04-30 23:17:00,
2013-04-30 19:18:00,52.8,48.7,30.13,East,91,2.0,6.0,86,0.00,,---,0.01,VWS V14.01,2013-04-30 23:18:00,
2013-04-30 19:19:00,52.6,48.5,30.13,East,91,0.0,6.0,86,0.00,,---,0.01,VWS V14.01,2013-04-30 23:19:00,
2013-04-30 19:20:00,52.6,48.5,30.13,East,91,3.0,6.0,86,0.00,,---,0.01,VWS V14.01,2013-04-30 23:20:00,
2013-04-30 19:21:00,52.6,48.5,30.13,East,91,0.0,3.0,86,0.00,,---,0.01,VWS V14.01,2013-04-30 23:21:00,
2013-04-30 19:22:00,52.6,48.5,30.13,East,91,0.0,3.0,86,0.00,,---,0.01,VWS V14.01,2013-04-30 23:22:00,
2013-04-30 19:23:00,52.6,48.5,30.13,East,91,2.0,3.0,86,0.00,,---,0.01,VWS V14.01,2013-04-30 23:23:00,
2013-04-30 19:24:00,52.6,48.5,30.13,East,91,0.0,3.0,86,0.00,,---,0.01,VWS V14.01,2013-04-30 23:24:00,
2013-04-30 19:25:00,52.6,48.5,30.13,East,91,1.0,3.0,86,0.00,,---,0.01,VWS V14.01,2013-04-30 23:25:00,
2013-04-30 19:26:00,52.6,48.5,30.13,East,91,0.0,3.0,86,0.00,,---,0.01,VWS V14.01,2013-04-30 23:26:00,
2013-04-30 19:27:00,52.6,48.5,30.13,East,91,0.0,3.0,86,0.00,,---,0.01,VWS V14.01,2013-04-30 23:27:00,
2013-04-30 19:28:00,52.6,48.5,30.13,East,91,0.0,3.0,86,0.00,,---,0.01,VWS V14.01,2013-04-30 23:28:00,
2013-04-30 19:29:00,52.6,48.5,30.13,East,91,0.0,3.0,86,0.00,,---,0.01,VWS V14.01,2013-04-30 23:29:00,
2013-04-30 19:30:00,52.6,48.5,30.14,East,91,0.0,3.0,86,0.00,,---,0.01,VWS V14.01,2013-04-30 23:30:00,
2013-04-30 19:31:00,52.6,48.5,30.14,East,91,0.0,0.0,86,0.00,,---,0.01,VWS V14.01,2013-04-30 23:31:00,
2013-04-30 19:32:00,52.6,48.5,30.14,East,91,0.0,0.0,86,0.00,,---,0.01,VWS V14.01,2013-04-30 23:32:00,
2013-04-30 19:33:00,52.6,48.5,30.14,East,93,3.0,3.0,86,0.00,,---,0.01,VWS V14.01,2013-04-30 23:33:00,
2013-04-30 19:34:00,52.6,48.5,30.14,East,91,3.0,4.0,86,0.00,,---,0.01,VWS V14.01,2013-04-30 23:34:00,
2013-04-30 19:35:00,52.6,48.5,30.14,East,91,0.0,4.0,86,0.00,,---,0.01,VWS V14.01,2013-04-30 23:35:00,
2013-04-30 19:36:00,52.6,48.5,30.14,East,91,0.0,4.0,86,0.00,,---,0.01,VWS V14.01,2013-04-30 23:36:00,
2013-04-30 19:37:00,52.6,48.5,30.14,East,91,0.0,4.0,86,0.00,,---,0.01,VWS V14.01,2013-04-30 23:37:00,
2013-04-30 19:38:00,52.6,48.5,30.14,East,91,0.0,4.0,86,0.00,,---,0.01,VWS V14.01,2013-04-30 23:38:00,
2013-04-30 19:39:00,52.6,48.5,30.14,East,91,0.0,4.0,86,0.00,,---,0.01,VWS V14.01,2013-04-30 23:39:00,
2013-04-30 19:40:00,52.6,48.5,30.14,East,91,2.0,4.0,86,0.00,,---,0.01,VWS V14.01,2013-04-30 23:40:00,
2013-04-30 19:41:00,52.6,48.5,30.14,East,90,4.0,4.0,86,0.00,,---,0.01,VWS V14.01,2013-04-30 23:41:00,
2013-04-30 19:42:00,52.6,48.5,30.14,ESE,107,3.0,5.0,86,0.00,,---,0.01,VWS V14.01,2013-04-30 23:42:00,
2013-04-30 19:43:00,52.6,48.5,30.14,ESE,107,0.0,5.0,86,0.00,,---,0.01,VWS V14.01,2013-04-30 23:43:00,
2013-04-30 19:44:00,52.6,48.5,30.14,ESE,108,0.0,5.0,86,0.00,,---,0.01,VWS V14.01,2013-04-30 23:44:00,
2013-04-30 19:45:00,52.6,48.5,30.14,ESE,108,0.0,5.0,86,0.00,,---,0.01,VWS V14.01,2013-04-30 23:45:00,
2013-04-30 19:46:00,52.6,48.5,30.14,ESE,108,0.0,5.0,86,0.00,,---,0.01,VWS V14.01,2013-04-30 23:46:00,
2013-04-30 19:47:00,52.6,48.5,30.14,ESE,106,2.0,5.0,86,0.00,,---,0.01,VWS V14.01,2013-04-30 23:47:00,
2013-04-30 19:48:00,52.6,48.5,30.14,East,96,1.0,7.0,86,0.00,,---,0.01,VWS V14.01,2013-04-30 23:48:00,
2013-04-30 19:49:00,52.6,48.5,30.14,ENE,73,3.0,7.0,86,0.00,,---,0.01,VWS V14.01,2013-04-30 23:49:00,
2013-04-30 19:50:00,52.6,48.5,30.14,NE,49,0.0,7.0,86,0.00,,---,0.01,VWS V14.01,2013-04-30 23:50:00,
2013-04-30 19:51:00,52.6,48.5,30.14,NE,50,0.0,0.0,86,0.00,,---,0.01,VWS V14.01,2013-04-30 23:51:00,
2013-04-30 19:52:00,52.6,48.5,30.14,ENE,72,4.0,6.0,86,0.00,,---,0.01,VWS V14.01,2013-04-30 23:52:00,
2013-04-30 19:53:00,52.6,48.5,30.14,East,98,6.0,6.0,86,0.00,,---,0.01,VWS V14.01,2013-04-30 23:53:00,
2013-04-30 19:54:00,52.6,48.5,30.14,East,93,2.0,6.0,86,0.00,,---,0.01,VWS V14.01,2013-04-30 23:54:00,
2013-04-30 19:55:00,52.5,48.4,30.14,East,93,2.0,6.0,86,0.00,,---,0.01,VWS V14.01,2013-04-30 23:55:00,
2013-04-30 19:56:00,52.5,48.8,30.14,East,93,0.0,6.0,87,0.00,,---,0.01,VWS V14.01,2013-04-30 23:56:00,
2013-04-30 19:57:00,52.5,48.8,30.14,East,93,0.0,6.0,87,0.00,,---,0.01,VWS V14.01,2013-04-30 23:57:00,
2013-04-30 19:58:00,52.5,48.8,30.14,East,93,0.0,6.0,87,0.00,,---,0.01,VWS V14.01,2013-04-30 23:58:00,
2013-04-30 19:59:00,52.5,48.8,30.14,East,93,0.0,6.0,87,0.00,,---,0.01,VWS V14.01,2013-04-30 23:59:00,
2013-04-30 20:00:00,52.5,48.8,30.14,East,93,0.0,6.0,87,0.00,,---,0.01,VWS V14.01,2013-05-01 00:00:00,
2013-04-30 20:01:00,52.5,48.8,30.14,East,94,2.0,7.0,87,0.00,,---,0.01,VWS V14.01,2013-05-01 00:01:00,
2013-04-30 20:02:00,52.5,48.8,30.14,East,100,0.0,7.0,87,0.00,,---,0.01,VWS V14.01,2013-05-01 00:02:00,
2013-04-30 20:03:00,52.5,48.8,30.14,East,97,0.0,7.0,87,0.00,,---,0.01,VWS V14.01,2013-05-01 00:03:00,
2013-04-30 20:04:00,52.5,48.8,30.14,East,97,0.0,7.0,87,0.00,,---,0.01,VWS V14.01,2013-05-01 00:04:00,
2013-04-30 20:05:00,52.5,48.8,30.14,East,97,0.0,7.0,87,0.00,,---,0.01,VWS V14.01,2013-05-01 00:05:00,
2013-04-30 20:06:00,52.5,48.8,30.14,East,97,0.0,7.0,87,0.00,,---,0.01,VWS V14.01,2013-05-01 00:06:00,
2013-04-30 20:07:00,52.5,48.8,30.14,East,90,4.0,7.0,87,0.00,,---,0.01,VWS V14.01,2013-05-01 00:07:00,
2013-04-30 20:08:00,52.5,49.0,30.14,East,90,0.0,7.0,88,0.00,,---,0.01,VWS V14.01,2013-05-01 00:08:00,
2013-04-30 20:09:00,52.5,49.0,30.14,East,90,0.0,7.0,88,0.00,,---,0.01,VWS V14.01,2013-05-01 00:09:00,
2013-04-30 20:10:00,52.5,49.0,30.14,East,90,0.0,7.0,88,0.00,,---,0.01,VWS V14.01,2013-05-01 00:10:00,
2013-04-30 20:11:00,52.3,48.9,30.14,East,90,5.0,5.0,88,0.00,,---,0.01,VWS V14.01,2013-05-01 00:11:00,
2013-04-30 20:12:00,52.3,48.9,30.14,ENE,76,3.0,5.0,88,0.00,,---,0.01,VWS V14.01,2013-05-01 00:12:00,
2013-04-30 20:13:00,52.3,48.9,30.14,East,80,3.0,5.0,88,0.00,,---,0.01,VWS V14.01,2013-05-01 00:13:00,
2013-04-30 20:14:00,52.3,48.9,30.14,ESE,122,2.0,5.0,88,0.00,,---,0.01,VWS V14.01,2013-05-01 00:14:00,
2013-04-30 20:15:00,52.3,48.9,30.16,ESE,121,1.0,5.0,88,0.00,,---,0.01,VWS V14.01,2013-05-01 00:15:00,
2013-04-30 20:16:00,52.3,48.9,30.16,ESE,121,0.0,5.0,88,0.00,,---,0.01,VWS V14.01,2013-05-01 00:16:00,
2013-04-30 20:17:00,52.3,48.9,30.16,ESE,113,0.0,5.0,88,0.00,,---,0.01,VWS V14.01,2013-05-01 00:17:00,
2013-04-30 20:18:00,52.3,48.9,30.16,East,96,5.0,5.0,88,0.00,,---,0.01,VWS V14.01,2013-05-01 00:18:00,
2013-04-30 20:19:00,52.3,48.9,30.16,East,100,0.0,5.0,88,0.00,,---,0.01,VWS V14.01,2013-05-01 00:19:00,
2013-04-30 20:20:00,52.3,48.9,30.16,ENE,76,2.0,5.0,88,0.00,,---,0.01,VWS V14.01,2013-05-01 00:20:00,
2013-04-30 20:21:00,52.3,48.9,30.16,ENE,76,0.0,1.0,88,0.00,,---,0.01,VWS V14.01,2013-05-01 00:21:00,
2013-04-30 20:22:00,52.3,48.9,30.16,ENE,76,0.0,1.0,88,0.00,,---,0.01,VWS V14.01,2013-05-01 00:22:00,
2013-04-30 20:23:00,52.3,49.2,30.16,ENE,76,0.0,1.0,89,0.00,,---,0.01,VWS V14.01,2013-05-01 00:23:00,
2013-04-30 20:24:00,52.2,49.1,30.16,ENE,76,0.0,1.0,89,0.00,,---,0.01,VWS V14.01,2013-05-01 00:24:00,
2013-04-30 20:25:00,52.2,49.1,30.16,ENE,76,0.0,1.0,89,0.00,,---,0.01,VWS V14.01,2013-05-01 00:25:00,
2013-04-30 20:26:00,52.2,49.1,30.16,ENE,76,0.0,1.0,89,0.00,,---,0.01,VWS V14.01,2013-05-01 00:26:00,
2013-04-30 20:27:00,52.2,49.1,30.16,ENE,76,0.0,1.0,89,0.00,,---,0.01,VWS V14.01,2013-05-01 00:27:00,
2013-04-30 20:28:00,52.2,49.1,30.16,ESE,104,3.0,3.0,89,0.00,,---,0.01,VWS V14.01,2013-05-01 00:28:00,
2013-04-30 20:29:00,52.2,49.1,30.16,ESE,104,1.0,3.0,89,0.00,,---,0.01,VWS V14.01,2013-05-01 00:29:00,
2013-04-30 20:30:00,52.2,49.1,30.17,East,96,2.0,3.0,89,0.00,,---,0.01,VWS V14.01,2013-05-01 00:30:00,
2013-04-30 20:31:00,52.2,49.1,30.17,East,96,0.0,1.0,89,0.00,,---,0.01,VWS V14.01,2013-05-01 00:31:00,
2013-04-30 20:32:00,52.2,49.1,30.17,East,96,0.0,1.0,89,0.00,,---,0.01,VWS V14.01,2013-05-01 00:32:00,
2013-04-30 20:33:00,52.2,49.1,30.17,East,97,2.0,2.0,89,0.00,,---,0.01,VWS V14.01,2013-05-01 00:33:00,
2013-04-30 20:34:00,52.2,49.1,30.17,East,94,2.0,5.0,89,0.00,,---,0.01,VWS V14.01,2013-05-01 00:34:00,
2013-04-30 20:35:00,52.2,49.1,30.17,ESE,107,2.0,5.0,89,0.00,,---,0.01,VWS V14.01,2013-05-01 00:35:00,
2013-04-30 20:36:00,52.2,49.1,30.17,ESE,107,0.0,5.0,89,0.00,,---,0.01,VWS V14.01,2013-05-01 00:36:00,
2013-04-30 20:37:00,52.2,49.1,30.17,ESE,106,1.0,5.0,89,0.00,,---,0.01,VWS V14.01,2013-05-01 00:37:00,
2013-04-30 20:38:00,52.2,49.1,30.17,East,97,3.0,5.0,89,0.00,,---,0.01,VWS V14.01,2013-05-01 00:38:00,
2013-04-30 20:39:00,52.2,49.1,30.17,East,97,0.0,5.0,89,0.00,,---,0.01,VWS V14.01,2013-05-01 00:39:00,
2013-04-30 20:40:00,52.2,49.1,30.17,ESE,114,2.0,5.0,89,0.00,,---,0.01,VWS V14.01,2013-05-01 00:40:00,
2013-04-30 20:41:00,52.2,49.1,30.17,SE,132,0.0,5.0,89,0.00,,---,0.01,VWS V14.01,2013-05-01 00:41:00,
2013-04-30 20:42:00,52.2,49.1,30.17,ESE,115,0.0,5.0,89,0.00,,---,0.01,VWS V14.01,2013-05-01 00:42:00,
2013-04-30 20:43:00,52.2,49.4,30.17,ESE,103,4.0,5.0,90,0.00,,---,0.01,VWS V14.01,2013-05-01 00:43:00,
2013-04-30 20:44:00,52.0,49.2,30.17,ESE,107,6.0,6.0,90,0.00,,---,0.01,VWS V14.01,2013-05-01 00:44:00,
2013-04-30 20:45:00,52.0,49.2,30.17,ESE,114,0.0,6.0,90,0.00,,---,0.01,VWS V14.01,2013-05-01 00:45:00,
2013-04-30 20:46:00,52.0,49.2,30.17,East,98,5.0,6.0,90,0.00,,---,0.01,VWS V14.01,2013-05-01 00:46:00,
2013-04-30 20:47:00,52.0,49.2,30.17,East,87,2.0,6.0,90,0.00,,---,0.01,VWS V14.01,2013-05-01 00:47:00,
2013-04-30 20:48:00,52.0,49.2,30.17,East,87,1.0,6.0,90,0.00,,---,0.01,VWS V14.01,2013-05-01 00:48:00,
2013-04-30 20:49:00,52.0,49.2,30.17,East,96,3.0,6.0,90,0.00,,---,0.01,VWS V14.01,2013-05-01 00:49:00,
2013-04-30 20:50:00,52.0,49.2,30.17,East,96,0.0,6.0,90,0.00,,---,0.01,VWS V14.01,2013-05-01 00:50:00,
2013-04-30 20:51:00,52.0,49.2,30.17,East,96,0.0,2.0,90,0.00,,---,0.01,VWS V14.01,2013-05-01 00:51:00,
2013-04-30 20:52:00,52.0,49.2,30.17,East,96,3.0,3.0,90,0.00,,---,0.01,VWS V14.01,2013-05-01 00:52:00,
2013-04-30 20:53:00,52.0,49.2,30.17,ESE,118,3.0,6.0,90,0.00,,---,0.01,VWS V14.01,2013-05-01 00:53:00,
2013-04-30 20:54:00,52.0,49.2,30.17,ESE,106,3.0,6.0,90,0.00,,---,0.01,VWS V14.01,2013-05-01 00:54:00,
2013-04-30 20:55:00,52.0,49.2,30.17,East,97,5.0,7.0,90,0.00,,---,0.01,VWS V14.01,2013-05-01 00:55:00,
2013-04-30 20:56:00,52.0,49.2,30.17,East,97,0.0,7.0,90,0.00,,---,0.01,VWS V14.01,2013-05-01 00:56:00,
2013-04-30 20:57:00,52.0,49.2,30.17,East,98,0.0,7.0,90,0.00,,---,0.01,VWS V14.01,2013-05-01 00:57:00,
2013-04-30 20:58:00,52.0,49.2,30.17,East,101,3.0,7.0,90,0.00,,---,0.01,VWS V14.01,2013-05-01 00:58:00,
2013-04-30 20:59:00,52.0,49.2,30.17,East,100,4.0,7.0,90,0.00,,---,0.01,VWS V14.01,2013-05-01 00:59:00,
2013-04-30 21:00:00,52.0,49.2,30.18,East,96,0.0,7.0,90,0.00,,---,0.01,VWS V14.01,2013-05-01 01:00:00,
2013-04-30 21:01:00,52.0,49.2,30.18,East,96,1.0,2.0,90,0.00,,---,0.01,VWS V14.01,2013-05-01 01:01:00,
2013-04-30 21:02:00,52.0,49.2,30.18,East,90,3.0,7.0,90,0.00,,---,0.01,VWS V14.01,2013-05-01 01:02:00,
2013-04-30 21:03:00,52.0,49.2,30.18,East,93,5.0,8.0,90,0.00,,---,0.01,VWS V14.01,2013-05-01 01:03:00,
2013-04-30 21:04:00,52.0,49.2,30.18,East,93,1.0,8.0,90,0.00,,---,0.01,VWS V14.01,2013-05-01 01:04:00,
2013-04-30 21:05:00,52.0,49.2,30.18,East,93,0.0,8.0,90,0.00,,---,0.01,VWS V14.01,2013-05-01 01:05:00,
2013-04-30 21:06:00,52.0,49.2,30.18,East,93,0.0,8.0,90,0.00,,---,0.01,VWS V14.01,2013-05-01 01:06:00,
2013-04-30 21:07:00,52.2,49.4,30.18,East,93,0.0,8.0,90,0.00,,---,0.01,VWS V14.01,2013-05-01 01:07:00,
2013-04-30 21:08:00,52.2,49.4,30.18,ESE,104,1.0,8.0,90,0.00,,---,0.01,VWS V14.01,2013-05-01 01:08:00,
2013-04-30 21:09:00,52.2,49.4,30.18,ESE,104,0.0,8.0,90,0.00,,---,0.01,VWS V14.01,2013-05-01 01:09:00,
2013-04-30 21:10:00,52.2,49.4,30.18,ESE,104,0.0,8.0,90,0.00,,---,0.01,VWS V14.01,2013-05-01 01:10:00,
2013-04-30 21:11:00,52.2,49.4,30.18,ESE,104,2.0,3.0,90,0.00,,---,0.01,VWS V14.01,2013-05-01 01:11:00,
2013-04-30 21:12:00,52.2,49.4,30.18,East,83,2.0,6.0,90,0.00,,---,0.01,VWS V14.01,2013-05-01 01:12:00,
2013-04-30 21:13:00,52.2,49.4,30.18,East,83,0.0,6.0,90,0.00,,---,0.01,VWS V14.01,2013-05-01 01:13:00,
2013-04-30 21:14:00,52.2,49.4,30.18,East,90,1.0,6.0,90,0.00,,---,0.01,VWS V14.01,2013-05-01 01:14:00,
2013-04-30 21:15:00,52.2,49.4,30.18,ENE,72,2.0,7.0,90,0.00,,---,0.01,VWS V14.01,2013-05-01 01:15:00,
2013-04-30 21:16:00,52.2,49.4,30.18,ESE,106,3.0,7.0,90,0.00,,---,0.01,VWS V14.01,2013-05-01 01:16:00,
2013-04-30 21:17:00,52.2,49.4,30.18,East,89,3.0,7.0,90,0.00,,---,0.01,VWS V14.01,2013-05-01 01:17:00,
2013-04-30 21:18:00,52.2,49.4,30.18,East,89,2.0,7.0,90,0.00,,---,0.01,VWS V14.01,2013-05-01 01:18:00,
2013-04-30 21:19:00,52.2,49.4,30.18,East,89,0.0,7.0,90,0.00,,---,0.01,VWS V14.01,2013-05-01 01:19:00,
2013-04-30 21:20:00,52.2,49.4,30.18,ESE,104,0.0,7.0,90,0.00,,---,0.01,VWS V14.01,2013-05-01 01:20:00,
2013-04-30 21:21:00,52.2,49.4,30.18,ESE,104,0.0,1.0,90,0.00,,---,0.01,VWS V14.01,2013-05-01 01:21:00,
2013-04-30 21:22:00,52.2,49.4,30.18,ESE,104,0.0,1.0,90,0.00,,---,0.01,VWS V14.01,2013-05-01 01:22:00,
2013-04-30 21:23:00,52.2,49.4,30.18,East,89,3.0,3.0,90,0.00,,---,0.01,VWS V14.01,2013-05-01 01:23:00,
2013-04-30 21:24:00,52.2,49.4,30.18,East,100,2.0,5.0,90,0.00,,---,0.01,VWS V14.01,2013-05-01 01:24:00,
2013-04-30 21:25:00,52.2,49.4,30.18,East,83,3.0,7.0,90,0.00,,---,0.01,VWS V14.01,2013-05-01 01:25:00,
2013-04-30 21:26:00,52.2,49.4,30.18,ESE,113,2.0,7.0,90,0.00,,---,0.01,VWS V14.01,2013-05-01 01:26:00,
2013-04-30 21:27:00,52.2,49.4,30.18,ESE,113,2.0,7.0,90,0.00,,---,0.01,VWS V14.01,2013-05-01 01:27:00,
2013-04-30 21:28:00,52.2,49.4,30.18,SE,124,6.0,7.0,90,0.00,,---,0.01,VWS V14.01,2013-05-01 01:28:00,
2013-04-30 21:29:00,52.2,49.4,30.18,ESE,103,3.0,7.0,90,0.00,,---,0.01,VWS V14.01,2013-05-01 01:29:00,
2013-04-30 21:30:00,52.2,49.4,30.18,East,101,4.0,7.0,90,0.00,,---,0.01,VWS V14.01,2013-05-01 01:30:00,
2013-04-30 21:31:00,52.2,49.4,30.18,East,101,0.0,1.0,90,0.00,,---,0.01,VWS V14.01,2013-05-01 01:31:00,
2013-04-30 21:32:00,52.2,49.4,30.18,East,101,2.0,3.0,90,0.00,,---,0.01,VWS V14.01,2013-05-01 01:32:00,
2013-04-30 21:33:00,52.2,49.4,30.18,ESE,103,0.0,3.0,90,0.00,,---,0.01,VWS V14.01,2013-05-01 01:33:00,
2013-04-30 21:34:00,52.2,49.4,30.18,NE,55,2.0,6.0,90,0.00,,---,0.01,VWS V14.01,2013-05-01 01:34:00,
2013-04-30 21:35:00,52.2,49.4,30.18,ENE,60,2.0,6.0,90,0.00,,---,0.01,VWS V14.01,2013-05-01 01:35:00,
2013-04-30 21:36:00,52.3,49.5,30.18,East,96,0.0,8.0,90,0.00,,---,0.01,VWS V14.01,2013-05-01 01:36:00,
2013-04-30 21:37:00,52.3,49.5,30.18,East,97,0.0,8.0,90,0.00,,---,0.01,VWS V14.01,2013-05-01 01:37:00,
2013-04-30 21:38:00,52.3,49.2,30.18,ESE,114,0.0,8.0,89,0.00,,---,0.01,VWS V14.01,2013-05-01 01:38:00,
2013-04-30 21:39:00,52.3,49.2,30.18,ENE,73,1.0,8.0,89,0.00,,---,0.01,VWS V14.01,2013-05-01 01:39:00,
2013-04-30 21:40:00,52.3,49.2,30.18,East,90,2.0,8.0,89,0.00,,---,0.01,VWS V14.01,2013-05-01 01:40:00,
2013-04-30 21:41:00,52.3,49.2,30.18,ESE,104,0.0,4.0,89,0.00,,---,0.01,VWS V14.01,2013-05-01 01:41:00,
2013-04-30 21:42:00,52.3,49.2,30.18,ESE,115,0.0,5.0,89,0.00,,---,0.01,VWS V14.01,2013-05-01 01:42:00,
2013-04-30 21:43:00,52.2,49.1,30.18,East,101,3.0,6.0,89,0.00,,---,0.01,VWS V14.01,2013-05-01 01:43:00,
2013-04-30 21:44:00,52.2,49.1,30.18,East,97,4.0,8.0,89,0.00,,---,0.01,VWS V14.01,2013-05-01 01:44:00,
2013-04-30 21:45:00,52.2,49.1,30.19,ESE,103,0.0,8.0,89,0.00,,---,0.01,VWS V14.01,2013-05-01 01:45:00,
2013-04-30 21:46:00,52.2,49.1,30.19,East,89,3.0,8.0,89,0.00,,---,0.01,VWS V14.01,2013-05-01 01:46:00,
2013-04-30 21:47:00,52.3,49.2,30.19,East,91,0.0,8.0,89,0.00,,---,0.01,VWS V14.01,2013-05-01 01:47:00,
2013-04-30 21:48:00,52.3,49.2,30.19,East,91,0.0,8.0,89,0.00,,---,0.01,VWS V14.01,2013-05-01 01:48:00,
2013-04-30 21:49:00,52.3,49.2,30.19,East,91,6.0,8.0,89,0.00,,---,0.01,VWS V14.01,2013-05-01 01:49:00,
2013-04-30 21:50:00,52.3,49.2,30.19,ENE,73,5.0,8.0,89,0.00,,---,0.01,VWS V14.01,2013-05-01 01:50:00,
2013-04-30 21:51:00,52.3,49.2,30.19,East,96,2.0,6.0,89,0.00,,---,0.01,VWS V14.01,2013-05-01 01:51:00,
2013-04-30 21:52:00,52.3,49.2,30.19,East,98,4.0,6.0,89,0.00,,---,0.01,VWS V14.01,2013-05-01 01:52:00,
2013-04-30 21:53:00,52.3,49.2,30.19,ESE,104,1.0,6.0,89,0.00,,---,0.01,VWS V14.01,2013-05-01 01:53:00,
2013-04-30 21:54:00,52.3,49.2,30.19,SE,128,7.0,7.0,89,0.00,,---,0.01,VWS V14.01,2013-05-01 01:54:00,
2013-04-30 21:55:00,52.3,49.2,30.19,ENE,73,8.0,8.0,89,0.00,,---,0.01,VWS V14.01,2013-05-01 01:55:00,
2013-04-30 21:56:00,52.3,49.2,30.19,SE,131,0.0,8.0,89,0.00,,---,0.01,VWS V14.01,2013-05-01 01:56:00,
2013-04-30 21:57:00,52.3,49.2,30.19,SE,127,0.0,8.0,89,0.00,,---,0.01,VWS V14.01,2013-05-01 01:57:00,
2013-04-30 21:58:00,52.3,49.2,30.19,ESE,106,0.0,8.0,89,0.00,,---,0.01,VWS V14.01,2013-05-01 01:58:00,
2013-04-30 21:59:00,52.3,49.2,30.19,ESE,107,2.0,8.0,89,0.00,,---,0.01,VWS V14.01,2013-05-01 01:59:00,
2013-04-30 22:00:00,52.3,49.2,30.19,ENE,76,4.0,8.0,89,0.00,,---,0.01,VWS V14.01,2013-05-01 02:00:00,
2013-04-30 22:01:00,52.3,49.2,30.19,East,96,4.0,5.0,89,0.00,,---,0.01,VWS V14.01,2013-05-01 02:01:00,
2013-04-30 22:02:00,52.3,49.2,30.19,ESE,120,3.0,5.0,89,0.00,,---,0.01,VWS V14.01,2013-05-01 02:02:00,
2013-04-30 22:03:00,52.3,49.2,30.19,ESE,120,2.0,5.0,89,0.00,,---,0.01,VWS V14.01,2013-05-01 02:03:00,
2013-04-30 22:04:00,52.3,49.2,30.19,East,86,2.0,5.0,89,0.00,,---,0.01,VWS V14.01,2013-05-01 02:04:00,
2013-04-30 22:05:00,52.5,49.4,30.19,ENE,77,9.0,9.0,89,0.00,,---,0.01,VWS V14.01,2013-05-01 02:05:00,
2013-04-30 22:06:00,52.3,49.2,30.19,East,98,1.0,10.0,89,0.00,,---,0.01,VWS V14.01,2013-05-01 02:06:00,
2013-04-30 22:07:00,52.3,49.2,30.19,East,98,0.0,10.0,89,0.00,,---,0.01,VWS V14.01,2013-05-01 02:07:00,
2013-04-30 22:08:00,52.3,49.2,30.19,ESE,107,0.0,10.0,89,0.00,,---,0.01,VWS V14.01,2013-05-01 02:08:00,
2013-04-30 22:09:00,52.3,49.2,30.19,ESE,107,0.0,10.0,89,0.00,,---,0.01,VWS V14.01,2013-05-01 02:09:00,
2013-04-30 22:10:00,52.3,49.2,30.19,SE,137,3.0,10.0,89,0.00,,---,0.01,VWS V14.01,2013-05-01 02:10:00,
2013-04-30 22:11:00,52.5,49.0,30.19,East,101,0.0,4.0,88,0.00,,---,0.01,VWS V14.01,2013-05-01 02:11:00,
2013-04-30 22:12:00,52.5,49.0,30.19,East,101,0.0,4.0,88,0.00,,---,0.01,VWS V14.01,2013-05-01 02:12:00,
2013-04-30 22:13:00,52.6,49.2,30.19,ENE,69,0.0,4.0,88,0.00,,---,0.01,VWS V14.01,2013-05-01 02:13:00,
2013-04-30 22:14:00,52.6,49.2,30.19,ENE,69,0.0,4.0,88,0.00,,---,0.01,VWS V14.01,2013-05-01 02:14:00,
2013-04-30 22:15:00,52.6,49.2,30.20,ESE,106,3.0,5.0,88,0.00,,---,0.01,VWS V14.01,2013-05-01 02:15:00,
2013-04-30 22:16:00,52.6,49.2,30.20,East,86,5.0,5.0,88,0.00,,---,0.01,VWS V14.01,2013-05-01 02:16:00,
2013-04-30 22:17:00,52.8,49.3,30.20,East,90,3.0,5.0,88,0.00,,---,0.01,VWS V14.01,2013-05-01 02:17:00,
2013-04-30 22:18:00,52.8,49.3,30.20,East,101,5.0,5.0,88,0.00,,---,0.01,VWS V14.01,2013-05-01 02:18:00,
2013-04-30 22:19:00,52.8,49.0,30.20,SSE,151,3.0,6.0,87,0.00,,---,0.01,VWS V14.01,2013-05-01 02:19:00,
2013-04-30 22:20:00,52.8,49.0,30.20,East,93,1.0,6.0,87,0.00,,---,0.01,VWS V14.01,2013-05-01 02:20:00,
2013-04-30 22:21:00,52.8,49.0,30.20,East,98,2.0,3.0,87,0.00,,---,0.01,VWS V14.01,2013-05-01 02:21:00,
2013-04-30 22:22:00,52.8,49.0,30.20,ESE,110,5.0,6.0,87,0.00,,---,0.01,VWS V14.01,2013-05-01 02:22:00,
2013-04-30 22:23:00,52.8,49.0,30.20,ESE,120,3.0,6.0,87,0.00,,---,0.01,VWS V14.01,2013-05-01 02:23:00,
2013-04-30 22:24:00,52.9,49.1,30.20,SE,131,6.0,6.0,87,0.00,,---,0.01,VWS V14.01,2013-05-01 02:24:00,
2013-04-30 22:25:00,52.9,49.1,30.20,SE,131,2.0,6.0,87,0.00,,---,0.01,VWS V14.01,2013-05-01 02:25:00,
2013-04-30 22:26:00,52.9,48.8,30.20,East,93,4.0,6.0,86,0.00,,---,0.01,VWS V14.01,2013-05-01 02:26:00,
2013-04-30 22:27:00,52.9,48.8,30.20,ESE,122,0.0,6.0,86,0.00,,---,0.01,VWS V14.01,2013-05-01 02:27:00,
2013-04-30 22:28:00,52.9,48.8,30.20,East,89,3.0,6.0,86,0.00,,---,0.01,VWS V14.01,2013-05-01 02:28:00,
2013-04-30 22:29:00,53.1,49.0,30.20,SE,135,2.0,6.0,86,0.00,,---,0.01,VWS V14.01,2013-05-01 02:29:00,
2013-04-30 22:30:00,53.1,49.0,30.20,East,91,3.0,6.0,86,0.00,,---,0.01,VWS V14.01,2013-05-01 02:30:00,
2013-04-30 22:31:00,53.1,49.0,30.20,ESE,106,3.0,6.0,86,0.00,,---,0.01,VWS V14.01,2013-05-01 02:31:00,
2013-04-30 22:32:00,53.1,49.0,30.20,ESE,111,3.0,6.0,86,0.00,,---,0.01,VWS V14.01,2013-05-01 02:32:00,
2013-04-30 22:33:00,53.1,49.0,30.20,ESE,111,0.0,6.0,86,0.00,,---,0.01,VWS V14.01,2013-05-01 02:33:00,
2013-04-30 22:34:00,53.1,49.0,30.20,ESE,114,2.0,6.0,86,0.00,,---,0.01,VWS V14.01,2013-05-01 02:34:00,
2013-04-30 22:35:00,53.2,49.1,30.20,East,100,2.0,6.0,86,0.00,,---,0.01,VWS V14.01,2013-05-01 02:35:00,
2013-04-30 22:36:00,53.2,49.1,30.20,East,101,0.0,6.0,86,0.00,,---,0.01,VWS V14.01,2013-05-01 02:36:00,
2013-04-30 22:37:00,53.3,49.2,30.20,East,100,6.0,6.0,86,0.00,,---,0.01,VWS V14.01,2013-05-01 02:37:00,
2013-04-30 22:38:00,53.3,49.2,30.20,East,98,2.0,6.0,86,0.00,,---,0.01,VWS V14.01,2013-05-01 02:38:00,
2013-04-30 22:39:00,53.3,49.2,30.20,East,98,0.0,6.0,86,0.00,,---,0.01,VWS V14.01,2013-05-01 02:39:00,
2013-04-30 22:40:00,53.3,49.2,30.20,ESE,111,5.0,8.0,86,0.00,,---,0.01,VWS V14.01,2013-05-01 02:40:00,
2013-04-30 22:41:00,53.3,48.9,30.20,East,97,0.0,6.0,85,0.00,,---,0.01,VWS V14.01,2013-05-01 02:41:00,
2013-04-30 22:42:00,53.3,48.9,30.20,ESE,113,3.0,6.0,85,0.00,,---,0.01,VWS V14.01,2013-05-01 02:42:00,
2013-04-30 22:43:00,53.3,48.9,30.20,ESE,120,5.0,6.0,85,0.00,,---,0.01,VWS V14.01,2013-05-01 02:43:00,
2013-04-30 22:44:00,53.3,48.9,30.20,ENE,74,0.0,8.0,85,0.00,,---,0.01,VWS V14.01,2013-05-01 02:44:00,
2013-04-30 22:45:00,53.5,48.8,30.21,East,93,0.0,8.0,84,0.00,,---,0.01,VWS V14.01,2013-05-01 02:45:00,
2013-04-30 22:46:00,53.5,48.8,30.21,SSE,152,0.0,8.0,84,0.00,,---,0.01,VWS V14.01,2013-05-01 02:46:00,
2013-04-30 22:47:00,53.6,48.9,30.21,SE,128,0.0,8.0,84,0.00,,---,0.01,VWS V14.01,2013-05-01 02:47:00,
2013-04-30 22:48:00,53.6,49.2,30.21,East,96,6.0,8.0,85,0.00,,---,0.01,VWS V14.01,2013-05-01 02:48:00,
2013-04-30 22:49:00,53.6,49.2,30.21,East,90,6.0,8.0,85,0.00,,---,0.01,VWS V14.01,2013-05-01 02:49:00,
2013-04-30 22:50:00,53.8,49.1,30.21,East,89,0.0,8.0,84,0.00,,---,0.01,VWS V14.01,2013-05-01 02:50:00,
2013-04-30 22:51:00,53.8,49.1,30.21,ESE,113,1.0,1.0,84,0.00,,---,0.01,VWS V14.01,2013-05-01 02:51:00,
2013-04-30 22:52:00,53.8,49.1,30.21,ESE,111,0.0,1.0,84,0.00,,---,0.01,VWS V14.01,2013-05-01 02:52:00,
2013-04-30 22:53:00,53.9,49.2,30.21,East,97,0.0,3.0,84,0.00,,---,0.01,VWS V14.01,2013-05-01 02:53:00,
2013-04-30 22:54:00,53.9,48.9,30.21,East,83,3.0,8.0,83,0.00,,---,0.01,VWS V14.01,2013-05-01 02:54:00,
2013-04-30 22:55:00,53.9,48.9,30.21,East,84,3.0,8.0,83,0.00,,---,0.01,VWS V14.01,2013-05-01 02:55:00,
2013-04-30 22:56:00,53.9,48.5,30.21,SE,124,0.0,8.0,82,0.00,,---,0.01,VWS V14.01,2013-05-01 02:56:00,
2013-04-30 22:57:00,53.9,48.9,30.21,East,94,0.0,8.0,83,0.00,,---,0.01,VWS V14.01,2013-05-01 02:57:00,
2013-04-30 22:58:00,54.1,49.1,30.21,East,96,2.0,8.0,83,0.00,,---,0.01,VWS V14.01,2013-05-01 02:58:00,
2013-04-30 22:59:00,54.1,48.7,30.21,ENE,72,1.0,8.0,82,0.00,,---,0.01,VWS V14.01,2013-05-01 02:59:00,
2013-04-30 23:00:00,54.1,48.7,30.21,ENE,74,6.0,8.0,82,0.00,,---,0.01,VWS V14.01,2013-05-01 03:00:00,
2013-04-30 23:01:00,54.1,48.7,30.21,East,97,0.0,6.0,82,0.00,,---,0.01,VWS V14.01,2013-05-01 03:01:00,
2013-04-30 23:02:00,54.1,48.7,30.21,East,96,2.0,6.0,82,0.00,,---,0.01,VWS V14.01,2013-05-01 03:02:00,
2013-04-30 23:03:00,54.1,48.7,30.21,NE,35,0.0,6.0,82,0.00,,---,0.01,VWS V14.01,2013-05-01 03:03:00,
2013-04-30 23:04:00,54.1,48.7,30.21,ENE,62,0.0,6.0,82,0.00,,---,0.01,VWS V14.01,2013-05-01 03:04:00,
2013-04-30 23:05:00,54.1,48.7,30.21,East,97,6.0,6.0,82,0.00,,---,0.01,VWS V14.01,2013-05-01 03:05:00,
2013-04-30 23:06:00,54.2,48.8,30.21,ENE,77,1.0,6.0,82,0.00,,---,0.01,VWS V14.01,2013-05-01 03:06:00,
2013-04-30 23:07:00,54.2,48.8,30.21,East,93,7.0,7.0,82,0.00,,---,0.01,VWS V14.01,2013-05-01 03:07:00,
2013-04-30 23:08:00,54.2,48.8,30.21,East,91,3.0,7.0,82,0.00,,---,0.01,VWS V14.01,2013-05-01 03:08:00,
2013-04-30 23:09:00,54.2,48.8,30.21,East,94,5.0,7.0,82,0.00,,---,0.01,VWS V14.01,2013-05-01 03:09:00,
2013-04-30 23:10:00,54.2,48.8,30.21,East,86,0.0,7.0,82,0.00,,---,0.01,VWS V14.01,2013-05-01 03:10:00,
2013-04-30 23:11:00,54.2,48.8,30.21,ESE,104,5.0,5.0,82,0.00,,---,0.01,VWS V14.01,2013-05-01 03:11:00,
2013-04-30 23:12:00,54.2,48.8,30.21,ESE,104,3.0,5.0,82,0.00,,---,0.01,VWS V14.01,2013-05-01 03:12:00,
2013-04-30 23:13:00,54.4,49.0,30.21,East,87,2.0,5.0,82,0.00,,---,0.01,VWS V14.01,2013-05-01 03:13:00,
2013-04-30 23:14:00,54.4,48.7,30.21,ESE,106,2.0,6.0,81,0.00,,---,0.01,VWS V14.01,2013-05-01 03:14:00,
2013-04-30 23:15:00,54.4,48.7,30.21,ESE,106,2.0,6.0,81,0.00,,---,0.01,VWS V14.01,2013-05-01 03:15:00,
2013-04-30 23:16:00,54.4,49.0,30.21,East,101,3.0,6.0,82,0.00,,---,0.01,VWS V14.01,2013-05-01 03:16:00,
2013-04-30 23:17:00,54.4,49.0,30.21,East,98,4.0,6.0,82,0.00,,---,0.01,VWS V14.01,2013-05-01 03:17:00,
2013-04-30 23:18:00,54.4,49.0,30.21,ESE,107,3.0,6.0,82,0.00,,---,0.01,VWS V14.01,2013-05-01 03:18:00,
2013-04-30 23:19:00,54.5,48.8,30.21,East,90,4.0,7.0,81,0.00,,---,0.01,VWS V14.01,2013-05-01 03:19:00,
2013-04-30 23:20:00,54.5,48.8,30.21,East,79,0.0,7.0,81,0.00,,---,0.01,VWS V14.01,2013-05-01 03:20:00,
2013-04-30 23:21:00,54.5,48.8,30.21,East,101,1.0,3.0,81,0.00,,---,0.01,VWS V14.01,2013-05-01 03:21:00,
2013-04-30 23:22:00,54.5,48.8,30.21,East,97,4.0,7.0,81,0.00,,---,0.01,VWS V14.01,2013-05-01 03:22:00,
2013-04-30 23:23:00,54.5,48.8,30.21,SE,128,1.0,7.0,81,0.00,,---,0.01,VWS V14.01,2013-05-01 03:23:00,
2013-04-30 23:24:00,54.5,48.8,30.21,SE,128,1.0,7.0,81,0.00,,---,0.01,VWS V14.01,2013-05-01 03:24:00,
2013-04-30 23:25:00,54.5,49.1,30.21,SE,124,4.0,7.0,82,0.00,,---,0.01,VWS V14.01,2013-05-01 03:25:00,
2013-04-30 23:26:00,54.5,49.1,30.21,ESE,114,7.0,7.0,82,0.00,,---,0.01,VWS V14.01,2013-05-01 03:26:00,
2013-04-30 23:27:00,54.4,49.0,30.21,ESE,120,6.0,7.0,82,0.00,,---,0.01,VWS V14.01,2013-05-01 03:27:00,
2013-04-30 23:28:00,54.4,49.0,30.21,SE,137,0.0,7.0,82,0.00,,---,0.01,VWS V14.01,2013-05-01 03:28:00,
2013-04-30 23:29:00,54.4,49.0,30.21,SE,132,0.0,7.0,82,0.00,,---,0.01,VWS V14.01,2013-05-01 03:29:00,
2013-04-30 23:30:00,54.4,49.0,30.21,East,82,0.0,7.0,82,0.00,,---,0.01,VWS V14.01,2013-05-01 03:30:00,
2013-04-30 23:31:00,54.4,49.0,30.21,East,96,0.0,0.0,82,0.00,,---,0.01,VWS V14.01,2013-05-01 03:31:00,
2013-04-30 23:32:00,54.4,49.0,30.21,East,96,0.0,0.0,82,0.00,,---,0.01,VWS V14.01,2013-05-01 03:32:00,
2013-04-30 23:33:00,54.4,49.0,30.21,East,84,0.0,0.0,82,0.00,,---,0.01,VWS V14.01,2013-05-01 03:33:00,
2013-04-30 23:34:00,54.4,49.3,30.21,East,100,3.0,4.0,83,0.00,,---,0.01,VWS V14.01,2013-05-01 03:34:00,
2013-04-30 23:35:00,54.4,49.3,30.21,East,80,2.0,6.0,83,0.00,,---,0.01,VWS V14.01,2013-05-01 03:35:00,
2013-04-30 23:36:00,54.4,49.3,30.21,East,101,6.0,8.0,83,0.00,,---,0.01,VWS V14.01,2013-05-01 03:36:00,
2013-04-30 23:37:00,54.4,49.3,30.21,SE,132,1.0,8.0,83,0.00,,---,0.01,VWS V14.01,2013-05-01 03:37:00,
2013-04-30 23:38:00,54.4,49.3,30.21,East,101,0.0,8.0,83,0.00,,---,0.01,VWS V14.01,2013-05-01 03:38:00,
2013-04-30 23:39:00,54.4,49.3,30.21,ESE,121,0.0,8.0,83,0.00,,---,0.01,VWS V14.01,2013-05-01 03:39:00,
2013-04-30 23:40:00,54.5,49.5,30.21,ESE,121,0.0,8.0,83,0.00,,---,0.01,VWS V14.01,2013-05-01 03:40:00,
2013-04-30 23:41:00,54.5,49.5,30.21,ESE,121,0.0,0.0,83,0.00,,---,0.01,VWS V14.01,2013-05-01 03:41:00,
2013-04-30 23:42:00,54.7,49.7,30.21,ESE,121,0.0,0.0,83,0.00,,---,0.01,VWS V14.01,2013-05-01 03:42:00,
2013-04-30 23:43:00,55.0,50.3,30.21,East,96,3.0,6.0,84,0.00,,---,0.01,VWS V14.01,2013-05-01 03:43:00,
2013-04-30 23:44:00,55.0,49.6,30.21,ENE,76,1.0,6.0,82,0.00,,---,0.01,VWS V14.01,2013-05-01 03:44:00,
2013-04-30 23:45:00,55.1,49.7,30.21,SE,130,0.0,6.0,82,0.00,,---,0.01,VWS V14.01,2013-05-01 03:45:00,
2013-04-30 23:46:00,55.1,49.7,30.21,East,91,0.0,6.0,82,0.00,,---,0.01,VWS V14.01,2013-05-01 03:46:00,
2013-04-30 23:47:00,55.3,49.9,30.21,East,100,0.0,6.0,82,0.00,,---,0.01,VWS V14.01,2013-05-01 03:47:00,
2013-04-30 23:48:00,55.4,50.0,30.21,ENE,69,5.0,6.0,82,0.00,,---,0.01,VWS V14.01,2013-05-01 03:48:00,
2013-04-30 23:49:00,55.6,50.2,30.21,East,94,6.0,7.0,82,0.00,,---,0.01,VWS V14.01,2013-05-01 03:49:00,
2013-04-30 23:50:00,55.6,49.2,30.21,East,97,6.0,10.0,79,0.00,,---,0.01,VWS V14.01,2013-05-01 03:50:00,
2013-04-30 23:51:00,55.7,49.3,30.21,ESE,103,7.0,7.0,79,0.00,,---,0.01,VWS V14.01,2013-05-01 03:51:00,
2013-04-30 23:52:00,55.9,49.5,30.21,ENE,76,2.0,10.0,79,0.00,,---,0.01,VWS V14.01,2013-05-01 03:52:00,
2013-04-30 23:53:00,56.0,49.6,30.21,East,84,4.0,10.0,79,0.00,,---,0.01,VWS V14.01,2013-05-01 03:53:00,
2013-04-30 23:54:00,56.2,49.8,30.21,ENE,62,2.0,10.0,79,0.00,,---,0.01,VWS V14.01,2013-05-01 03:54:00,
2013-04-30 23:55:00,56.5,50.1,30.21,ESE,107,6.0,10.0,79,0.00,,---,0.01,VWS V14.01,2013-05-01 03:55:00,
2013-04-30 23:56:00,56.5,49.7,30.21,ESE,106,3.0,10.0,78,0.00,,---,0.01,VWS V14.01,2013-05-01 03:56:00,
2013-04-30 23:57:00,56.7,49.9,30.21,East,100,6.0,10.0,78,0.00,,---,0.01,VWS V14.01,2013-05-01 03:57:00,
2013-04-30 23:58:00,56.9,49.8,30.21,East,91,5.0,10.0,77,0.00,,---,0.01,VWS V14.01,2013-05-01 03:58:00,
2013-04-30 23:59:00,57.0,49.9,30.21,East,96,7.0,10.0,77,0.00,,---,0.01,VWS V14.01,2013-05-01 03:59:00,